<?xml version="1.0" encoding="UTF-8" standalone="no" ?>
<gpx xmlns="http://www.topografix.com/GPX/1/1" xmlns:xsi="http://www.w3.org/2001/XMLSchema-instance" xsi:schemaLocation="http://www.topografix.com/GPX/1/1 http://www.topografix.com/GPX/1/1/gpx.xsd" version="1.1" creator="VisuGPX - https://www.visugpx.com">
  <metadata>
    <name>Montjay sommet du bois d\'ESTEVE</name>
    <desc><![CDATA[Au départ du Moulin prendre le sentier qui monte vers les crêtes arrivés au col, les suivre pour atteinte le sommet du bois d\'Estève puis descendre vers montjay par le sentier en parcourant une boucle qui passe à proximité du hameau de Chanpaïsse]]></desc>
  </metadata>
  <trk>
    <name><![CDATA[Montjay sommet du bois d'ESTEVE:07 MAI 2015 09:15]]></name>
    <trkseg>
      <trkpt lat="44.35821" lon="5.61412">
        <ele>766.31</ele>
        <time>2015-05-07T07:15:37Z</time>
      </trkpt>
      <trkpt lat="44.35822" lon="5.61412">
        <ele>769.67</ele>
        <time>2015-05-07T07:15:42Z</time>
      </trkpt>
      <trkpt lat="44.35822" lon="5.61412">
        <ele>773.04</ele>
        <time>2015-05-07T07:15:48Z</time>
      </trkpt>
      <trkpt lat="44.35821" lon="5.61413">
        <ele>776.4</ele>
        <time>2015-05-07T07:15:55Z</time>
      </trkpt>
      <trkpt lat="44.35821" lon="5.61412">
        <ele>776.4</ele>
        <time>2015-05-07T07:15:56Z</time>
      </trkpt>
      <trkpt lat="44.35817" lon="5.61414">
        <ele>778.32</ele>
        <time>2015-05-07T07:16:00Z</time>
      </trkpt>
      <trkpt lat="44.35813" lon="5.61415">
        <ele>779.77</ele>
        <time>2015-05-07T07:16:04Z</time>
      </trkpt>
      <trkpt lat="44.35798" lon="5.61418">
        <ele>780.73</ele>
        <time>2015-05-07T07:16:20Z</time>
      </trkpt>
      <trkpt lat="44.35786" lon="5.6142">
        <ele>781.69</ele>
        <time>2015-05-07T07:16:34Z</time>
      </trkpt>
      <trkpt lat="44.35784" lon="5.6142">
        <ele>782.17</ele>
        <time>2015-05-07T07:16:49Z</time>
      </trkpt>
      <trkpt lat="44.35777" lon="5.61422">
        <ele>782.17</ele>
        <time>2015-05-07T07:17:00Z</time>
      </trkpt>
      <trkpt lat="44.35763" lon="5.61424">
        <ele>783.13</ele>
        <time>2015-05-07T07:17:14Z</time>
      </trkpt>
      <trkpt lat="44.35758" lon="5.61427">
        <ele>783.13</ele>
        <time>2015-05-07T07:17:26Z</time>
      </trkpt>
      <trkpt lat="44.35754" lon="5.61429">
        <ele>783.13</ele>
        <time>2015-05-07T07:17:38Z</time>
      </trkpt>
      <trkpt lat="44.35747" lon="5.6143">
        <ele>783.61</ele>
        <time>2015-05-07T07:17:57Z</time>
      </trkpt>
      <trkpt lat="44.35744" lon="5.61433">
        <ele>784.09</ele>
        <time>2015-05-07T07:18:10Z</time>
      </trkpt>
      <trkpt lat="44.35736" lon="5.6144">
        <ele>785.05</ele>
        <time>2015-05-07T07:18:21Z</time>
      </trkpt>
      <trkpt lat="44.35729" lon="5.61442">
        <ele>785.05</ele>
        <time>2015-05-07T07:18:36Z</time>
      </trkpt>
      <trkpt lat="44.35721" lon="5.61445">
        <ele>785.05</ele>
        <time>2015-05-07T07:18:54Z</time>
      </trkpt>
      <trkpt lat="44.35707" lon="5.61451">
        <ele>785.53</ele>
        <time>2015-05-07T07:19:09Z</time>
      </trkpt>
      <trkpt lat="44.35702" lon="5.61452">
        <ele>785.53</ele>
        <time>2015-05-07T07:19:14Z</time>
      </trkpt>
      <trkpt lat="44.35697" lon="5.61454">
        <ele>786.02</ele>
        <time>2015-05-07T07:19:20Z</time>
      </trkpt>
      <trkpt lat="44.35693" lon="5.61456">
        <ele>786.02</ele>
        <time>2015-05-07T07:19:24Z</time>
      </trkpt>
      <trkpt lat="44.35685" lon="5.6146">
        <ele>786.5</ele>
        <time>2015-05-07T07:19:32Z</time>
      </trkpt>
      <trkpt lat="44.3568" lon="5.61461">
        <ele>786.5</ele>
        <time>2015-05-07T07:19:40Z</time>
      </trkpt>
      <trkpt lat="44.35663" lon="5.61473">
        <ele>787.46</ele>
        <time>2015-05-07T07:19:56Z</time>
      </trkpt>
      <trkpt lat="44.35647" lon="5.61484">
        <ele>787.46</ele>
        <time>2015-05-07T07:20:12Z</time>
      </trkpt>
      <trkpt lat="44.35638" lon="5.61496">
        <ele>788.42</ele>
        <time>2015-05-07T07:20:24Z</time>
      </trkpt>
      <trkpt lat="44.35637" lon="5.61497">
        <ele>788.42</ele>
        <time>2015-05-07T07:20:25Z</time>
      </trkpt>
      <trkpt lat="44.35621" lon="5.61513">
        <ele>788.9</ele>
        <time>2015-05-07T07:20:42Z</time>
      </trkpt>
      <trkpt lat="44.3561" lon="5.61525">
        <ele>789.38</ele>
        <time>2015-05-07T07:20:55Z</time>
      </trkpt>
      <trkpt lat="44.35591" lon="5.61533">
        <ele>790.34</ele>
        <time>2015-05-07T07:21:11Z</time>
      </trkpt>
      <trkpt lat="44.35576" lon="5.61551">
        <ele>790.82</ele>
        <time>2015-05-07T07:21:27Z</time>
      </trkpt>
      <trkpt lat="44.35571" lon="5.61579">
        <ele>791.78</ele>
        <time>2015-05-07T07:21:45Z</time>
      </trkpt>
      <trkpt lat="44.3557" lon="5.61608">
        <ele>792.74</ele>
        <time>2015-05-07T07:22:01Z</time>
      </trkpt>
      <trkpt lat="44.35567" lon="5.61634">
        <ele>793.22</ele>
        <time>2015-05-07T07:22:17Z</time>
      </trkpt>
      <trkpt lat="44.35564" lon="5.61649">
        <ele>794.67</ele>
        <time>2015-05-07T07:22:32Z</time>
      </trkpt>
      <trkpt lat="44.35563" lon="5.61653">
        <ele>794.67</ele>
        <time>2015-05-07T07:22:49Z</time>
      </trkpt>
      <trkpt lat="44.3556" lon="5.61665">
        <ele>795.15</ele>
        <time>2015-05-07T07:23:01Z</time>
      </trkpt>
      <trkpt lat="44.35556" lon="5.61682">
        <ele>795.63</ele>
        <time>2015-05-07T07:23:14Z</time>
      </trkpt>
      <trkpt lat="44.35552" lon="5.61695">
        <ele>796.59</ele>
        <time>2015-05-07T07:23:27Z</time>
      </trkpt>
      <trkpt lat="44.3555" lon="5.61696">
        <ele>797.07</ele>
        <time>2015-05-07T07:23:43Z</time>
      </trkpt>
      <trkpt lat="44.35546" lon="5.61698">
        <ele>797.55</ele>
        <time>2015-05-07T07:23:56Z</time>
      </trkpt>
      <trkpt lat="44.35544" lon="5.617">
        <ele>797.55</ele>
        <time>2015-05-07T07:24:08Z</time>
      </trkpt>
      <trkpt lat="44.35543" lon="5.61698">
        <ele>798.51</ele>
        <time>2015-05-07T07:24:19Z</time>
      </trkpt>
      <trkpt lat="44.35537" lon="5.61712">
        <ele>798.51</ele>
        <time>2015-05-07T07:24:32Z</time>
      </trkpt>
      <trkpt lat="44.35536" lon="5.61714">
        <ele>798.51</ele>
        <time>2015-05-07T07:24:34Z</time>
      </trkpt>
      <trkpt lat="44.35532" lon="5.61733">
        <ele>799.95</ele>
        <time>2015-05-07T07:24:49Z</time>
      </trkpt>
      <trkpt lat="44.3553" lon="5.61748">
        <ele>800.92</ele>
        <time>2015-05-07T07:25:02Z</time>
      </trkpt>
      <trkpt lat="44.35526" lon="5.61759">
        <ele>801.88</ele>
        <time>2015-05-07T07:25:12Z</time>
      </trkpt>
      <trkpt lat="44.35521" lon="5.61759">
        <ele>802.84</ele>
        <time>2015-05-07T07:25:18Z</time>
      </trkpt>
      <trkpt lat="44.35509" lon="5.61746">
        <ele>804.28</ele>
        <time>2015-05-07T07:25:32Z</time>
      </trkpt>
      <trkpt lat="44.35507" lon="5.6173">
        <ele>806.2</ele>
        <time>2015-05-07T07:25:47Z</time>
      </trkpt>
      <trkpt lat="44.35507" lon="5.61727">
        <ele>806.2</ele>
        <time>2015-05-07T07:25:49Z</time>
      </trkpt>
      <trkpt lat="44.35511" lon="5.61709">
        <ele>807.64</ele>
        <time>2015-05-07T07:26:03Z</time>
      </trkpt>
      <trkpt lat="44.35517" lon="5.6169">
        <ele>809.09</ele>
        <time>2015-05-07T07:26:18Z</time>
      </trkpt>
      <trkpt lat="44.35521" lon="5.61673">
        <ele>811.01</ele>
        <time>2015-05-07T07:26:32Z</time>
      </trkpt>
      <trkpt lat="44.35524" lon="5.61657">
        <ele>811.97</ele>
        <time>2015-05-07T07:26:45Z</time>
      </trkpt>
      <trkpt lat="44.35526" lon="5.61639">
        <ele>813.41</ele>
        <time>2015-05-07T07:27:00Z</time>
      </trkpt>
      <trkpt lat="44.35531" lon="5.61625">
        <ele>814.85</ele>
        <time>2015-05-07T07:27:13Z</time>
      </trkpt>
      <trkpt lat="44.35532" lon="5.6162">
        <ele>814.85</ele>
        <time>2015-05-07T07:27:17Z</time>
      </trkpt>
      <trkpt lat="44.35533" lon="5.61601">
        <ele>816.3</ele>
        <time>2015-05-07T07:27:31Z</time>
      </trkpt>
      <trkpt lat="44.35533" lon="5.61599">
        <ele>816.3</ele>
        <time>2015-05-07T07:27:32Z</time>
      </trkpt>
      <trkpt lat="44.35528" lon="5.61592">
        <ele>817.26</ele>
        <time>2015-05-07T07:27:39Z</time>
      </trkpt>
      <trkpt lat="44.35519" lon="5.61588">
        <ele>817.74</ele>
        <time>2015-05-07T07:27:50Z</time>
      </trkpt>
      <trkpt lat="44.35517" lon="5.61588">
        <ele>818.22</ele>
        <time>2015-05-07T07:27:52Z</time>
      </trkpt>
      <trkpt lat="44.35515" lon="5.61588">
        <ele>818.22</ele>
        <time>2015-05-07T07:27:54Z</time>
      </trkpt>
      <trkpt lat="44.35499" lon="5.61588">
        <ele>820.14</ele>
        <time>2015-05-07T07:28:11Z</time>
      </trkpt>
      <trkpt lat="44.35486" lon="5.61586">
        <ele>821.58</ele>
        <time>2015-05-07T07:28:26Z</time>
      </trkpt>
      <trkpt lat="44.35473" lon="5.61582">
        <ele>822.55</ele>
        <time>2015-05-07T07:28:40Z</time>
      </trkpt>
      <trkpt lat="44.3546" lon="5.61575">
        <ele>824.47</ele>
        <time>2015-05-07T07:28:56Z</time>
      </trkpt>
      <trkpt lat="44.35448" lon="5.61566">
        <ele>825.91</ele>
        <time>2015-05-07T07:29:10Z</time>
      </trkpt>
      <trkpt lat="44.35445" lon="5.61563">
        <ele>826.39</ele>
        <time>2015-05-07T07:29:14Z</time>
      </trkpt>
      <trkpt lat="44.35433" lon="5.61551">
        <ele>827.35</ele>
        <time>2015-05-07T07:29:29Z</time>
      </trkpt>
      <trkpt lat="44.35419" lon="5.61545">
        <ele>828.79</ele>
        <time>2015-05-07T07:29:44Z</time>
      </trkpt>
      <trkpt lat="44.35419" lon="5.61548">
        <ele>828.79</ele>
        <time>2015-05-07T07:29:46Z</time>
      </trkpt>
      <trkpt lat="44.35423" lon="5.61558">
        <ele>829.76</ele>
        <time>2015-05-07T07:29:55Z</time>
      </trkpt>
      <trkpt lat="44.35433" lon="5.6157">
        <ele>830.72</ele>
        <time>2015-05-07T07:30:09Z</time>
      </trkpt>
      <trkpt lat="44.35442" lon="5.61585">
        <ele>832.16</ele>
        <time>2015-05-07T07:30:24Z</time>
      </trkpt>
      <trkpt lat="44.35449" lon="5.61597">
        <ele>833.12</ele>
        <time>2015-05-07T07:30:37Z</time>
      </trkpt>
      <trkpt lat="44.35457" lon="5.61611">
        <ele>835.04</ele>
        <time>2015-05-07T07:30:52Z</time>
      </trkpt>
      <trkpt lat="44.35462" lon="5.61622">
        <ele>835.52</ele>
        <time>2015-05-07T07:31:02Z</time>
      </trkpt>
      <trkpt lat="44.35459" lon="5.6164">
        <ele>836.96</ele>
        <time>2015-05-07T07:31:18Z</time>
      </trkpt>
      <trkpt lat="44.35449" lon="5.61649">
        <ele>838.89</ele>
        <time>2015-05-07T07:31:32Z</time>
      </trkpt>
      <trkpt lat="44.35442" lon="5.61656">
        <ele>839.85</ele>
        <time>2015-05-07T07:31:41Z</time>
      </trkpt>
      <trkpt lat="44.35431" lon="5.61668">
        <ele>841.29</ele>
        <time>2015-05-07T07:31:56Z</time>
      </trkpt>
      <trkpt lat="44.35422" lon="5.61678">
        <ele>842.73</ele>
        <time>2015-05-07T07:32:10Z</time>
      </trkpt>
      <trkpt lat="44.35411" lon="5.61686">
        <ele>843.69</ele>
        <time>2015-05-07T07:32:25Z</time>
      </trkpt>
      <trkpt lat="44.35403" lon="5.6169">
        <ele>844.66</ele>
        <time>2015-05-07T07:32:34Z</time>
      </trkpt>
      <trkpt lat="44.35392" lon="5.61695">
        <ele>846.1</ele>
        <time>2015-05-07T07:32:47Z</time>
      </trkpt>
      <trkpt lat="44.35379" lon="5.61696">
        <ele>847.54</ele>
        <time>2015-05-07T07:33:04Z</time>
      </trkpt>
      <trkpt lat="44.35366" lon="5.61703">
        <ele>848.98</ele>
        <time>2015-05-07T07:33:19Z</time>
      </trkpt>
      <trkpt lat="44.35359" lon="5.61719">
        <ele>850.42</ele>
        <time>2015-05-07T07:33:33Z</time>
      </trkpt>
      <trkpt lat="44.35357" lon="5.61737">
        <ele>851.87</ele>
        <time>2015-05-07T07:33:47Z</time>
      </trkpt>
      <trkpt lat="44.35353" lon="5.6175">
        <ele>852.83</ele>
        <time>2015-05-07T07:33:59Z</time>
      </trkpt>
      <trkpt lat="44.35352" lon="5.61767">
        <ele>854.27</ele>
        <time>2015-05-07T07:34:14Z</time>
      </trkpt>
      <trkpt lat="44.35353" lon="5.61781">
        <ele>855.71</ele>
        <time>2015-05-07T07:34:26Z</time>
      </trkpt>
      <trkpt lat="44.35355" lon="5.61797">
        <ele>857.15</ele>
        <time>2015-05-07T07:34:39Z</time>
      </trkpt>
      <trkpt lat="44.35356" lon="5.61802">
        <ele>857.63</ele>
        <time>2015-05-07T07:34:43Z</time>
      </trkpt>
      <trkpt lat="44.35358" lon="5.61819">
        <ele>859.08</ele>
        <time>2015-05-07T07:34:58Z</time>
      </trkpt>
      <trkpt lat="44.35363" lon="5.61837">
        <ele>860.52</ele>
        <time>2015-05-07T07:35:13Z</time>
      </trkpt>
      <trkpt lat="44.35367" lon="5.61853">
        <ele>861.96</ele>
        <time>2015-05-07T07:35:27Z</time>
      </trkpt>
      <trkpt lat="44.3537" lon="5.61872">
        <ele>863.4</ele>
        <time>2015-05-07T07:35:43Z</time>
      </trkpt>
      <trkpt lat="44.35369" lon="5.61884">
        <ele>864.36</ele>
        <time>2015-05-07T07:35:53Z</time>
      </trkpt>
      <trkpt lat="44.35364" lon="5.619">
        <ele>865.8</ele>
        <time>2015-05-07T07:36:07Z</time>
      </trkpt>
      <trkpt lat="44.35358" lon="5.61913">
        <ele>867.25</ele>
        <time>2015-05-07T07:36:20Z</time>
      </trkpt>
      <trkpt lat="44.35352" lon="5.6192">
        <ele>868.21</ele>
        <time>2015-05-07T07:36:29Z</time>
      </trkpt>
      <trkpt lat="44.35342" lon="5.61929">
        <ele>869.65</ele>
        <time>2015-05-07T07:36:43Z</time>
      </trkpt>
      <trkpt lat="44.35334" lon="5.61934">
        <ele>871.57</ele>
        <time>2015-05-07T07:36:55Z</time>
      </trkpt>
      <trkpt lat="44.35327" lon="5.61938">
        <ele>873.01</ele>
        <time>2015-05-07T07:37:04Z</time>
      </trkpt>
      <trkpt lat="44.35317" lon="5.61943">
        <ele>874.46</ele>
        <time>2015-05-07T07:37:17Z</time>
      </trkpt>
      <trkpt lat="44.35309" lon="5.61946">
        <ele>875.9</ele>
        <time>2015-05-07T07:37:28Z</time>
      </trkpt>
      <trkpt lat="44.35301" lon="5.61951">
        <ele>877.34</ele>
        <time>2015-05-07T07:37:41Z</time>
      </trkpt>
      <trkpt lat="44.35288" lon="5.61955">
        <ele>878.78</ele>
        <time>2015-05-07T07:37:56Z</time>
      </trkpt>
      <trkpt lat="44.35278" lon="5.6196">
        <ele>880.22</ele>
        <time>2015-05-07T07:38:09Z</time>
      </trkpt>
      <trkpt lat="44.35269" lon="5.61964">
        <ele>881.67</ele>
        <time>2015-05-07T07:38:21Z</time>
      </trkpt>
      <trkpt lat="44.3526" lon="5.61975">
        <ele>882.63</ele>
        <time>2015-05-07T07:38:36Z</time>
      </trkpt>
      <trkpt lat="44.35252" lon="5.61985">
        <ele>883.59</ele>
        <time>2015-05-07T07:38:50Z</time>
      </trkpt>
      <trkpt lat="44.35245" lon="5.61994">
        <ele>884.55</ele>
        <time>2015-05-07T07:39:02Z</time>
      </trkpt>
      <trkpt lat="44.35235" lon="5.62006">
        <ele>885.99</ele>
        <time>2015-05-07T07:39:17Z</time>
      </trkpt>
      <trkpt lat="44.35228" lon="5.62013">
        <ele>887.43</ele>
        <time>2015-05-07T07:39:30Z</time>
      </trkpt>
      <trkpt lat="44.3522" lon="5.62018">
        <ele>889.36</ele>
        <time>2015-05-07T07:39:44Z</time>
      </trkpt>
      <trkpt lat="44.35212" lon="5.62019">
        <ele>891.28</ele>
        <time>2015-05-07T07:39:58Z</time>
      </trkpt>
      <trkpt lat="44.35205" lon="5.62019">
        <ele>893.2</ele>
        <time>2015-05-07T07:40:08Z</time>
      </trkpt>
      <trkpt lat="44.35194" lon="5.62018">
        <ele>895.12</ele>
        <time>2015-05-07T07:40:22Z</time>
      </trkpt>
      <trkpt lat="44.35183" lon="5.62017">
        <ele>896.57</ele>
        <time>2015-05-07T07:40:36Z</time>
      </trkpt>
      <trkpt lat="44.35174" lon="5.62018">
        <ele>898.01</ele>
        <time>2015-05-07T07:40:49Z</time>
      </trkpt>
      <trkpt lat="44.35165" lon="5.62017">
        <ele>899.45</ele>
        <time>2015-05-07T07:41:01Z</time>
      </trkpt>
      <trkpt lat="44.35157" lon="5.62014">
        <ele>901.85</ele>
        <time>2015-05-07T07:41:15Z</time>
      </trkpt>
      <trkpt lat="44.35149" lon="5.62003">
        <ele>902.82</ele>
        <time>2015-05-07T07:41:29Z</time>
      </trkpt>
      <trkpt lat="44.3514" lon="5.62">
        <ele>903.78</ele>
        <time>2015-05-07T07:41:40Z</time>
      </trkpt>
      <trkpt lat="44.3513" lon="5.62002">
        <ele>905.22</ele>
        <time>2015-05-07T07:41:51Z</time>
      </trkpt>
      <trkpt lat="44.35126" lon="5.62002">
        <ele>905.22</ele>
        <time>2015-05-07T07:41:55Z</time>
      </trkpt>
      <trkpt lat="44.35111" lon="5.62006">
        <ele>907.14</ele>
        <time>2015-05-07T07:42:11Z</time>
      </trkpt>
      <trkpt lat="44.35103" lon="5.62011">
        <ele>908.1</ele>
        <time>2015-05-07T07:42:22Z</time>
      </trkpt>
      <trkpt lat="44.35091" lon="5.62015">
        <ele>910.03</ele>
        <time>2015-05-07T07:42:37Z</time>
      </trkpt>
      <trkpt lat="44.35083" lon="5.62022">
        <ele>911.95</ele>
        <time>2015-05-07T07:42:50Z</time>
      </trkpt>
      <trkpt lat="44.35073" lon="5.62028">
        <ele>913.39</ele>
        <time>2015-05-07T07:43:04Z</time>
      </trkpt>
      <trkpt lat="44.35064" lon="5.62034">
        <ele>915.31</ele>
        <time>2015-05-07T07:43:18Z</time>
      </trkpt>
      <trkpt lat="44.35056" lon="5.6204">
        <ele>916.75</ele>
        <time>2015-05-07T07:43:29Z</time>
      </trkpt>
      <trkpt lat="44.35047" lon="5.62048">
        <ele>917.72</ele>
        <time>2015-05-07T07:43:42Z</time>
      </trkpt>
      <trkpt lat="44.3504" lon="5.62054">
        <ele>919.64</ele>
        <time>2015-05-07T07:43:53Z</time>
      </trkpt>
      <trkpt lat="44.35032" lon="5.62059">
        <ele>920.6</ele>
        <time>2015-05-07T07:44:06Z</time>
      </trkpt>
      <trkpt lat="44.35023" lon="5.62065">
        <ele>922.52</ele>
        <time>2015-05-07T07:44:19Z</time>
      </trkpt>
      <trkpt lat="44.35014" lon="5.62073">
        <ele>923.96</ele>
        <time>2015-05-07T07:44:33Z</time>
      </trkpt>
      <trkpt lat="44.35006" lon="5.62079">
        <ele>925.89</ele>
        <time>2015-05-07T07:44:47Z</time>
      </trkpt>
      <trkpt lat="44.34997" lon="5.62086">
        <ele>927.81</ele>
        <time>2015-05-07T07:45:02Z</time>
      </trkpt>
      <trkpt lat="44.34986" lon="5.62094">
        <ele>929.73</ele>
        <time>2015-05-07T07:45:18Z</time>
      </trkpt>
      <trkpt lat="44.34976" lon="5.621">
        <ele>931.65</ele>
        <time>2015-05-07T07:45:34Z</time>
      </trkpt>
      <trkpt lat="44.34972" lon="5.62104">
        <ele>932.62</ele>
        <time>2015-05-07T07:45:41Z</time>
      </trkpt>
      <trkpt lat="44.34962" lon="5.62109">
        <ele>935.02</ele>
        <time>2015-05-07T07:45:55Z</time>
      </trkpt>
      <trkpt lat="44.34956" lon="5.62115">
        <ele>935.98</ele>
        <time>2015-05-07T07:46:06Z</time>
      </trkpt>
      <trkpt lat="44.34946" lon="5.62121">
        <ele>937.42</ele>
        <time>2015-05-07T07:46:21Z</time>
      </trkpt>
      <trkpt lat="44.34939" lon="5.62127">
        <ele>939.83</ele>
        <time>2015-05-07T07:46:35Z</time>
      </trkpt>
      <trkpt lat="44.34931" lon="5.62132">
        <ele>941.27</ele>
        <time>2015-05-07T07:46:48Z</time>
      </trkpt>
      <trkpt lat="44.34923" lon="5.62138">
        <ele>942.71</ele>
        <time>2015-05-07T07:46:59Z</time>
      </trkpt>
      <trkpt lat="44.34914" lon="5.62147">
        <ele>944.15</ele>
        <time>2015-05-07T07:47:13Z</time>
      </trkpt>
      <trkpt lat="44.34906" lon="5.62158">
        <ele>945.59</ele>
        <time>2015-05-07T07:47:27Z</time>
      </trkpt>
      <trkpt lat="44.34899" lon="5.62164">
        <ele>947.04</ele>
        <time>2015-05-07T07:47:38Z</time>
      </trkpt>
      <trkpt lat="44.34891" lon="5.62174">
        <ele>948.48</ele>
        <time>2015-05-07T07:47:51Z</time>
      </trkpt>
      <trkpt lat="44.34885" lon="5.62182">
        <ele>950.4</ele>
        <time>2015-05-07T07:48:03Z</time>
      </trkpt>
      <trkpt lat="44.34878" lon="5.6219">
        <ele>951.36</ele>
        <time>2015-05-07T07:48:15Z</time>
      </trkpt>
      <trkpt lat="44.3487" lon="5.62199">
        <ele>953.28</ele>
        <time>2015-05-07T07:48:28Z</time>
      </trkpt>
      <trkpt lat="44.34868" lon="5.62202">
        <ele>953.77</ele>
        <time>2015-05-07T07:48:32Z</time>
      </trkpt>
      <trkpt lat="44.3486" lon="5.6221">
        <ele>956.17</ele>
        <time>2015-05-07T07:48:44Z</time>
      </trkpt>
      <trkpt lat="44.34852" lon="5.6222">
        <ele>957.61</ele>
        <time>2015-05-07T07:48:58Z</time>
      </trkpt>
      <trkpt lat="44.34845" lon="5.62231">
        <ele>959.05</ele>
        <time>2015-05-07T07:49:11Z</time>
      </trkpt>
      <trkpt lat="44.3484" lon="5.62236">
        <ele>960.49</ele>
        <time>2015-05-07T07:49:25Z</time>
      </trkpt>
      <trkpt lat="44.34836" lon="5.62245">
        <ele>961.46</ele>
        <time>2015-05-07T07:49:36Z</time>
      </trkpt>
      <trkpt lat="44.3483" lon="5.62255">
        <ele>963.38</ele>
        <time>2015-05-07T07:49:48Z</time>
      </trkpt>
      <trkpt lat="44.34824" lon="5.62267">
        <ele>965.3</ele>
        <time>2015-05-07T07:50:02Z</time>
      </trkpt>
      <trkpt lat="44.3482" lon="5.62279">
        <ele>966.74</ele>
        <time>2015-05-07T07:50:16Z</time>
      </trkpt>
      <trkpt lat="44.34815" lon="5.6229">
        <ele>968.67</ele>
        <time>2015-05-07T07:50:29Z</time>
      </trkpt>
      <trkpt lat="44.34808" lon="5.62303">
        <ele>970.59</ele>
        <time>2015-05-07T07:50:43Z</time>
      </trkpt>
      <trkpt lat="44.34799" lon="5.62317">
        <ele>972.51</ele>
        <time>2015-05-07T07:51:01Z</time>
      </trkpt>
      <trkpt lat="44.34795" lon="5.62326">
        <ele>974.43</ele>
        <time>2015-05-07T07:51:13Z</time>
      </trkpt>
      <trkpt lat="44.34795" lon="5.62325">
        <ele>974.43</ele>
        <time>2015-05-07T07:51:29Z</time>
      </trkpt>
      <trkpt lat="44.34794" lon="5.62323">
        <ele>973.47</ele>
        <time>2015-05-07T07:51:45Z</time>
      </trkpt>
      <trkpt lat="44.34794" lon="5.62324">
        <ele>973.47</ele>
        <time>2015-05-07T07:52:11Z</time>
      </trkpt>
      <trkpt lat="44.34794" lon="5.62319">
        <ele>973.47</ele>
        <time>2015-05-07T07:52:52Z</time>
      </trkpt>
      <trkpt lat="44.34791" lon="5.62316">
        <ele>973.95</ele>
        <time>2015-05-07T07:53:21Z</time>
      </trkpt>
      <trkpt lat="44.34793" lon="5.62321">
        <ele>973.95</ele>
        <time>2015-05-07T07:53:51Z</time>
      </trkpt>
      <trkpt lat="44.34795" lon="5.6232">
        <ele>973.95</ele>
        <time>2015-05-07T07:54:17Z</time>
      </trkpt>
      <trkpt lat="44.34794" lon="5.62319">
        <ele>973.95</ele>
        <time>2015-05-07T07:54:18Z</time>
      </trkpt>
      <trkpt lat="44.34796" lon="5.62322">
        <ele>974.91</ele>
        <time>2015-05-07T07:54:28Z</time>
      </trkpt>
      <trkpt lat="44.34796" lon="5.62324">
        <ele>974.91</ele>
        <time>2015-05-07T07:54:43Z</time>
      </trkpt>
      <trkpt lat="44.34797" lon="5.62325">
        <ele>974.91</ele>
        <time>2015-05-07T07:54:59Z</time>
      </trkpt>
      <trkpt lat="44.34795" lon="5.62324">
        <ele>975.39</ele>
        <time>2015-05-07T07:55:21Z</time>
      </trkpt>
      <trkpt lat="44.34794" lon="5.62325">
        <ele>974.91</ele>
        <time>2015-05-07T07:55:35Z</time>
      </trkpt>
      <trkpt lat="44.34794" lon="5.62327">
        <ele>974.91</ele>
        <time>2015-05-07T07:55:59Z</time>
      </trkpt>
      <trkpt lat="44.34793" lon="5.62325">
        <ele>975.39</ele>
        <time>2015-05-07T07:56:26Z</time>
      </trkpt>
      <trkpt lat="44.34794" lon="5.62325">
        <ele>974.91</ele>
        <time>2015-05-07T07:56:45Z</time>
      </trkpt>
      <trkpt lat="44.34794" lon="5.62326">
        <ele>974.91</ele>
        <time>2015-05-07T07:57:03Z</time>
      </trkpt>
      <trkpt lat="44.34794" lon="5.62327">
        <ele>974.91</ele>
        <time>2015-05-07T07:57:21Z</time>
      </trkpt>
      <trkpt lat="44.34789" lon="5.62335">
        <ele>976.36</ele>
        <time>2015-05-07T07:57:31Z</time>
      </trkpt>
      <trkpt lat="44.34783" lon="5.62346">
        <ele>978.28</ele>
        <time>2015-05-07T07:57:45Z</time>
      </trkpt>
      <trkpt lat="44.34778" lon="5.62355">
        <ele>979.72</ele>
        <time>2015-05-07T07:57:56Z</time>
      </trkpt>
      <trkpt lat="44.34772" lon="5.62363">
        <ele>981.16</ele>
        <time>2015-05-07T07:58:08Z</time>
      </trkpt>
      <trkpt lat="44.34766" lon="5.62372">
        <ele>982.6</ele>
        <time>2015-05-07T07:58:19Z</time>
      </trkpt>
      <trkpt lat="44.34761" lon="5.62379">
        <ele>984.05</ele>
        <time>2015-05-07T07:58:31Z</time>
      </trkpt>
      <trkpt lat="44.34757" lon="5.62387">
        <ele>985.01</ele>
        <time>2015-05-07T07:58:43Z</time>
      </trkpt>
      <trkpt lat="44.34751" lon="5.62396">
        <ele>986.45</ele>
        <time>2015-05-07T07:58:56Z</time>
      </trkpt>
      <trkpt lat="44.34746" lon="5.62405">
        <ele>987.89</ele>
        <time>2015-05-07T07:59:07Z</time>
      </trkpt>
      <trkpt lat="44.34745" lon="5.6241">
        <ele>988.85</ele>
        <time>2015-05-07T07:59:12Z</time>
      </trkpt>
      <trkpt lat="44.34738" lon="5.62422">
        <ele>990.78</ele>
        <time>2015-05-07T07:59:27Z</time>
      </trkpt>
      <trkpt lat="44.34731" lon="5.62431">
        <ele>992.7</ele>
        <time>2015-05-07T07:59:40Z</time>
      </trkpt>
      <trkpt lat="44.34725" lon="5.62442">
        <ele>994.14</ele>
        <time>2015-05-07T07:59:54Z</time>
      </trkpt>
      <trkpt lat="44.3472" lon="5.62452">
        <ele>996.06</ele>
        <time>2015-05-07T08:00:06Z</time>
      </trkpt>
      <trkpt lat="44.34714" lon="5.62461">
        <ele>997.51</ele>
        <time>2015-05-07T08:00:19Z</time>
      </trkpt>
      <trkpt lat="44.34707" lon="5.62472">
        <ele>999.43</ele>
        <time>2015-05-07T08:00:32Z</time>
      </trkpt>
      <trkpt lat="44.34699" lon="5.62483">
        <ele>1001.35</ele>
        <time>2015-05-07T08:00:46Z</time>
      </trkpt>
      <trkpt lat="44.34693" lon="5.62493">
        <ele>1003.27</ele>
        <time>2015-05-07T08:01:02Z</time>
      </trkpt>
      <trkpt lat="44.34686" lon="5.62504">
        <ele>1004.72</ele>
        <time>2015-05-07T08:01:16Z</time>
      </trkpt>
      <trkpt lat="44.3468" lon="5.62511">
        <ele>1006.64</ele>
        <time>2015-05-07T08:01:29Z</time>
      </trkpt>
      <trkpt lat="44.34674" lon="5.62519">
        <ele>1008.56</ele>
        <time>2015-05-07T08:01:41Z</time>
      </trkpt>
      <trkpt lat="44.34666" lon="5.62529">
        <ele>1010</ele>
        <time>2015-05-07T08:01:55Z</time>
      </trkpt>
      <trkpt lat="44.34659" lon="5.62536">
        <ele>1011.93</ele>
        <time>2015-05-07T08:02:08Z</time>
      </trkpt>
      <trkpt lat="44.34654" lon="5.62545">
        <ele>1013.85</ele>
        <time>2015-05-07T08:02:21Z</time>
      </trkpt>
      <trkpt lat="44.34648" lon="5.62554">
        <ele>1015.29</ele>
        <time>2015-05-07T08:02:34Z</time>
      </trkpt>
      <trkpt lat="44.34642" lon="5.62561">
        <ele>1017.21</ele>
        <time>2015-05-07T08:02:49Z</time>
      </trkpt>
      <trkpt lat="44.34636" lon="5.62568">
        <ele>1019.62</ele>
        <time>2015-05-07T08:03:03Z</time>
      </trkpt>
      <trkpt lat="44.34631" lon="5.62576">
        <ele>1021.06</ele>
        <time>2015-05-07T08:03:16Z</time>
      </trkpt>
      <trkpt lat="44.34625" lon="5.62586">
        <ele>1023.46</ele>
        <time>2015-05-07T08:03:31Z</time>
      </trkpt>
      <trkpt lat="44.3462" lon="5.62591">
        <ele>1024.42</ele>
        <time>2015-05-07T08:03:44Z</time>
      </trkpt>
      <trkpt lat="44.34615" lon="5.62601">
        <ele>1026.34</ele>
        <time>2015-05-07T08:03:58Z</time>
      </trkpt>
      <trkpt lat="44.3461" lon="5.62608">
        <ele>1028.75</ele>
        <time>2015-05-07T08:04:11Z</time>
      </trkpt>
      <trkpt lat="44.34604" lon="5.62616">
        <ele>1030.67</ele>
        <time>2015-05-07T08:04:25Z</time>
      </trkpt>
      <trkpt lat="44.34597" lon="5.62626">
        <ele>1033.07</ele>
        <time>2015-05-07T08:04:40Z</time>
      </trkpt>
      <trkpt lat="44.34592" lon="5.62634">
        <ele>1035</ele>
        <time>2015-05-07T08:04:52Z</time>
      </trkpt>
      <trkpt lat="44.34583" lon="5.62643">
        <ele>1036.92</ele>
        <time>2015-05-07T08:05:08Z</time>
      </trkpt>
      <trkpt lat="44.34575" lon="5.62652">
        <ele>1039.8</ele>
        <time>2015-05-07T08:05:25Z</time>
      </trkpt>
      <trkpt lat="44.34572" lon="5.62663">
        <ele>1041.25</ele>
        <time>2015-05-07T08:05:38Z</time>
      </trkpt>
      <trkpt lat="44.34569" lon="5.62671">
        <ele>1042.69</ele>
        <time>2015-05-07T08:05:47Z</time>
      </trkpt>
      <trkpt lat="44.34561" lon="5.6268">
        <ele>1044.61</ele>
        <time>2015-05-07T08:06:02Z</time>
      </trkpt>
      <trkpt lat="44.34557" lon="5.62685">
        <ele>1046.05</ele>
        <time>2015-05-07T08:06:11Z</time>
      </trkpt>
      <trkpt lat="44.34551" lon="5.62694">
        <ele>1047.97</ele>
        <time>2015-05-07T08:06:23Z</time>
      </trkpt>
      <trkpt lat="44.34541" lon="5.62705">
        <ele>1049.9</ele>
        <time>2015-05-07T08:06:40Z</time>
      </trkpt>
      <trkpt lat="44.34533" lon="5.62718">
        <ele>1051.34</ele>
        <time>2015-05-07T08:06:56Z</time>
      </trkpt>
      <trkpt lat="44.34525" lon="5.62732">
        <ele>1052.78</ele>
        <time>2015-05-07T08:07:12Z</time>
      </trkpt>
      <trkpt lat="44.34514" lon="5.62749">
        <ele>1053.74</ele>
        <time>2015-05-07T08:07:30Z</time>
      </trkpt>
      <trkpt lat="44.34512" lon="5.62752">
        <ele>1054.22</ele>
        <time>2015-05-07T08:07:33Z</time>
      </trkpt>
      <trkpt lat="44.34501" lon="5.62765">
        <ele>1055.18</ele>
        <time>2015-05-07T08:07:48Z</time>
      </trkpt>
      <trkpt lat="44.34496" lon="5.62772">
        <ele>1055.18</ele>
        <time>2015-05-07T08:07:58Z</time>
      </trkpt>
      <trkpt lat="44.34494" lon="5.62777">
        <ele>1055.18</ele>
        <time>2015-05-07T08:08:02Z</time>
      </trkpt>
      <trkpt lat="44.34482" lon="5.62786">
        <ele>1056.63</ele>
        <time>2015-05-07T08:08:18Z</time>
      </trkpt>
      <trkpt lat="44.34474" lon="5.62798">
        <ele>1057.59</ele>
        <time>2015-05-07T08:08:31Z</time>
      </trkpt>
      <trkpt lat="44.34464" lon="5.62808">
        <ele>1059.51</ele>
        <time>2015-05-07T08:08:46Z</time>
      </trkpt>
      <trkpt lat="44.34457" lon="5.62814">
        <ele>1060.95</ele>
        <time>2015-05-07T08:08:59Z</time>
      </trkpt>
      <trkpt lat="44.34454" lon="5.62818">
        <ele>1060.95</ele>
        <time>2015-05-07T08:09:08Z</time>
      </trkpt>
      <trkpt lat="44.34446" lon="5.62831">
        <ele>1060.95</ele>
        <time>2015-05-07T08:09:21Z</time>
      </trkpt>
      <trkpt lat="44.34435" lon="5.62845">
        <ele>1061.91</ele>
        <time>2015-05-07T08:09:38Z</time>
      </trkpt>
      <trkpt lat="44.34428" lon="5.62855">
        <ele>1061.91</ele>
        <time>2015-05-07T08:09:52Z</time>
      </trkpt>
      <trkpt lat="44.3442" lon="5.62866">
        <ele>1062.39</ele>
        <time>2015-05-07T08:10:06Z</time>
      </trkpt>
      <trkpt lat="44.34417" lon="5.62871">
        <ele>1062.39</ele>
        <time>2015-05-07T08:10:11Z</time>
      </trkpt>
      <trkpt lat="44.34405" lon="5.62882">
        <ele>1062.87</ele>
        <time>2015-05-07T08:10:27Z</time>
      </trkpt>
      <trkpt lat="44.34402" lon="5.62888">
        <ele>1063.84</ele>
        <time>2015-05-07T08:10:33Z</time>
      </trkpt>
      <trkpt lat="44.34394" lon="5.62901">
        <ele>1064.8</ele>
        <time>2015-05-07T08:10:46Z</time>
      </trkpt>
      <trkpt lat="44.34392" lon="5.62904">
        <ele>1065.28</ele>
        <time>2015-05-07T08:10:49Z</time>
      </trkpt>
      <trkpt lat="44.34384" lon="5.62914">
        <ele>1066.24</ele>
        <time>2015-05-07T08:11:02Z</time>
      </trkpt>
      <trkpt lat="44.34375" lon="5.62928">
        <ele>1067.68</ele>
        <time>2015-05-07T08:11:17Z</time>
      </trkpt>
      <trkpt lat="44.3437" lon="5.6294">
        <ele>1069.12</ele>
        <time>2015-05-07T08:11:29Z</time>
      </trkpt>
      <trkpt lat="44.34359" lon="5.62952">
        <ele>1070.57</ele>
        <time>2015-05-07T08:11:46Z</time>
      </trkpt>
      <trkpt lat="44.3435" lon="5.62962">
        <ele>1072.49</ele>
        <time>2015-05-07T08:12:00Z</time>
      </trkpt>
      <trkpt lat="44.34341" lon="5.62971">
        <ele>1073.93</ele>
        <time>2015-05-07T08:12:14Z</time>
      </trkpt>
      <trkpt lat="44.34336" lon="5.62981">
        <ele>1075.37</ele>
        <time>2015-05-07T08:12:26Z</time>
      </trkpt>
      <trkpt lat="44.34331" lon="5.62993">
        <ele>1077.78</ele>
        <time>2015-05-07T08:12:39Z</time>
      </trkpt>
      <trkpt lat="44.34327" lon="5.63005">
        <ele>1078.74</ele>
        <time>2015-05-07T08:12:55Z</time>
      </trkpt>
      <trkpt lat="44.34322" lon="5.6302">
        <ele>1080.66</ele>
        <time>2015-05-07T08:13:10Z</time>
      </trkpt>
      <trkpt lat="44.34317" lon="5.63036">
        <ele>1082.1</ele>
        <time>2015-05-07T08:13:25Z</time>
      </trkpt>
      <trkpt lat="44.34311" lon="5.63049">
        <ele>1083.54</ele>
        <time>2015-05-07T08:13:39Z</time>
      </trkpt>
      <trkpt lat="44.34304" lon="5.63061">
        <ele>1085.47</ele>
        <time>2015-05-07T08:13:54Z</time>
      </trkpt>
      <trkpt lat="44.34294" lon="5.63065">
        <ele>1086.91</ele>
        <time>2015-05-07T08:14:09Z</time>
      </trkpt>
      <trkpt lat="44.34285" lon="5.63072">
        <ele>1088.35</ele>
        <time>2015-05-07T08:14:23Z</time>
      </trkpt>
      <trkpt lat="44.34276" lon="5.6308">
        <ele>1089.79</ele>
        <time>2015-05-07T08:14:39Z</time>
      </trkpt>
      <trkpt lat="44.34274" lon="5.63082">
        <ele>1090.75</ele>
        <time>2015-05-07T08:14:42Z</time>
      </trkpt>
      <trkpt lat="44.34264" lon="5.63087">
        <ele>1092.2</ele>
        <time>2015-05-07T08:14:56Z</time>
      </trkpt>
      <trkpt lat="44.34262" lon="5.63088">
        <ele>1092.2</ele>
        <time>2015-05-07T08:14:58Z</time>
      </trkpt>
      <trkpt lat="44.3425" lon="5.63093">
        <ele>1094.12</ele>
        <time>2015-05-07T08:15:13Z</time>
      </trkpt>
      <trkpt lat="44.34249" lon="5.63094">
        <ele>1094.12</ele>
        <time>2015-05-07T08:15:15Z</time>
      </trkpt>
      <trkpt lat="44.34242" lon="5.631">
        <ele>1095.56</ele>
        <time>2015-05-07T08:15:27Z</time>
      </trkpt>
      <trkpt lat="44.34234" lon="5.63113">
        <ele>1097.96</ele>
        <time>2015-05-07T08:15:44Z</time>
      </trkpt>
      <trkpt lat="44.34227" lon="5.63123">
        <ele>1098.92</ele>
        <time>2015-05-07T08:15:58Z</time>
      </trkpt>
      <trkpt lat="44.3422" lon="5.63132">
        <ele>1100.85</ele>
        <time>2015-05-07T08:16:10Z</time>
      </trkpt>
      <trkpt lat="44.34213" lon="5.63141">
        <ele>1102.77</ele>
        <time>2015-05-07T08:16:25Z</time>
      </trkpt>
      <trkpt lat="44.34204" lon="5.63149">
        <ele>1104.69</ele>
        <time>2015-05-07T08:16:39Z</time>
      </trkpt>
      <trkpt lat="44.34197" lon="5.63158">
        <ele>1106.13</ele>
        <time>2015-05-07T08:16:54Z</time>
      </trkpt>
      <trkpt lat="44.34189" lon="5.63169">
        <ele>1108.54</ele>
        <time>2015-05-07T08:17:10Z</time>
      </trkpt>
      <trkpt lat="44.34182" lon="5.63176">
        <ele>1110.46</ele>
        <time>2015-05-07T08:17:24Z</time>
      </trkpt>
      <trkpt lat="44.34175" lon="5.63185">
        <ele>1112.38</ele>
        <time>2015-05-07T08:17:39Z</time>
      </trkpt>
      <trkpt lat="44.34171" lon="5.63195">
        <ele>1114.79</ele>
        <time>2015-05-07T08:17:53Z</time>
      </trkpt>
      <trkpt lat="44.34167" lon="5.63205">
        <ele>1116.23</ele>
        <time>2015-05-07T08:18:06Z</time>
      </trkpt>
      <trkpt lat="44.34161" lon="5.63214">
        <ele>1118.63</ele>
        <time>2015-05-07T08:18:20Z</time>
      </trkpt>
      <trkpt lat="44.34155" lon="5.63224">
        <ele>1120.55</ele>
        <time>2015-05-07T08:18:34Z</time>
      </trkpt>
      <trkpt lat="44.3415" lon="5.63236">
        <ele>1122.48</ele>
        <time>2015-05-07T08:18:49Z</time>
      </trkpt>
      <trkpt lat="44.34143" lon="5.63249">
        <ele>1124.4</ele>
        <time>2015-05-07T08:19:07Z</time>
      </trkpt>
      <trkpt lat="44.34136" lon="5.6326">
        <ele>1126.8</ele>
        <time>2015-05-07T08:19:22Z</time>
      </trkpt>
      <trkpt lat="44.34127" lon="5.63269">
        <ele>1128.24</ele>
        <time>2015-05-07T08:19:36Z</time>
      </trkpt>
      <trkpt lat="44.3412" lon="5.63273">
        <ele>1129.69</ele>
        <time>2015-05-07T08:19:48Z</time>
      </trkpt>
      <trkpt lat="44.34112" lon="5.63282">
        <ele>1131.61</ele>
        <time>2015-05-07T08:20:02Z</time>
      </trkpt>
      <trkpt lat="44.34105" lon="5.63289">
        <ele>1134.01</ele>
        <time>2015-05-07T08:20:18Z</time>
      </trkpt>
      <trkpt lat="44.341" lon="5.63297">
        <ele>1135.45</ele>
        <time>2015-05-07T08:20:31Z</time>
      </trkpt>
      <trkpt lat="44.34091" lon="5.63307">
        <ele>1138.34</ele>
        <time>2015-05-07T08:20:46Z</time>
      </trkpt>
      <trkpt lat="44.34083" lon="5.6332">
        <ele>1140.74</ele>
        <time>2015-05-07T08:21:04Z</time>
      </trkpt>
      <trkpt lat="44.34074" lon="5.63326">
        <ele>1142.66</ele>
        <time>2015-05-07T08:21:17Z</time>
      </trkpt>
      <trkpt lat="44.34066" lon="5.63323">
        <ele>1144.59</ele>
        <time>2015-05-07T08:21:30Z</time>
      </trkpt>
      <trkpt lat="44.34056" lon="5.63324">
        <ele>1146.03</ele>
        <time>2015-05-07T08:21:44Z</time>
      </trkpt>
      <trkpt lat="44.34047" lon="5.63331">
        <ele>1147.95</ele>
        <time>2015-05-07T08:21:58Z</time>
      </trkpt>
      <trkpt lat="44.34037" lon="5.63335">
        <ele>1150.35</ele>
        <time>2015-05-07T08:22:13Z</time>
      </trkpt>
      <trkpt lat="44.34032" lon="5.63337">
        <ele>1151.32</ele>
        <time>2015-05-07T08:22:19Z</time>
      </trkpt>
      <trkpt lat="44.34022" lon="5.63343">
        <ele>1153.24</ele>
        <time>2015-05-07T08:22:32Z</time>
      </trkpt>
      <trkpt lat="44.34011" lon="5.63354">
        <ele>1155.16</ele>
        <time>2015-05-07T08:22:47Z</time>
      </trkpt>
      <trkpt lat="44.34001" lon="5.63362">
        <ele>1157.08</ele>
        <time>2015-05-07T08:23:02Z</time>
      </trkpt>
      <trkpt lat="44.33992" lon="5.63367">
        <ele>1158.53</ele>
        <time>2015-05-07T08:23:15Z</time>
      </trkpt>
      <trkpt lat="44.33986" lon="5.63371">
        <ele>1159.01</ele>
        <time>2015-05-07T08:23:29Z</time>
      </trkpt>
      <trkpt lat="44.3398" lon="5.63369">
        <ele>1159.49</ele>
        <time>2015-05-07T08:23:43Z</time>
      </trkpt>
      <trkpt lat="44.33978" lon="5.63368">
        <ele>1159.49</ele>
        <time>2015-05-07T08:23:57Z</time>
      </trkpt>
      <trkpt lat="44.33975" lon="5.63367">
        <ele>1159.97</ele>
        <time>2015-05-07T08:24:11Z</time>
      </trkpt>
      <trkpt lat="44.33974" lon="5.63366">
        <ele>1159.97</ele>
        <time>2015-05-07T08:24:34Z</time>
      </trkpt>
      <trkpt lat="44.33974" lon="5.63367">
        <ele>1159.97</ele>
        <time>2015-05-07T08:24:52Z</time>
      </trkpt>
      <trkpt lat="44.33974" lon="5.63363">
        <ele>1159.01</ele>
        <time>2015-05-07T08:25:10Z</time>
      </trkpt>
      <trkpt lat="44.33974" lon="5.63362">
        <ele>1159.01</ele>
        <time>2015-05-07T08:25:40Z</time>
      </trkpt>
      <trkpt lat="44.33972" lon="5.63362">
        <ele>1159.01</ele>
        <time>2015-05-07T08:26:05Z</time>
      </trkpt>
      <trkpt lat="44.33971" lon="5.63365">
        <ele>1159.49</ele>
        <time>2015-05-07T08:26:22Z</time>
      </trkpt>
      <trkpt lat="44.33972" lon="5.63366">
        <ele>1159.01</ele>
        <time>2015-05-07T08:26:53Z</time>
      </trkpt>
      <trkpt lat="44.33972" lon="5.63366">
        <ele>1159.49</ele>
        <time>2015-05-07T08:27:24Z</time>
      </trkpt>
      <trkpt lat="44.33972" lon="5.63367">
        <ele>1159.49</ele>
        <time>2015-05-07T08:27:56Z</time>
      </trkpt>
      <trkpt lat="44.33971" lon="5.63366">
        <ele>1159.49</ele>
        <time>2015-05-07T08:28:29Z</time>
      </trkpt>
      <trkpt lat="44.3397" lon="5.63365">
        <ele>1159.49</ele>
        <time>2015-05-07T08:29:06Z</time>
      </trkpt>
      <trkpt lat="44.33972" lon="5.63365">
        <ele>1159.49</ele>
        <time>2015-05-07T08:29:26Z</time>
      </trkpt>
      <trkpt lat="44.33972" lon="5.63366">
        <ele>1159.49</ele>
        <time>2015-05-07T08:29:42Z</time>
      </trkpt>
      <trkpt lat="44.33973" lon="5.63366">
        <ele>1159.97</ele>
        <time>2015-05-07T08:30:05Z</time>
      </trkpt>
      <trkpt lat="44.33972" lon="5.63365">
        <ele>1160.45</ele>
        <time>2015-05-07T08:30:18Z</time>
      </trkpt>
      <trkpt lat="44.33972" lon="5.63364">
        <ele>1159.49</ele>
        <time>2015-05-07T08:30:36Z</time>
      </trkpt>
      <trkpt lat="44.33973" lon="5.63366">
        <ele>1155.16</ele>
        <time>2015-05-07T08:30:50Z</time>
      </trkpt>
      <trkpt lat="44.33972" lon="5.63366">
        <ele>1161.41</ele>
        <time>2015-05-07T08:30:51Z</time>
      </trkpt>
      <trkpt lat="44.33973" lon="5.63366">
        <ele>1159.49</ele>
        <time>2015-05-07T08:30:54Z</time>
      </trkpt>
      <trkpt lat="44.33974" lon="5.63366">
        <ele>1159.49</ele>
        <time>2015-05-07T08:31:13Z</time>
      </trkpt>
      <trkpt lat="44.33974" lon="5.63367">
        <ele>1160.45</ele>
        <time>2015-05-07T08:31:24Z</time>
      </trkpt>
      <trkpt lat="44.33975" lon="5.63365">
        <ele>1160.45</ele>
        <time>2015-05-07T08:31:40Z</time>
      </trkpt>
      <trkpt lat="44.33973" lon="5.63367">
        <ele>1160.45</ele>
        <time>2015-05-07T08:32:01Z</time>
      </trkpt>
      <trkpt lat="44.33973" lon="5.63364">
        <ele>1160.93</ele>
        <time>2015-05-07T08:32:30Z</time>
      </trkpt>
      <trkpt lat="44.33974" lon="5.63366">
        <ele>1160.45</ele>
        <time>2015-05-07T08:32:51Z</time>
      </trkpt>
      <trkpt lat="44.33973" lon="5.63365">
        <ele>1160.45</ele>
        <time>2015-05-07T08:33:15Z</time>
      </trkpt>
      <trkpt lat="44.33974" lon="5.63366">
        <ele>1160.93</ele>
        <time>2015-05-07T08:33:46Z</time>
      </trkpt>
      <trkpt lat="44.33974" lon="5.63365">
        <ele>1160.45</ele>
        <time>2015-05-07T08:34:14Z</time>
      </trkpt>
      <trkpt lat="44.33973" lon="5.63364">
        <ele>1160.45</ele>
        <time>2015-05-07T08:34:22Z</time>
      </trkpt>
      <trkpt lat="44.33971" lon="5.63363">
        <ele>1160.45</ele>
        <time>2015-05-07T08:34:24Z</time>
      </trkpt>
      <trkpt lat="44.33965" lon="5.63354">
        <ele>1161.41</ele>
        <time>2015-05-07T08:34:35Z</time>
      </trkpt>
      <trkpt lat="44.33962" lon="5.63348">
        <ele>1162.37</ele>
        <time>2015-05-07T08:34:46Z</time>
      </trkpt>
      <trkpt lat="44.33961" lon="5.63349">
        <ele>1162.37</ele>
        <time>2015-05-07T08:35:14Z</time>
      </trkpt>
      <trkpt lat="44.33961" lon="5.63349">
        <ele>1161.89</ele>
        <time>2015-05-07T08:35:47Z</time>
      </trkpt>
      <trkpt lat="44.33954" lon="5.63338">
        <ele>1161.89</ele>
        <time>2015-05-07T08:36:00Z</time>
      </trkpt>
      <trkpt lat="44.3395" lon="5.63327">
        <ele>1161.41</ele>
        <time>2015-05-07T08:36:08Z</time>
      </trkpt>
      <trkpt lat="44.33935" lon="5.63309">
        <ele>1159.97</ele>
        <time>2015-05-07T08:36:27Z</time>
      </trkpt>
      <trkpt lat="44.33931" lon="5.63305">
        <ele>1159.97</ele>
        <time>2015-05-07T08:36:32Z</time>
      </trkpt>
      <trkpt lat="44.33926" lon="5.63298">
        <ele>1159.97</ele>
        <time>2015-05-07T08:36:39Z</time>
      </trkpt>
      <trkpt lat="44.33916" lon="5.63288">
        <ele>1160.93</ele>
        <time>2015-05-07T08:36:54Z</time>
      </trkpt>
      <trkpt lat="44.33909" lon="5.6328">
        <ele>1160.93</ele>
        <time>2015-05-07T08:37:08Z</time>
      </trkpt>
      <trkpt lat="44.339" lon="5.63265">
        <ele>1160.93</ele>
        <time>2015-05-07T08:37:23Z</time>
      </trkpt>
      <trkpt lat="44.33891" lon="5.63251">
        <ele>1161.41</ele>
        <time>2015-05-07T08:37:39Z</time>
      </trkpt>
      <trkpt lat="44.33879" lon="5.63234">
        <ele>1161.89</ele>
        <time>2015-05-07T08:37:57Z</time>
      </trkpt>
      <trkpt lat="44.33871" lon="5.63218">
        <ele>1161.41</ele>
        <time>2015-05-07T08:38:14Z</time>
      </trkpt>
      <trkpt lat="44.33864" lon="5.63201">
        <ele>1162.85</ele>
        <time>2015-05-07T08:38:30Z</time>
      </trkpt>
      <trkpt lat="44.33858" lon="5.63195">
        <ele>1163.81</ele>
        <time>2015-05-07T08:38:41Z</time>
      </trkpt>
      <trkpt lat="44.3385" lon="5.63183">
        <ele>1165.26</ele>
        <time>2015-05-07T08:38:57Z</time>
      </trkpt>
      <trkpt lat="44.33844" lon="5.63175">
        <ele>1166.7</ele>
        <time>2015-05-07T08:39:09Z</time>
      </trkpt>
      <trkpt lat="44.33839" lon="5.63168">
        <ele>1167.66</ele>
        <time>2015-05-07T08:39:24Z</time>
      </trkpt>
      <trkpt lat="44.33838" lon="5.63163">
        <ele>1168.14</ele>
        <time>2015-05-07T08:39:35Z</time>
      </trkpt>
      <trkpt lat="44.33833" lon="5.63156">
        <ele>1169.1</ele>
        <time>2015-05-07T08:39:48Z</time>
      </trkpt>
      <trkpt lat="44.33831" lon="5.63154">
        <ele>1170.54</ele>
        <time>2015-05-07T08:40:01Z</time>
      </trkpt>
      <trkpt lat="44.33823" lon="5.63149">
        <ele>1171.98</ele>
        <time>2015-05-07T08:40:15Z</time>
      </trkpt>
      <trkpt lat="44.33823" lon="5.63147">
        <ele>1172.47</ele>
        <time>2015-05-07T08:40:30Z</time>
      </trkpt>
      <trkpt lat="44.33823" lon="5.63147">
        <ele>1172.47</ele>
        <time>2015-05-07T08:41:01Z</time>
      </trkpt>
      <trkpt lat="44.33823" lon="5.63147">
        <ele>1172.95</ele>
        <time>2015-05-07T08:41:28Z</time>
      </trkpt>
      <trkpt lat="44.33818" lon="5.63141">
        <ele>1173.43</ele>
        <time>2015-05-07T08:41:46Z</time>
      </trkpt>
      <trkpt lat="44.33816" lon="5.63135">
        <ele>1174.39</ele>
        <time>2015-05-07T08:42:02Z</time>
      </trkpt>
      <trkpt lat="44.33815" lon="5.63136">
        <ele>1174.39</ele>
        <time>2015-05-07T08:42:32Z</time>
      </trkpt>
      <trkpt lat="44.33815" lon="5.63136">
        <ele>1174.87</ele>
        <time>2015-05-07T08:43:04Z</time>
      </trkpt>
      <trkpt lat="44.33816" lon="5.6313">
        <ele>1174.87</ele>
        <time>2015-05-07T08:43:27Z</time>
      </trkpt>
      <trkpt lat="44.33818" lon="5.63113">
        <ele>1173.43</ele>
        <time>2015-05-07T08:43:42Z</time>
      </trkpt>
      <trkpt lat="44.3382" lon="5.63096">
        <ele>1171.02</ele>
        <time>2015-05-07T08:43:58Z</time>
      </trkpt>
      <trkpt lat="44.33823" lon="5.63081">
        <ele>1169.58</ele>
        <time>2015-05-07T08:44:13Z</time>
      </trkpt>
      <trkpt lat="44.33824" lon="5.6307">
        <ele>1168.14</ele>
        <time>2015-05-07T08:44:22Z</time>
      </trkpt>
      <trkpt lat="44.33827" lon="5.63052">
        <ele>1165.26</ele>
        <time>2015-05-07T08:44:37Z</time>
      </trkpt>
      <trkpt lat="44.33829" lon="5.63036">
        <ele>1163.33</ele>
        <time>2015-05-07T08:44:53Z</time>
      </trkpt>
      <trkpt lat="44.33833" lon="5.63015">
        <ele>1159.97</ele>
        <time>2015-05-07T08:45:11Z</time>
      </trkpt>
      <trkpt lat="44.33837" lon="5.62996">
        <ele>1157.56</ele>
        <time>2015-05-07T08:45:27Z</time>
      </trkpt>
      <trkpt lat="44.33838" lon="5.62984">
        <ele>1155.64</ele>
        <time>2015-05-07T08:45:44Z</time>
      </trkpt>
      <trkpt lat="44.3384" lon="5.62973">
        <ele>1154.68</ele>
        <time>2015-05-07T08:45:58Z</time>
      </trkpt>
      <trkpt lat="44.33841" lon="5.62962">
        <ele>1153.24</ele>
        <time>2015-05-07T08:46:12Z</time>
      </trkpt>
      <trkpt lat="44.33841" lon="5.62946">
        <ele>1150.84</ele>
        <time>2015-05-07T08:46:27Z</time>
      </trkpt>
      <trkpt lat="44.3384" lon="5.62928">
        <ele>1148.91</ele>
        <time>2015-05-07T08:46:41Z</time>
      </trkpt>
      <trkpt lat="44.3384" lon="5.62915">
        <ele>1147.95</ele>
        <time>2015-05-07T08:46:50Z</time>
      </trkpt>
      <trkpt lat="44.33836" lon="5.62886">
        <ele>1145.55</ele>
        <time>2015-05-07T08:47:12Z</time>
      </trkpt>
      <trkpt lat="44.3383" lon="5.62878">
        <ele>1145.55</ele>
        <time>2015-05-07T08:47:20Z</time>
      </trkpt>
      <trkpt lat="44.33828" lon="5.62875">
        <ele>1145.07</ele>
        <time>2015-05-07T08:47:23Z</time>
      </trkpt>
      <trkpt lat="44.3382" lon="5.62863">
        <ele>1144.59</ele>
        <time>2015-05-07T08:47:39Z</time>
      </trkpt>
      <trkpt lat="44.3382" lon="5.62859">
        <ele>1144.11</ele>
        <time>2015-05-07T08:47:43Z</time>
      </trkpt>
      <trkpt lat="44.3382" lon="5.62843">
        <ele>1142.18</ele>
        <time>2015-05-07T08:47:57Z</time>
      </trkpt>
      <trkpt lat="44.33818" lon="5.6283">
        <ele>1140.26</ele>
        <time>2015-05-07T08:48:11Z</time>
      </trkpt>
      <trkpt lat="44.33816" lon="5.62816">
        <ele>1137.86</ele>
        <time>2015-05-07T08:48:27Z</time>
      </trkpt>
      <trkpt lat="44.33814" lon="5.62804">
        <ele>1135.45</ele>
        <time>2015-05-07T08:48:40Z</time>
      </trkpt>
      <trkpt lat="44.33808" lon="5.62791">
        <ele>1132.57</ele>
        <time>2015-05-07T08:48:55Z</time>
      </trkpt>
      <trkpt lat="44.33799" lon="5.62779">
        <ele>1129.69</ele>
        <time>2015-05-07T08:49:10Z</time>
      </trkpt>
      <trkpt lat="44.33794" lon="5.62774">
        <ele>1128.73</ele>
        <time>2015-05-07T08:49:16Z</time>
      </trkpt>
      <trkpt lat="44.3378" lon="5.62755">
        <ele>1127.28</ele>
        <time>2015-05-07T08:49:35Z</time>
      </trkpt>
      <trkpt lat="44.33768" lon="5.62739">
        <ele>1126.8</ele>
        <time>2015-05-07T08:49:51Z</time>
      </trkpt>
      <trkpt lat="44.33759" lon="5.62724">
        <ele>1127.28</ele>
        <time>2015-05-07T08:50:07Z</time>
      </trkpt>
      <trkpt lat="44.3375" lon="5.62713">
        <ele>1128.24</ele>
        <time>2015-05-07T08:50:21Z</time>
      </trkpt>
      <trkpt lat="44.33739" lon="5.62703">
        <ele>1128.24</ele>
        <time>2015-05-07T08:50:34Z</time>
      </trkpt>
      <trkpt lat="44.33734" lon="5.62697">
        <ele>1128.73</ele>
        <time>2015-05-07T08:50:46Z</time>
      </trkpt>
      <trkpt lat="44.33726" lon="5.62681">
        <ele>1129.21</ele>
        <time>2015-05-07T08:51:00Z</time>
      </trkpt>
      <trkpt lat="44.33722" lon="5.62661">
        <ele>1126.32</ele>
        <time>2015-05-07T08:51:16Z</time>
      </trkpt>
      <trkpt lat="44.33719" lon="5.62654">
        <ele>1124.4</ele>
        <time>2015-05-07T08:51:22Z</time>
      </trkpt>
      <trkpt lat="44.33718" lon="5.62638">
        <ele>1121.03</ele>
        <time>2015-05-07T08:51:34Z</time>
      </trkpt>
      <trkpt lat="44.33715" lon="5.6263">
        <ele>1117.67</ele>
        <time>2015-05-07T08:51:43Z</time>
      </trkpt>
      <trkpt lat="44.33714" lon="5.62627">
        <ele>1116.23</ele>
        <time>2015-05-07T08:51:46Z</time>
      </trkpt>
      <trkpt lat="44.33709" lon="5.62621">
        <ele>1113.34</ele>
        <time>2015-05-07T08:51:54Z</time>
      </trkpt>
      <trkpt lat="44.33706" lon="5.62618">
        <ele>1110.94</ele>
        <time>2015-05-07T08:51:59Z</time>
      </trkpt>
      <trkpt lat="44.33701" lon="5.62607">
        <ele>1108.06</ele>
        <time>2015-05-07T08:52:14Z</time>
      </trkpt>
      <trkpt lat="44.33702" lon="5.62606">
        <ele>1108.06</ele>
        <time>2015-05-07T08:52:36Z</time>
      </trkpt>
      <trkpt lat="44.33703" lon="5.62607">
        <ele>1108.54</ele>
        <time>2015-05-07T08:53:01Z</time>
      </trkpt>
      <trkpt lat="44.33702" lon="5.62607">
        <ele>1108.54</ele>
        <time>2015-05-07T08:53:25Z</time>
      </trkpt>
      <trkpt lat="44.33701" lon="5.62605">
        <ele>1108.06</ele>
        <time>2015-05-07T08:53:50Z</time>
      </trkpt>
      <trkpt lat="44.337" lon="5.62605">
        <ele>1108.06</ele>
        <time>2015-05-07T08:54:22Z</time>
      </trkpt>
      <trkpt lat="44.33701" lon="5.62607">
        <ele>1108.06</ele>
        <time>2015-05-07T08:54:51Z</time>
      </trkpt>
      <trkpt lat="44.33699" lon="5.62606">
        <ele>1108.06</ele>
        <time>2015-05-07T08:55:19Z</time>
      </trkpt>
      <trkpt lat="44.33698" lon="5.62592">
        <ele>1107.58</ele>
        <time>2015-05-07T08:55:41Z</time>
      </trkpt>
      <trkpt lat="44.33698" lon="5.6259">
        <ele>1108.06</ele>
        <time>2015-05-07T08:55:43Z</time>
      </trkpt>
      <trkpt lat="44.33693" lon="5.62575">
        <ele>1108.06</ele>
        <time>2015-05-07T08:55:58Z</time>
      </trkpt>
      <trkpt lat="44.33688" lon="5.62557">
        <ele>1109.02</ele>
        <time>2015-05-07T08:56:14Z</time>
      </trkpt>
      <trkpt lat="44.33681" lon="5.62543">
        <ele>1109.02</ele>
        <time>2015-05-07T08:56:30Z</time>
      </trkpt>
      <trkpt lat="44.33675" lon="5.62524">
        <ele>1109.02</ele>
        <time>2015-05-07T08:56:46Z</time>
      </trkpt>
      <trkpt lat="44.3367" lon="5.62513">
        <ele>1109.5</ele>
        <time>2015-05-07T08:57:00Z</time>
      </trkpt>
      <trkpt lat="44.33659" lon="5.62499">
        <ele>1110.94</ele>
        <time>2015-05-07T08:57:16Z</time>
      </trkpt>
      <trkpt lat="44.33652" lon="5.62486">
        <ele>1111.42</ele>
        <time>2015-05-07T08:57:30Z</time>
      </trkpt>
      <trkpt lat="44.33646" lon="5.6247">
        <ele>1112.86</ele>
        <time>2015-05-07T08:57:44Z</time>
      </trkpt>
      <trkpt lat="44.33641" lon="5.62459">
        <ele>1113.82</ele>
        <time>2015-05-07T08:57:56Z</time>
      </trkpt>
      <trkpt lat="44.33635" lon="5.62448">
        <ele>1114.79</ele>
        <time>2015-05-07T08:58:08Z</time>
      </trkpt>
      <trkpt lat="44.33631" lon="5.62441">
        <ele>1115.75</ele>
        <time>2015-05-07T08:58:22Z</time>
      </trkpt>
      <trkpt lat="44.33626" lon="5.62429">
        <ele>1117.67</ele>
        <time>2015-05-07T08:58:37Z</time>
      </trkpt>
      <trkpt lat="44.33619" lon="5.6242">
        <ele>1119.11</ele>
        <time>2015-05-07T08:58:52Z</time>
      </trkpt>
      <trkpt lat="44.33615" lon="5.62412">
        <ele>1120.55</ele>
        <time>2015-05-07T08:59:04Z</time>
      </trkpt>
      <trkpt lat="44.33611" lon="5.62406">
        <ele>1121.52</ele>
        <time>2015-05-07T08:59:13Z</time>
      </trkpt>
      <trkpt lat="44.33607" lon="5.62402">
        <ele>1122.48</ele>
        <time>2015-05-07T08:59:19Z</time>
      </trkpt>
      <trkpt lat="44.33597" lon="5.62391">
        <ele>1121.52</ele>
        <time>2015-05-07T08:59:36Z</time>
      </trkpt>
      <trkpt lat="44.33584" lon="5.62382">
        <ele>1119.11</ele>
        <time>2015-05-07T08:59:54Z</time>
      </trkpt>
      <trkpt lat="44.33573" lon="5.62372">
        <ele>1116.71</ele>
        <time>2015-05-07T09:00:11Z</time>
      </trkpt>
      <trkpt lat="44.33565" lon="5.62366">
        <ele>1115.27</ele>
        <time>2015-05-07T09:00:22Z</time>
      </trkpt>
      <trkpt lat="44.33561" lon="5.62367">
        <ele>1114.31</ele>
        <time>2015-05-07T09:00:27Z</time>
      </trkpt>
      <trkpt lat="44.33556" lon="5.62365">
        <ele>1113.82</ele>
        <time>2015-05-07T09:00:33Z</time>
      </trkpt>
      <trkpt lat="44.33541" lon="5.6236">
        <ele>1113.34</ele>
        <time>2015-05-07T09:00:49Z</time>
      </trkpt>
      <trkpt lat="44.3353" lon="5.62359">
        <ele>1114.31</ele>
        <time>2015-05-07T09:01:04Z</time>
      </trkpt>
      <trkpt lat="44.33522" lon="5.62357">
        <ele>1115.27</ele>
        <time>2015-05-07T09:01:18Z</time>
      </trkpt>
      <trkpt lat="44.33517" lon="5.62351">
        <ele>1116.71</ele>
        <time>2015-05-07T09:01:28Z</time>
      </trkpt>
      <trkpt lat="44.33508" lon="5.62347">
        <ele>1118.15</ele>
        <time>2015-05-07T09:01:46Z</time>
      </trkpt>
      <trkpt lat="44.33501" lon="5.62343">
        <ele>1120.07</ele>
        <time>2015-05-07T09:02:01Z</time>
      </trkpt>
      <trkpt lat="44.33495" lon="5.62345">
        <ele>1121.52</ele>
        <time>2015-05-07T09:02:12Z</time>
      </trkpt>
      <trkpt lat="44.33487" lon="5.6235">
        <ele>1122.96</ele>
        <time>2015-05-07T09:02:26Z</time>
      </trkpt>
      <trkpt lat="44.33479" lon="5.62353">
        <ele>1123.92</ele>
        <time>2015-05-07T09:02:39Z</time>
      </trkpt>
      <trkpt lat="44.33472" lon="5.62352">
        <ele>1125.36</ele>
        <time>2015-05-07T09:02:53Z</time>
      </trkpt>
      <trkpt lat="44.33465" lon="5.62352">
        <ele>1126.8</ele>
        <time>2015-05-07T09:03:08Z</time>
      </trkpt>
      <trkpt lat="44.33459" lon="5.62349">
        <ele>1128.73</ele>
        <time>2015-05-07T09:03:22Z</time>
      </trkpt>
      <trkpt lat="44.3345" lon="5.62348">
        <ele>1130.65</ele>
        <time>2015-05-07T09:03:36Z</time>
      </trkpt>
      <trkpt lat="44.33443" lon="5.6235">
        <ele>1132.57</ele>
        <time>2015-05-07T09:03:50Z</time>
      </trkpt>
      <trkpt lat="44.33433" lon="5.62355">
        <ele>1134.49</ele>
        <time>2015-05-07T09:04:05Z</time>
      </trkpt>
      <trkpt lat="44.33422" lon="5.62359">
        <ele>1137.38</ele>
        <time>2015-05-07T09:04:21Z</time>
      </trkpt>
      <trkpt lat="44.33412" lon="5.62362">
        <ele>1139.3</ele>
        <time>2015-05-07T09:04:36Z</time>
      </trkpt>
      <trkpt lat="44.33402" lon="5.62366">
        <ele>1141.22</ele>
        <time>2015-05-07T09:04:50Z</time>
      </trkpt>
      <trkpt lat="44.33395" lon="5.62363">
        <ele>1142.66</ele>
        <time>2015-05-07T09:05:03Z</time>
      </trkpt>
      <trkpt lat="44.33387" lon="5.62362">
        <ele>1144.11</ele>
        <time>2015-05-07T09:05:14Z</time>
      </trkpt>
      <trkpt lat="44.33381" lon="5.62353">
        <ele>1144.59</ele>
        <time>2015-05-07T09:05:27Z</time>
      </trkpt>
      <trkpt lat="44.33378" lon="5.62337">
        <ele>1144.11</ele>
        <time>2015-05-07T09:05:44Z</time>
      </trkpt>
      <trkpt lat="44.33376" lon="5.62328">
        <ele>1143.14</ele>
        <time>2015-05-07T09:05:52Z</time>
      </trkpt>
      <trkpt lat="44.33373" lon="5.62314">
        <ele>1143.14</ele>
        <time>2015-05-07T09:06:06Z</time>
      </trkpt>
      <trkpt lat="44.33373" lon="5.62303">
        <ele>1143.14</ele>
        <time>2015-05-07T09:06:20Z</time>
      </trkpt>
      <trkpt lat="44.33365" lon="5.62281">
        <ele>1143.14</ele>
        <time>2015-05-07T09:06:37Z</time>
      </trkpt>
      <trkpt lat="44.33363" lon="5.62274">
        <ele>1143.14</ele>
        <time>2015-05-07T09:06:43Z</time>
      </trkpt>
      <trkpt lat="44.33354" lon="5.62257">
        <ele>1143.63</ele>
        <time>2015-05-07T09:06:58Z</time>
      </trkpt>
      <trkpt lat="44.33348" lon="5.62243">
        <ele>1144.59</ele>
        <time>2015-05-07T09:07:12Z</time>
      </trkpt>
      <trkpt lat="44.33344" lon="5.6223">
        <ele>1145.07</ele>
        <time>2015-05-07T09:07:26Z</time>
      </trkpt>
      <trkpt lat="44.33341" lon="5.62223">
        <ele>1145.07</ele>
        <time>2015-05-07T09:07:39Z</time>
      </trkpt>
      <trkpt lat="44.33338" lon="5.62215">
        <ele>1145.55</ele>
        <time>2015-05-07T09:07:47Z</time>
      </trkpt>
      <trkpt lat="44.33334" lon="5.62205">
        <ele>1145.55</ele>
        <time>2015-05-07T09:08:01Z</time>
      </trkpt>
      <trkpt lat="44.33333" lon="5.622">
        <ele>1145.55</ele>
        <time>2015-05-07T09:08:05Z</time>
      </trkpt>
      <trkpt lat="44.33326" lon="5.62179">
        <ele>1145.07</ele>
        <time>2015-05-07T09:08:22Z</time>
      </trkpt>
      <trkpt lat="44.33322" lon="5.6216">
        <ele>1146.03</ele>
        <time>2015-05-07T09:08:38Z</time>
      </trkpt>
      <trkpt lat="44.33314" lon="5.62146">
        <ele>1146.99</ele>
        <time>2015-05-07T09:08:52Z</time>
      </trkpt>
      <trkpt lat="44.3331" lon="5.62135">
        <ele>1148.43</ele>
        <time>2015-05-07T09:09:04Z</time>
      </trkpt>
      <trkpt lat="44.33305" lon="5.6212">
        <ele>1151.32</ele>
        <time>2015-05-07T09:09:19Z</time>
      </trkpt>
      <trkpt lat="44.33295" lon="5.62113">
        <ele>1152.76</ele>
        <time>2015-05-07T09:09:34Z</time>
      </trkpt>
      <trkpt lat="44.33283" lon="5.62104">
        <ele>1154.2</ele>
        <time>2015-05-07T09:09:49Z</time>
      </trkpt>
      <trkpt lat="44.33273" lon="5.62097">
        <ele>1155.64</ele>
        <time>2015-05-07T09:10:02Z</time>
      </trkpt>
      <trkpt lat="44.33271" lon="5.62096">
        <ele>1156.12</ele>
        <time>2015-05-07T09:10:05Z</time>
      </trkpt>
      <trkpt lat="44.33261" lon="5.62089">
        <ele>1157.08</ele>
        <time>2015-05-07T09:10:20Z</time>
      </trkpt>
      <trkpt lat="44.33257" lon="5.62084">
        <ele>1158.05</ele>
        <time>2015-05-07T09:10:35Z</time>
      </trkpt>
      <trkpt lat="44.33254" lon="5.62077">
        <ele>1158.53</ele>
        <time>2015-05-07T09:10:50Z</time>
      </trkpt>
      <trkpt lat="44.3325" lon="5.62056">
        <ele>1157.56</ele>
        <time>2015-05-07T09:11:07Z</time>
      </trkpt>
      <trkpt lat="44.33254" lon="5.62039">
        <ele>1158.53</ele>
        <time>2015-05-07T09:11:23Z</time>
      </trkpt>
      <trkpt lat="44.33252" lon="5.6203">
        <ele>1158.53</ele>
        <time>2015-05-07T09:11:37Z</time>
      </trkpt>
      <trkpt lat="44.3325" lon="5.62018">
        <ele>1159.01</ele>
        <time>2015-05-07T09:11:52Z</time>
      </trkpt>
      <trkpt lat="44.33251" lon="5.62015">
        <ele>1159.49</ele>
        <time>2015-05-07T09:12:09Z</time>
      </trkpt>
      <trkpt lat="44.33252" lon="5.62005">
        <ele>1159.97</ele>
        <time>2015-05-07T09:12:23Z</time>
      </trkpt>
      <trkpt lat="44.3325" lon="5.61997">
        <ele>1159.97</ele>
        <time>2015-05-07T09:12:39Z</time>
      </trkpt>
      <trkpt lat="44.33247" lon="5.6199">
        <ele>1160.93</ele>
        <time>2015-05-07T09:12:58Z</time>
      </trkpt>
      <trkpt lat="44.33243" lon="5.61988">
        <ele>1160.45</ele>
        <time>2015-05-07T09:13:05Z</time>
      </trkpt>
      <trkpt lat="44.33235" lon="5.6198">
        <ele>1159.49</ele>
        <time>2015-05-07T09:13:24Z</time>
      </trkpt>
      <trkpt lat="44.33236" lon="5.6198">
        <ele>1159.97</ele>
        <time>2015-05-07T09:13:38Z</time>
      </trkpt>
      <trkpt lat="44.33235" lon="5.61981">
        <ele>1159.49</ele>
        <time>2015-05-07T09:14:05Z</time>
      </trkpt>
      <trkpt lat="44.33236" lon="5.61976">
        <ele>1159.49</ele>
        <time>2015-05-07T09:14:26Z</time>
      </trkpt>
      <trkpt lat="44.33234" lon="5.61977">
        <ele>1159.49</ele>
        <time>2015-05-07T09:14:48Z</time>
      </trkpt>
      <trkpt lat="44.33228" lon="5.61968">
        <ele>1160.45</ele>
        <time>2015-05-07T09:15:02Z</time>
      </trkpt>
      <trkpt lat="44.33226" lon="5.61966">
        <ele>1160.93</ele>
        <time>2015-05-07T09:15:07Z</time>
      </trkpt>
      <trkpt lat="44.33216" lon="5.61955">
        <ele>1162.37</ele>
        <time>2015-05-07T09:15:22Z</time>
      </trkpt>
      <trkpt lat="44.33211" lon="5.6195">
        <ele>1162.85</ele>
        <time>2015-05-07T09:15:35Z</time>
      </trkpt>
      <trkpt lat="44.33204" lon="5.61947">
        <ele>1162.37</ele>
        <time>2015-05-07T09:15:52Z</time>
      </trkpt>
      <trkpt lat="44.33201" lon="5.61941">
        <ele>1164.29</ele>
        <time>2015-05-07T09:16:04Z</time>
      </trkpt>
      <trkpt lat="44.33197" lon="5.61937">
        <ele>1164.77</ele>
        <time>2015-05-07T09:16:16Z</time>
      </trkpt>
      <trkpt lat="44.33192" lon="5.61932">
        <ele>1165.26</ele>
        <time>2015-05-07T09:16:28Z</time>
      </trkpt>
      <trkpt lat="44.33191" lon="5.61932">
        <ele>1165.26</ele>
        <time>2015-05-07T09:16:44Z</time>
      </trkpt>
      <trkpt lat="44.33185" lon="5.61924">
        <ele>1166.7</ele>
        <time>2015-05-07T09:16:59Z</time>
      </trkpt>
      <trkpt lat="44.33184" lon="5.61921">
        <ele>1167.18</ele>
        <time>2015-05-07T09:17:13Z</time>
      </trkpt>
      <trkpt lat="44.33182" lon="5.61917">
        <ele>1168.14</ele>
        <time>2015-05-07T09:17:27Z</time>
      </trkpt>
      <trkpt lat="44.3318" lon="5.61914">
        <ele>1168.62</ele>
        <time>2015-05-07T09:17:41Z</time>
      </trkpt>
      <trkpt lat="44.33178" lon="5.61913">
        <ele>1168.14</ele>
        <time>2015-05-07T09:17:51Z</time>
      </trkpt>
      <trkpt lat="44.33173" lon="5.61907">
        <ele>1168.14</ele>
        <time>2015-05-07T09:17:58Z</time>
      </trkpt>
      <trkpt lat="44.33168" lon="5.61896">
        <ele>1170.06</ele>
        <time>2015-05-07T09:18:10Z</time>
      </trkpt>
      <trkpt lat="44.33165" lon="5.61894">
        <ele>1170.06</ele>
        <time>2015-05-07T09:18:13Z</time>
      </trkpt>
      <trkpt lat="44.33158" lon="5.61882">
        <ele>1171.02</ele>
        <time>2015-05-07T09:18:27Z</time>
      </trkpt>
      <trkpt lat="44.33157" lon="5.61878">
        <ele>1171.98</ele>
        <time>2015-05-07T09:18:38Z</time>
      </trkpt>
      <trkpt lat="44.33159" lon="5.61871">
        <ele>1173.91</ele>
        <time>2015-05-07T09:18:52Z</time>
      </trkpt>
      <trkpt lat="44.33157" lon="5.6186">
        <ele>1175.83</ele>
        <time>2015-05-07T09:19:05Z</time>
      </trkpt>
      <trkpt lat="44.33153" lon="5.61852">
        <ele>1177.27</ele>
        <time>2015-05-07T09:19:18Z</time>
      </trkpt>
      <trkpt lat="44.33151" lon="5.61848">
        <ele>1177.75</ele>
        <time>2015-05-07T09:19:31Z</time>
      </trkpt>
      <trkpt lat="44.33141" lon="5.6184">
        <ele>1176.79</ele>
        <time>2015-05-07T09:19:46Z</time>
      </trkpt>
      <trkpt lat="44.33135" lon="5.61828">
        <ele>1177.27</ele>
        <time>2015-05-07T09:19:59Z</time>
      </trkpt>
      <trkpt lat="44.33133" lon="5.61827">
        <ele>1177.75</ele>
        <time>2015-05-07T09:20:01Z</time>
      </trkpt>
      <trkpt lat="44.33127" lon="5.61813">
        <ele>1176.31</ele>
        <time>2015-05-07T09:20:16Z</time>
      </trkpt>
      <trkpt lat="44.33125" lon="5.61799">
        <ele>1174.87</ele>
        <time>2015-05-07T09:20:30Z</time>
      </trkpt>
      <trkpt lat="44.33124" lon="5.61784">
        <ele>1173.43</ele>
        <time>2015-05-07T09:20:46Z</time>
      </trkpt>
      <trkpt lat="44.33123" lon="5.61768">
        <ele>1171.5</ele>
        <time>2015-05-07T09:21:02Z</time>
      </trkpt>
      <trkpt lat="44.33123" lon="5.61764">
        <ele>1171.02</ele>
        <time>2015-05-07T09:21:05Z</time>
      </trkpt>
      <trkpt lat="44.33128" lon="5.61752">
        <ele>1171.5</ele>
        <time>2015-05-07T09:21:19Z</time>
      </trkpt>
      <trkpt lat="44.33132" lon="5.61739">
        <ele>1172.95</ele>
        <time>2015-05-07T09:21:31Z</time>
      </trkpt>
      <trkpt lat="44.33136" lon="5.61729">
        <ele>1173.91</ele>
        <time>2015-05-07T09:21:43Z</time>
      </trkpt>
      <trkpt lat="44.33139" lon="5.61716">
        <ele>1174.39</ele>
        <time>2015-05-07T09:21:57Z</time>
      </trkpt>
      <trkpt lat="44.33142" lon="5.61707">
        <ele>1175.35</ele>
        <time>2015-05-07T09:22:10Z</time>
      </trkpt>
      <trkpt lat="44.33142" lon="5.617">
        <ele>1175.83</ele>
        <time>2015-05-07T09:22:23Z</time>
      </trkpt>
      <trkpt lat="44.33143" lon="5.61697">
        <ele>1176.31</ele>
        <time>2015-05-07T09:22:34Z</time>
      </trkpt>
      <trkpt lat="44.33143" lon="5.61683">
        <ele>1177.27</ele>
        <time>2015-05-07T09:22:47Z</time>
      </trkpt>
      <trkpt lat="44.33141" lon="5.61673">
        <ele>1177.27</ele>
        <time>2015-05-07T09:23:00Z</time>
      </trkpt>
      <trkpt lat="44.33144" lon="5.61658">
        <ele>1179.67</ele>
        <time>2015-05-07T09:23:14Z</time>
      </trkpt>
      <trkpt lat="44.33143" lon="5.61653">
        <ele>1180.64</ele>
        <time>2015-05-07T09:23:25Z</time>
      </trkpt>
      <trkpt lat="44.33144" lon="5.61645">
        <ele>1181.12</ele>
        <time>2015-05-07T09:23:44Z</time>
      </trkpt>
      <trkpt lat="44.33142" lon="5.61646">
        <ele>1180.64</ele>
        <time>2015-05-07T09:24:06Z</time>
      </trkpt>
      <trkpt lat="44.3314" lon="5.61632">
        <ele>1182.08</ele>
        <time>2015-05-07T09:24:21Z</time>
      </trkpt>
      <trkpt lat="44.33138" lon="5.61615">
        <ele>1182.56</ele>
        <time>2015-05-07T09:24:36Z</time>
      </trkpt>
      <trkpt lat="44.33136" lon="5.61607">
        <ele>1183.04</ele>
        <time>2015-05-07T09:24:48Z</time>
      </trkpt>
      <trkpt lat="44.33131" lon="5.61594">
        <ele>1182.08</ele>
        <time>2015-05-07T09:25:02Z</time>
      </trkpt>
      <trkpt lat="44.33127" lon="5.61585">
        <ele>1181.6</ele>
        <time>2015-05-07T09:25:16Z</time>
      </trkpt>
      <trkpt lat="44.33124" lon="5.61576">
        <ele>1181.12</ele>
        <time>2015-05-07T09:25:27Z</time>
      </trkpt>
      <trkpt lat="44.33121" lon="5.61564">
        <ele>1183.04</ele>
        <time>2015-05-07T09:25:39Z</time>
      </trkpt>
      <trkpt lat="44.33116" lon="5.61557">
        <ele>1181.12</ele>
        <time>2015-05-07T09:25:45Z</time>
      </trkpt>
      <trkpt lat="44.33115" lon="5.61539">
        <ele>1182.08</ele>
        <time>2015-05-07T09:26:00Z</time>
      </trkpt>
      <trkpt lat="44.33116" lon="5.61525">
        <ele>1183.52</ele>
        <time>2015-05-07T09:26:12Z</time>
      </trkpt>
      <trkpt lat="44.3311" lon="5.61515">
        <ele>1184.96</ele>
        <time>2015-05-07T09:26:25Z</time>
      </trkpt>
      <trkpt lat="44.33103" lon="5.61503">
        <ele>1186.88</ele>
        <time>2015-05-07T09:26:39Z</time>
      </trkpt>
      <trkpt lat="44.33095" lon="5.61494">
        <ele>1188.33</ele>
        <time>2015-05-07T09:26:52Z</time>
      </trkpt>
      <trkpt lat="44.33092" lon="5.61487">
        <ele>1189.29</ele>
        <time>2015-05-07T09:27:05Z</time>
      </trkpt>
      <trkpt lat="44.33092" lon="5.61485">
        <ele>1190.25</ele>
        <time>2015-05-07T09:27:26Z</time>
      </trkpt>
      <trkpt lat="44.33091" lon="5.61478">
        <ele>1193.61</ele>
        <time>2015-05-07T09:27:40Z</time>
      </trkpt>
      <trkpt lat="44.33091" lon="5.61471">
        <ele>1193.61</ele>
        <time>2015-05-07T09:27:55Z</time>
      </trkpt>
      <trkpt lat="44.33093" lon="5.61468">
        <ele>1195.06</ele>
        <time>2015-05-07T09:28:07Z</time>
      </trkpt>
      <trkpt lat="44.33093" lon="5.61462">
        <ele>1196.98</ele>
        <time>2015-05-07T09:28:23Z</time>
      </trkpt>
      <trkpt lat="44.33092" lon="5.61455">
        <ele>1199.38</ele>
        <time>2015-05-07T09:28:35Z</time>
      </trkpt>
      <trkpt lat="44.33088" lon="5.61446">
        <ele>1201.79</ele>
        <time>2015-05-07T09:28:49Z</time>
      </trkpt>
      <trkpt lat="44.3308" lon="5.61437">
        <ele>1201.3</ele>
        <time>2015-05-07T09:29:05Z</time>
      </trkpt>
      <trkpt lat="44.33078" lon="5.61431">
        <ele>1201.79</ele>
        <time>2015-05-07T09:29:19Z</time>
      </trkpt>
      <trkpt lat="44.33079" lon="5.6143">
        <ele>1202.75</ele>
        <time>2015-05-07T09:29:34Z</time>
      </trkpt>
      <trkpt lat="44.33078" lon="5.61426">
        <ele>1202.75</ele>
        <time>2015-05-07T09:29:48Z</time>
      </trkpt>
      <trkpt lat="44.33079" lon="5.61425">
        <ele>1203.23</ele>
        <time>2015-05-07T09:30:10Z</time>
      </trkpt>
      <trkpt lat="44.33079" lon="5.61424">
        <ele>1203.71</ele>
        <time>2015-05-07T09:30:33Z</time>
      </trkpt>
      <trkpt lat="44.33081" lon="5.61417">
        <ele>1206.11</ele>
        <time>2015-05-07T09:30:45Z</time>
      </trkpt>
      <trkpt lat="44.33087" lon="5.61404">
        <ele>1209</ele>
        <time>2015-05-07T09:31:01Z</time>
      </trkpt>
      <trkpt lat="44.33088" lon="5.61394">
        <ele>1209.96</ele>
        <time>2015-05-07T09:31:12Z</time>
      </trkpt>
      <trkpt lat="44.33081" lon="5.61383">
        <ele>1208.03</ele>
        <time>2015-05-07T09:31:26Z</time>
      </trkpt>
      <trkpt lat="44.33074" lon="5.61381">
        <ele>1207.07</ele>
        <time>2015-05-07T09:31:38Z</time>
      </trkpt>
      <trkpt lat="44.33068" lon="5.61377">
        <ele>1206.11</ele>
        <time>2015-05-07T09:31:52Z</time>
      </trkpt>
      <trkpt lat="44.33061" lon="5.61372">
        <ele>1205.15</ele>
        <time>2015-05-07T09:32:04Z</time>
      </trkpt>
      <trkpt lat="44.33052" lon="5.61373">
        <ele>1205.63</ele>
        <time>2015-05-07T09:32:22Z</time>
      </trkpt>
      <trkpt lat="44.33049" lon="5.61375">
        <ele>1206.11</ele>
        <time>2015-05-07T09:32:38Z</time>
      </trkpt>
      <trkpt lat="44.33046" lon="5.61373">
        <ele>1206.59</ele>
        <time>2015-05-07T09:32:54Z</time>
      </trkpt>
      <trkpt lat="44.33043" lon="5.61375">
        <ele>1206.59</ele>
        <time>2015-05-07T09:33:08Z</time>
      </trkpt>
      <trkpt lat="44.33037" lon="5.61367">
        <ele>1206.11</ele>
        <time>2015-05-07T09:33:20Z</time>
      </trkpt>
      <trkpt lat="44.33031" lon="5.61371">
        <ele>1207.07</ele>
        <time>2015-05-07T09:33:29Z</time>
      </trkpt>
      <trkpt lat="44.33028" lon="5.61374">
        <ele>1208.03</ele>
        <time>2015-05-07T09:33:33Z</time>
      </trkpt>
      <trkpt lat="44.33024" lon="5.61377">
        <ele>1208.03</ele>
        <time>2015-05-07T09:33:37Z</time>
      </trkpt>
      <trkpt lat="44.33015" lon="5.61383">
        <ele>1207.55</ele>
        <time>2015-05-07T09:33:50Z</time>
      </trkpt>
      <trkpt lat="44.33013" lon="5.61384">
        <ele>1207.07</ele>
        <time>2015-05-07T09:33:52Z</time>
      </trkpt>
      <trkpt lat="44.33007" lon="5.61388">
        <ele>1208.03</ele>
        <time>2015-05-07T09:34:04Z</time>
      </trkpt>
      <trkpt lat="44.33008" lon="5.61392">
        <ele>1207.07</ele>
        <time>2015-05-07T09:34:14Z</time>
      </trkpt>
      <trkpt lat="44.32998" lon="5.61397">
        <ele>1207.07</ele>
        <time>2015-05-07T09:34:28Z</time>
      </trkpt>
      <trkpt lat="44.32989" lon="5.61396">
        <ele>1208.03</ele>
        <time>2015-05-07T09:34:42Z</time>
      </trkpt>
      <trkpt lat="44.32986" lon="5.61386">
        <ele>1209.48</ele>
        <time>2015-05-07T09:34:55Z</time>
      </trkpt>
      <trkpt lat="44.32978" lon="5.61382">
        <ele>1210.92</ele>
        <time>2015-05-07T09:35:07Z</time>
      </trkpt>
      <trkpt lat="44.32967" lon="5.61381">
        <ele>1212.36</ele>
        <time>2015-05-07T09:35:21Z</time>
      </trkpt>
      <trkpt lat="44.32959" lon="5.61384">
        <ele>1212.84</ele>
        <time>2015-05-07T09:35:33Z</time>
      </trkpt>
      <trkpt lat="44.32947" lon="5.61384">
        <ele>1214.28</ele>
        <time>2015-05-07T09:35:48Z</time>
      </trkpt>
      <trkpt lat="44.32941" lon="5.61384">
        <ele>1214.76</ele>
        <time>2015-05-07T09:36:00Z</time>
      </trkpt>
      <trkpt lat="44.32932" lon="5.61383">
        <ele>1216.21</ele>
        <time>2015-05-07T09:36:13Z</time>
      </trkpt>
      <trkpt lat="44.32924" lon="5.61379">
        <ele>1216.69</ele>
        <time>2015-05-07T09:36:27Z</time>
      </trkpt>
      <trkpt lat="44.32922" lon="5.61371">
        <ele>1217.65</ele>
        <time>2015-05-07T09:36:38Z</time>
      </trkpt>
      <trkpt lat="44.32909" lon="5.61369">
        <ele>1219.09</ele>
        <time>2015-05-07T09:36:55Z</time>
      </trkpt>
      <trkpt lat="44.32898" lon="5.61372">
        <ele>1220.53</ele>
        <time>2015-05-07T09:37:09Z</time>
      </trkpt>
      <trkpt lat="44.32891" lon="5.61377">
        <ele>1221.01</ele>
        <time>2015-05-07T09:37:23Z</time>
      </trkpt>
      <trkpt lat="44.32882" lon="5.61375">
        <ele>1221.97</ele>
        <time>2015-05-07T09:37:36Z</time>
      </trkpt>
      <trkpt lat="44.32874" lon="5.61375">
        <ele>1221.49</ele>
        <time>2015-05-07T09:37:51Z</time>
      </trkpt>
      <trkpt lat="44.32873" lon="5.61375">
        <ele>1221.49</ele>
        <time>2015-05-07T09:38:12Z</time>
      </trkpt>
      <trkpt lat="44.32873" lon="5.61377">
        <ele>1221.49</ele>
        <time>2015-05-07T09:38:33Z</time>
      </trkpt>
      <trkpt lat="44.32873" lon="5.61377">
        <ele>1221.49</ele>
        <time>2015-05-07T09:38:56Z</time>
      </trkpt>
      <trkpt lat="44.32873" lon="5.61374">
        <ele>1221.49</ele>
        <time>2015-05-07T09:39:22Z</time>
      </trkpt>
      <trkpt lat="44.32872" lon="5.61375">
        <ele>1221.01</ele>
        <time>2015-05-07T09:39:53Z</time>
      </trkpt>
      <trkpt lat="44.32874" lon="5.61373">
        <ele>1221.49</ele>
        <time>2015-05-07T09:40:14Z</time>
      </trkpt>
      <trkpt lat="44.32871" lon="5.61375">
        <ele>1221.49</ele>
        <time>2015-05-07T09:40:31Z</time>
      </trkpt>
      <trkpt lat="44.32862" lon="5.61368">
        <ele>1221.01</ele>
        <time>2015-05-07T09:40:45Z</time>
      </trkpt>
      <trkpt lat="44.32858" lon="5.61363">
        <ele>1220.05</ele>
        <time>2015-05-07T09:40:58Z</time>
      </trkpt>
      <trkpt lat="44.32847" lon="5.61358">
        <ele>1218.13</ele>
        <time>2015-05-07T09:41:13Z</time>
      </trkpt>
      <trkpt lat="44.32839" lon="5.61352">
        <ele>1217.17</ele>
        <time>2015-05-07T09:41:23Z</time>
      </trkpt>
      <trkpt lat="44.32833" lon="5.61348">
        <ele>1216.21</ele>
        <time>2015-05-07T09:41:36Z</time>
      </trkpt>
      <trkpt lat="44.32825" lon="5.61343">
        <ele>1216.21</ele>
        <time>2015-05-07T09:41:49Z</time>
      </trkpt>
      <trkpt lat="44.32811" lon="5.61338">
        <ele>1215.24</ele>
        <time>2015-05-07T09:42:06Z</time>
      </trkpt>
      <trkpt lat="44.32797" lon="5.61335">
        <ele>1213.32</ele>
        <time>2015-05-07T09:42:20Z</time>
      </trkpt>
      <trkpt lat="44.32789" lon="5.61325">
        <ele>1211.88</ele>
        <time>2015-05-07T09:42:32Z</time>
      </trkpt>
      <trkpt lat="44.32782" lon="5.61315">
        <ele>1209.96</ele>
        <time>2015-05-07T09:42:47Z</time>
      </trkpt>
      <trkpt lat="44.32776" lon="5.61312">
        <ele>1209</ele>
        <time>2015-05-07T09:43:02Z</time>
      </trkpt>
      <trkpt lat="44.32775" lon="5.61313">
        <ele>1209</ele>
        <time>2015-05-07T09:43:26Z</time>
      </trkpt>
      <trkpt lat="44.32778" lon="5.61318">
        <ele>1209.48</ele>
        <time>2015-05-07T09:43:50Z</time>
      </trkpt>
      <trkpt lat="44.32777" lon="5.61315">
        <ele>1209</ele>
        <time>2015-05-07T09:44:16Z</time>
      </trkpt>
      <trkpt lat="44.32776" lon="5.61313">
        <ele>1209</ele>
        <time>2015-05-07T09:44:43Z</time>
      </trkpt>
      <trkpt lat="44.32778" lon="5.61316">
        <ele>1209</ele>
        <time>2015-05-07T09:45:15Z</time>
      </trkpt>
      <trkpt lat="44.32777" lon="5.61315">
        <ele>1209.48</ele>
        <time>2015-05-07T09:45:43Z</time>
      </trkpt>
      <trkpt lat="44.32777" lon="5.61316">
        <ele>1209.96</ele>
        <time>2015-05-07T09:46:13Z</time>
      </trkpt>
      <trkpt lat="44.3278" lon="5.61317">
        <ele>1209.96</ele>
        <time>2015-05-07T09:46:28Z</time>
      </trkpt>
      <trkpt lat="44.32785" lon="5.61315">
        <ele>1210.44</ele>
        <time>2015-05-07T09:46:42Z</time>
      </trkpt>
      <trkpt lat="44.32786" lon="5.6131">
        <ele>1209.96</ele>
        <time>2015-05-07T09:46:56Z</time>
      </trkpt>
      <trkpt lat="44.32786" lon="5.61311">
        <ele>1209.96</ele>
        <time>2015-05-07T09:47:08Z</time>
      </trkpt>
      <trkpt lat="44.3279" lon="5.61311">
        <ele>1209.96</ele>
        <time>2015-05-07T09:47:25Z</time>
      </trkpt>
      <trkpt lat="44.32791" lon="5.61317">
        <ele>1211.88</ele>
        <time>2015-05-07T09:47:39Z</time>
      </trkpt>
      <trkpt lat="44.32795" lon="5.61322">
        <ele>1215.24</ele>
        <time>2015-05-07T09:47:51Z</time>
      </trkpt>
      <trkpt lat="44.32796" lon="5.61334">
        <ele>1214.28</ele>
        <time>2015-05-07T09:48:05Z</time>
      </trkpt>
      <trkpt lat="44.32804" lon="5.61338">
        <ele>1215.24</ele>
        <time>2015-05-07T09:48:20Z</time>
      </trkpt>
      <trkpt lat="44.32815" lon="5.61345">
        <ele>1216.21</ele>
        <time>2015-05-07T09:48:35Z</time>
      </trkpt>
      <trkpt lat="44.32823" lon="5.61348">
        <ele>1217.17</ele>
        <time>2015-05-07T09:48:47Z</time>
      </trkpt>
      <trkpt lat="44.32832" lon="5.61353">
        <ele>1217.65</ele>
        <time>2015-05-07T09:48:59Z</time>
      </trkpt>
      <trkpt lat="44.32851" lon="5.61362">
        <ele>1220.05</ele>
        <time>2015-05-07T09:49:14Z</time>
      </trkpt>
      <trkpt lat="44.32852" lon="5.61363">
        <ele>1220.05</ele>
        <time>2015-05-07T09:49:16Z</time>
      </trkpt>
      <trkpt lat="44.32857" lon="5.61367">
        <ele>1221.01</ele>
        <time>2015-05-07T09:49:23Z</time>
      </trkpt>
      <trkpt lat="44.32865" lon="5.61373">
        <ele>1221.49</ele>
        <time>2015-05-07T09:49:35Z</time>
      </trkpt>
      <trkpt lat="44.3288" lon="5.61377">
        <ele>1221.97</ele>
        <time>2015-05-07T09:49:50Z</time>
      </trkpt>
      <trkpt lat="44.32888" lon="5.61381">
        <ele>1221.01</ele>
        <time>2015-05-07T09:50:02Z</time>
      </trkpt>
      <trkpt lat="44.32903" lon="5.61378">
        <ele>1220.05</ele>
        <time>2015-05-07T09:50:17Z</time>
      </trkpt>
      <trkpt lat="44.32912" lon="5.61375">
        <ele>1218.61</ele>
        <time>2015-05-07T09:50:31Z</time>
      </trkpt>
      <trkpt lat="44.32919" lon="5.61373">
        <ele>1216.21</ele>
        <time>2015-05-07T09:50:46Z</time>
      </trkpt>
      <trkpt lat="44.3294" lon="5.61368">
        <ele>1214.76</ele>
        <time>2015-05-07T09:51:00Z</time>
      </trkpt>
      <trkpt lat="44.32954" lon="5.61368">
        <ele>1212.84</ele>
        <time>2015-05-07T09:51:15Z</time>
      </trkpt>
      <trkpt lat="44.32964" lon="5.61371">
        <ele>1212.36</ele>
        <time>2015-05-07T09:51:30Z</time>
      </trkpt>
      <trkpt lat="44.32972" lon="5.61369">
        <ele>1210.92</ele>
        <time>2015-05-07T09:51:43Z</time>
      </trkpt>
      <trkpt lat="44.32982" lon="5.61375">
        <ele>1209.96</ele>
        <time>2015-05-07T09:51:57Z</time>
      </trkpt>
      <trkpt lat="44.32992" lon="5.61375">
        <ele>1208.51</ele>
        <time>2015-05-07T09:52:12Z</time>
      </trkpt>
      <trkpt lat="44.33006" lon="5.61373">
        <ele>1207.55</ele>
        <time>2015-05-07T09:52:26Z</time>
      </trkpt>
      <trkpt lat="44.33013" lon="5.61376">
        <ele>1207.07</ele>
        <time>2015-05-07T09:52:39Z</time>
      </trkpt>
      <trkpt lat="44.33021" lon="5.61372">
        <ele>1206.11</ele>
        <time>2015-05-07T09:52:53Z</time>
      </trkpt>
      <trkpt lat="44.3303" lon="5.61369">
        <ele>1204.67</ele>
        <time>2015-05-07T09:53:05Z</time>
      </trkpt>
      <trkpt lat="44.3304" lon="5.61369">
        <ele>1203.23</ele>
        <time>2015-05-07T09:53:20Z</time>
      </trkpt>
      <trkpt lat="44.3305" lon="5.61365">
        <ele>1201.79</ele>
        <time>2015-05-07T09:53:34Z</time>
      </trkpt>
      <trkpt lat="44.33061" lon="5.61366">
        <ele>1202.27</ele>
        <time>2015-05-07T09:53:49Z</time>
      </trkpt>
      <trkpt lat="44.33081" lon="5.61362">
        <ele>1202.27</ele>
        <time>2015-05-07T09:54:04Z</time>
      </trkpt>
      <trkpt lat="44.33088" lon="5.6136">
        <ele>1202.75</ele>
        <time>2015-05-07T09:54:17Z</time>
      </trkpt>
      <trkpt lat="44.33096" lon="5.61355">
        <ele>1202.27</ele>
        <time>2015-05-07T09:54:34Z</time>
      </trkpt>
      <trkpt lat="44.33102" lon="5.61344">
        <ele>1201.3</ele>
        <time>2015-05-07T09:54:48Z</time>
      </trkpt>
      <trkpt lat="44.33113" lon="5.61341">
        <ele>1203.23</ele>
        <time>2015-05-07T09:55:02Z</time>
      </trkpt>
      <trkpt lat="44.33118" lon="5.6134">
        <ele>1204.67</ele>
        <time>2015-05-07T09:55:17Z</time>
      </trkpt>
      <trkpt lat="44.33125" lon="5.61338">
        <ele>1205.63</ele>
        <time>2015-05-07T09:55:32Z</time>
      </trkpt>
      <trkpt lat="44.33131" lon="5.61335">
        <ele>1207.55</ele>
        <time>2015-05-07T09:55:42Z</time>
      </trkpt>
      <trkpt lat="44.33136" lon="5.61329">
        <ele>1209.96</ele>
        <time>2015-05-07T09:55:52Z</time>
      </trkpt>
      <trkpt lat="44.33148" lon="5.61318">
        <ele>1211.88</ele>
        <time>2015-05-07T09:56:08Z</time>
      </trkpt>
      <trkpt lat="44.33157" lon="5.61315">
        <ele>1214.28</ele>
        <time>2015-05-07T09:56:21Z</time>
      </trkpt>
      <trkpt lat="44.33162" lon="5.61314">
        <ele>1215.72</ele>
        <time>2015-05-07T09:56:34Z</time>
      </trkpt>
      <trkpt lat="44.33167" lon="5.61312">
        <ele>1216.21</ele>
        <time>2015-05-07T09:56:54Z</time>
      </trkpt>
      <trkpt lat="44.33172" lon="5.61311">
        <ele>1216.69</ele>
        <time>2015-05-07T09:57:12Z</time>
      </trkpt>
      <trkpt lat="44.33181" lon="5.61311">
        <ele>1216.21</ele>
        <time>2015-05-07T09:57:26Z</time>
      </trkpt>
      <trkpt lat="44.33189" lon="5.6131">
        <ele>1214.28</ele>
        <time>2015-05-07T09:57:43Z</time>
      </trkpt>
      <trkpt lat="44.33194" lon="5.61306">
        <ele>1213.32</ele>
        <time>2015-05-07T09:57:59Z</time>
      </trkpt>
      <trkpt lat="44.33193" lon="5.61299">
        <ele>1211.88</ele>
        <time>2015-05-07T09:58:14Z</time>
      </trkpt>
      <trkpt lat="44.33194" lon="5.61291">
        <ele>1209.48</ele>
        <time>2015-05-07T09:58:24Z</time>
      </trkpt>
      <trkpt lat="44.33201" lon="5.61284">
        <ele>1206.59</ele>
        <time>2015-05-07T09:58:39Z</time>
      </trkpt>
      <trkpt lat="44.33209" lon="5.61285">
        <ele>1208.03</ele>
        <time>2015-05-07T09:58:51Z</time>
      </trkpt>
      <trkpt lat="44.33217" lon="5.61283">
        <ele>1209.48</ele>
        <time>2015-05-07T09:59:04Z</time>
      </trkpt>
      <trkpt lat="44.33225" lon="5.61282">
        <ele>1209.96</ele>
        <time>2015-05-07T09:59:18Z</time>
      </trkpt>
      <trkpt lat="44.33235" lon="5.6128">
        <ele>1211.4</ele>
        <time>2015-05-07T09:59:32Z</time>
      </trkpt>
      <trkpt lat="44.33239" lon="5.61273">
        <ele>1209.48</ele>
        <time>2015-05-07T09:59:45Z</time>
      </trkpt>
      <trkpt lat="44.33243" lon="5.61268">
        <ele>1208.51</ele>
        <time>2015-05-07T09:59:58Z</time>
      </trkpt>
      <trkpt lat="44.33241" lon="5.61267">
        <ele>1208.51</ele>
        <time>2015-05-07T10:00:14Z</time>
      </trkpt>
      <trkpt lat="44.33244" lon="5.61266">
        <ele>1208.51</ele>
        <time>2015-05-07T10:00:23Z</time>
      </trkpt>
      <trkpt lat="44.33254" lon="5.61266">
        <ele>1208.51</ele>
        <time>2015-05-07T10:00:36Z</time>
      </trkpt>
      <trkpt lat="44.33262" lon="5.61262">
        <ele>1208.03</ele>
        <time>2015-05-07T10:00:48Z</time>
      </trkpt>
      <trkpt lat="44.33264" lon="5.61257">
        <ele>1206.59</ele>
        <time>2015-05-07T10:00:55Z</time>
      </trkpt>
      <trkpt lat="44.33276" lon="5.61247">
        <ele>1209.96</ele>
        <time>2015-05-07T10:01:12Z</time>
      </trkpt>
      <trkpt lat="44.33283" lon="5.6124">
        <ele>1212.84</ele>
        <time>2015-05-07T10:01:24Z</time>
      </trkpt>
      <trkpt lat="44.3329" lon="5.61235">
        <ele>1215.72</ele>
        <time>2015-05-07T10:01:36Z</time>
      </trkpt>
      <trkpt lat="44.33289" lon="5.61232">
        <ele>1216.21</ele>
        <time>2015-05-07T10:01:47Z</time>
      </trkpt>
      <trkpt lat="44.33291" lon="5.6123">
        <ele>1216.21</ele>
        <time>2015-05-07T10:02:11Z</time>
      </trkpt>
      <trkpt lat="44.3329" lon="5.61228">
        <ele>1216.21</ele>
        <time>2015-05-07T10:02:36Z</time>
      </trkpt>
      <trkpt lat="44.3329" lon="5.61223">
        <ele>1215.72</ele>
        <time>2015-05-07T10:02:59Z</time>
      </trkpt>
      <trkpt lat="44.3329" lon="5.61223">
        <ele>1214.76</ele>
        <time>2015-05-07T10:03:18Z</time>
      </trkpt>
      <trkpt lat="44.3329" lon="5.61225">
        <ele>1215.24</ele>
        <time>2015-05-07T10:03:41Z</time>
      </trkpt>
      <trkpt lat="44.33289" lon="5.61223">
        <ele>1215.24</ele>
        <time>2015-05-07T10:04:15Z</time>
      </trkpt>
      <trkpt lat="44.33286" lon="5.61223">
        <ele>1215.24</ele>
        <time>2015-05-07T10:04:38Z</time>
      </trkpt>
      <trkpt lat="44.33286" lon="5.61227">
        <ele>1215.72</ele>
        <time>2015-05-07T10:04:56Z</time>
      </trkpt>
      <trkpt lat="44.3329" lon="5.6123">
        <ele>1216.21</ele>
        <time>2015-05-07T10:05:16Z</time>
      </trkpt>
      <trkpt lat="44.33289" lon="5.61227">
        <ele>1216.21</ele>
        <time>2015-05-07T10:05:40Z</time>
      </trkpt>
      <trkpt lat="44.33287" lon="5.61225">
        <ele>1215.72</ele>
        <time>2015-05-07T10:06:00Z</time>
      </trkpt>
      <trkpt lat="44.33286" lon="5.61219">
        <ele>1215.72</ele>
        <time>2015-05-07T10:06:15Z</time>
      </trkpt>
      <trkpt lat="44.33285" lon="5.61212">
        <ele>1214.76</ele>
        <time>2015-05-07T10:06:30Z</time>
      </trkpt>
      <trkpt lat="44.33284" lon="5.61201">
        <ele>1213.8</ele>
        <time>2015-05-07T10:06:47Z</time>
      </trkpt>
      <trkpt lat="44.33282" lon="5.61198">
        <ele>1213.32</ele>
        <time>2015-05-07T10:07:03Z</time>
      </trkpt>
      <trkpt lat="44.33281" lon="5.61183">
        <ele>1212.36</ele>
        <time>2015-05-07T10:07:21Z</time>
      </trkpt>
      <trkpt lat="44.33278" lon="5.6118">
        <ele>1211.88</ele>
        <time>2015-05-07T10:07:36Z</time>
      </trkpt>
      <trkpt lat="44.33278" lon="5.61179">
        <ele>1212.36</ele>
        <time>2015-05-07T10:08:01Z</time>
      </trkpt>
      <trkpt lat="44.33277" lon="5.6118">
        <ele>1212.36</ele>
        <time>2015-05-07T10:08:22Z</time>
      </trkpt>
      <trkpt lat="44.33279" lon="5.61177">
        <ele>1212.36</ele>
        <time>2015-05-07T10:08:44Z</time>
      </trkpt>
      <trkpt lat="44.33279" lon="5.61178">
        <ele>1212.84</ele>
        <time>2015-05-07T10:09:19Z</time>
      </trkpt>
      <trkpt lat="44.33276" lon="5.61175">
        <ele>1212.84</ele>
        <time>2015-05-07T10:09:50Z</time>
      </trkpt>
      <trkpt lat="44.33277" lon="5.61174">
        <ele>1212.84</ele>
        <time>2015-05-07T10:10:28Z</time>
      </trkpt>
      <trkpt lat="44.33279" lon="5.61176">
        <ele>1213.32</ele>
        <time>2015-05-07T10:10:54Z</time>
      </trkpt>
      <trkpt lat="44.33277" lon="5.61177">
        <ele>1213.32</ele>
        <time>2015-05-07T10:11:17Z</time>
      </trkpt>
      <trkpt lat="44.33277" lon="5.61178">
        <ele>1213.32</ele>
        <time>2015-05-07T10:11:48Z</time>
      </trkpt>
      <trkpt lat="44.33277" lon="5.61179">
        <ele>1212.84</ele>
        <time>2015-05-07T10:12:18Z</time>
      </trkpt>
      <trkpt lat="44.33276" lon="5.61173">
        <ele>1211.88</ele>
        <time>2015-05-07T10:12:32Z</time>
      </trkpt>
      <trkpt lat="44.33275" lon="5.61165">
        <ele>1210.44</ele>
        <time>2015-05-07T10:12:48Z</time>
      </trkpt>
      <trkpt lat="44.33271" lon="5.61161">
        <ele>1207.55</ele>
        <time>2015-05-07T10:13:05Z</time>
      </trkpt>
      <trkpt lat="44.33268" lon="5.61153">
        <ele>1204.67</ele>
        <time>2015-05-07T10:13:20Z</time>
      </trkpt>
      <trkpt lat="44.33264" lon="5.61145">
        <ele>1201.3</ele>
        <time>2015-05-07T10:13:29Z</time>
      </trkpt>
      <trkpt lat="44.33259" lon="5.61133">
        <ele>1199.38</ele>
        <time>2015-05-07T10:13:43Z</time>
      </trkpt>
      <trkpt lat="44.33256" lon="5.61122">
        <ele>1197.46</ele>
        <time>2015-05-07T10:13:55Z</time>
      </trkpt>
      <trkpt lat="44.33251" lon="5.61104">
        <ele>1196.98</ele>
        <time>2015-05-07T10:14:09Z</time>
      </trkpt>
      <trkpt lat="44.33248" lon="5.61083">
        <ele>1197.46</ele>
        <time>2015-05-07T10:14:25Z</time>
      </trkpt>
      <trkpt lat="44.33251" lon="5.61072">
        <ele>1199.38</ele>
        <time>2015-05-07T10:14:37Z</time>
      </trkpt>
      <trkpt lat="44.33249" lon="5.61059">
        <ele>1200.34</ele>
        <time>2015-05-07T10:14:53Z</time>
      </trkpt>
      <trkpt lat="44.33248" lon="5.61059">
        <ele>1200.34</ele>
        <time>2015-05-07T10:15:11Z</time>
      </trkpt>
      <trkpt lat="44.33249" lon="5.61057">
        <ele>1200.82</ele>
        <time>2015-05-07T10:15:26Z</time>
      </trkpt>
      <trkpt lat="44.33246" lon="5.61062">
        <ele>1200.82</ele>
        <time>2015-05-07T10:15:50Z</time>
      </trkpt>
      <trkpt lat="44.3325" lon="5.61056">
        <ele>1200.82</ele>
        <time>2015-05-07T10:16:15Z</time>
      </trkpt>
      <trkpt lat="44.3325" lon="5.61048">
        <ele>1200.82</ele>
        <time>2015-05-07T10:16:29Z</time>
      </trkpt>
      <trkpt lat="44.33247" lon="5.6105">
        <ele>1200.34</ele>
        <time>2015-05-07T10:16:45Z</time>
      </trkpt>
      <trkpt lat="44.33245" lon="5.61051">
        <ele>1200.34</ele>
        <time>2015-05-07T10:17:14Z</time>
      </trkpt>
      <trkpt lat="44.33245" lon="5.6105">
        <ele>1200.34</ele>
        <time>2015-05-07T10:17:40Z</time>
      </trkpt>
      <trkpt lat="44.33244" lon="5.61053">
        <ele>1200.82</ele>
        <time>2015-05-07T10:18:14Z</time>
      </trkpt>
      <trkpt lat="44.33244" lon="5.61052">
        <ele>1201.3</ele>
        <time>2015-05-07T10:18:54Z</time>
      </trkpt>
      <trkpt lat="44.33247" lon="5.6105">
        <ele>1201.3</ele>
        <time>2015-05-07T10:19:36Z</time>
      </trkpt>
      <trkpt lat="44.33245" lon="5.61051">
        <ele>1201.3</ele>
        <time>2015-05-07T10:20:23Z</time>
      </trkpt>
      <trkpt lat="44.33243" lon="5.61054">
        <ele>1201.3</ele>
        <time>2015-05-07T10:21:03Z</time>
      </trkpt>
      <trkpt lat="44.33243" lon="5.61055">
        <ele>1201.3</ele>
        <time>2015-05-07T10:21:49Z</time>
      </trkpt>
      <trkpt lat="44.33241" lon="5.61055">
        <ele>1201.79</ele>
        <time>2015-05-07T10:22:35Z</time>
      </trkpt>
      <trkpt lat="44.33239" lon="5.61056">
        <ele>1201.79</ele>
        <time>2015-05-07T10:23:19Z</time>
      </trkpt>
      <trkpt lat="44.33241" lon="5.61054">
        <ele>1202.27</ele>
        <time>2015-05-07T10:24:02Z</time>
      </trkpt>
      <trkpt lat="44.33245" lon="5.61051">
        <ele>1202.27</ele>
        <time>2015-05-07T10:24:45Z</time>
      </trkpt>
      <trkpt lat="44.33247" lon="5.61049">
        <ele>1202.27</ele>
        <time>2015-05-07T10:25:24Z</time>
      </trkpt>
      <trkpt lat="44.33247" lon="5.6105">
        <ele>1202.27</ele>
        <time>2015-05-07T10:26:06Z</time>
      </trkpt>
      <trkpt lat="44.33245" lon="5.61049">
        <ele>1202.27</ele>
        <time>2015-05-07T10:26:44Z</time>
      </trkpt>
      <trkpt lat="44.33242" lon="5.61051">
        <ele>1202.27</ele>
        <time>2015-05-07T10:27:25Z</time>
      </trkpt>
      <trkpt lat="44.33244" lon="5.61051">
        <ele>1202.75</ele>
        <time>2015-05-07T10:28:04Z</time>
      </trkpt>
      <trkpt lat="44.33243" lon="5.61051">
        <ele>1202.27</ele>
        <time>2015-05-07T10:28:51Z</time>
      </trkpt>
      <trkpt lat="44.33243" lon="5.61048">
        <ele>1202.75</ele>
        <time>2015-05-07T10:29:38Z</time>
      </trkpt>
      <trkpt lat="44.33242" lon="5.6105">
        <ele>1202.75</ele>
        <time>2015-05-07T10:30:25Z</time>
      </trkpt>
      <trkpt lat="44.33244" lon="5.61051">
        <ele>1203.23</ele>
        <time>2015-05-07T10:31:07Z</time>
      </trkpt>
      <trkpt lat="44.33245" lon="5.61049">
        <ele>1203.23</ele>
        <time>2015-05-07T10:31:41Z</time>
      </trkpt>
      <trkpt lat="44.33244" lon="5.61048">
        <ele>1203.23</ele>
        <time>2015-05-07T10:32:30Z</time>
      </trkpt>
      <trkpt lat="44.33243" lon="5.61051">
        <ele>1203.71</ele>
        <time>2015-05-07T10:33:18Z</time>
      </trkpt>
      <trkpt lat="44.33244" lon="5.6105">
        <ele>1203.71</ele>
        <time>2015-05-07T10:33:57Z</time>
      </trkpt>
      <trkpt lat="44.33242" lon="5.61052">
        <ele>1203.71</ele>
        <time>2015-05-07T10:34:41Z</time>
      </trkpt>
      <trkpt lat="44.33244" lon="5.61049">
        <ele>1204.19</ele>
        <time>2015-05-07T10:35:27Z</time>
      </trkpt>
      <trkpt lat="44.33245" lon="5.61048">
        <ele>1205.15</ele>
        <time>2015-05-07T10:36:12Z</time>
      </trkpt>
      <trkpt lat="44.33242" lon="5.61051">
        <ele>1204.19</ele>
        <time>2015-05-07T10:36:58Z</time>
      </trkpt>
      <trkpt lat="44.33243" lon="5.6105">
        <ele>1204.19</ele>
        <time>2015-05-07T10:37:38Z</time>
      </trkpt>
      <trkpt lat="44.33243" lon="5.61049">
        <ele>1204.67</ele>
        <time>2015-05-07T10:38:12Z</time>
      </trkpt>
      <trkpt lat="44.33244" lon="5.61049">
        <ele>1204.19</ele>
        <time>2015-05-07T10:38:52Z</time>
      </trkpt>
      <trkpt lat="44.33244" lon="5.61051">
        <ele>1204.67</ele>
        <time>2015-05-07T10:39:29Z</time>
      </trkpt>
      <trkpt lat="44.33241" lon="5.61051">
        <ele>1205.15</ele>
        <time>2015-05-07T10:40:09Z</time>
      </trkpt>
      <trkpt lat="44.33242" lon="5.61052">
        <ele>1205.15</ele>
        <time>2015-05-07T10:40:49Z</time>
      </trkpt>
      <trkpt lat="44.33246" lon="5.61048">
        <ele>1204.67</ele>
        <time>2015-05-07T10:41:33Z</time>
      </trkpt>
      <trkpt lat="44.33246" lon="5.61048">
        <ele>1204.67</ele>
        <time>2015-05-07T10:42:07Z</time>
      </trkpt>
      <trkpt lat="44.33245" lon="5.61051">
        <ele>1204.67</ele>
        <time>2015-05-07T10:42:41Z</time>
      </trkpt>
      <trkpt lat="44.33245" lon="5.61048">
        <ele>1204.67</ele>
        <time>2015-05-07T10:43:15Z</time>
      </trkpt>
      <trkpt lat="44.33244" lon="5.6105">
        <ele>1204.67</ele>
        <time>2015-05-07T10:43:53Z</time>
      </trkpt>
      <trkpt lat="44.33247" lon="5.61049">
        <ele>1205.15</ele>
        <time>2015-05-07T10:44:31Z</time>
      </trkpt>
      <trkpt lat="44.33243" lon="5.61051">
        <ele>1205.15</ele>
        <time>2015-05-07T10:45:05Z</time>
      </trkpt>
      <trkpt lat="44.33244" lon="5.6105">
        <ele>1205.15</ele>
        <time>2015-05-07T10:45:53Z</time>
      </trkpt>
      <trkpt lat="44.33245" lon="5.61052">
        <ele>1205.15</ele>
        <time>2015-05-07T10:46:34Z</time>
      </trkpt>
      <trkpt lat="44.33244" lon="5.61052">
        <ele>1205.15</ele>
        <time>2015-05-07T10:47:15Z</time>
      </trkpt>
      <trkpt lat="44.33246" lon="5.61049">
        <ele>1205.15</ele>
        <time>2015-05-07T10:47:50Z</time>
      </trkpt>
      <trkpt lat="44.33247" lon="5.61048">
        <ele>1205.15</ele>
        <time>2015-05-07T10:48:27Z</time>
      </trkpt>
      <trkpt lat="44.33246" lon="5.61049">
        <ele>1205.63</ele>
        <time>2015-05-07T10:49:03Z</time>
      </trkpt>
      <trkpt lat="44.33245" lon="5.61049">
        <ele>1205.15</ele>
        <time>2015-05-07T10:49:43Z</time>
      </trkpt>
      <trkpt lat="44.33246" lon="5.61049">
        <ele>1205.63</ele>
        <time>2015-05-07T10:50:20Z</time>
      </trkpt>
      <trkpt lat="44.33245" lon="5.61048">
        <ele>1204.67</ele>
        <time>2015-05-07T10:51:04Z</time>
      </trkpt>
      <trkpt lat="44.33244" lon="5.61049">
        <ele>1204.67</ele>
        <time>2015-05-07T10:51:39Z</time>
      </trkpt>
      <trkpt lat="44.33244" lon="5.6105">
        <ele>1204.67</ele>
        <time>2015-05-07T10:52:20Z</time>
      </trkpt>
      <trkpt lat="44.33245" lon="5.61049">
        <ele>1204.67</ele>
        <time>2015-05-07T10:53:08Z</time>
      </trkpt>
      <trkpt lat="44.33246" lon="5.61047">
        <ele>1204.67</ele>
        <time>2015-05-07T10:53:49Z</time>
      </trkpt>
      <trkpt lat="44.33249" lon="5.61041">
        <ele>1205.15</ele>
        <time>2015-05-07T10:54:11Z</time>
      </trkpt>
      <trkpt lat="44.33249" lon="5.61043">
        <ele>1204.67</ele>
        <time>2015-05-07T10:54:32Z</time>
      </trkpt>
      <trkpt lat="44.3325" lon="5.6104">
        <ele>1204.67</ele>
        <time>2015-05-07T10:54:48Z</time>
      </trkpt>
      <trkpt lat="44.3325" lon="5.61041">
        <ele>1204.19</ele>
        <time>2015-05-07T10:55:09Z</time>
      </trkpt>
      <trkpt lat="44.33251" lon="5.61036">
        <ele>1204.67</ele>
        <time>2015-05-07T10:55:27Z</time>
      </trkpt>
      <trkpt lat="44.33248" lon="5.61043">
        <ele>1204.19</ele>
        <time>2015-05-07T10:55:40Z</time>
      </trkpt>
      <trkpt lat="44.3325" lon="5.61043">
        <ele>1204.19</ele>
        <time>2015-05-07T10:55:53Z</time>
      </trkpt>
      <trkpt lat="44.33248" lon="5.61041">
        <ele>1203.23</ele>
        <time>2015-05-07T10:56:08Z</time>
      </trkpt>
      <trkpt lat="44.33249" lon="5.61039">
        <ele>1203.71</ele>
        <time>2015-05-07T10:56:34Z</time>
      </trkpt>
      <trkpt lat="44.33249" lon="5.61042">
        <ele>1203.71</ele>
        <time>2015-05-07T10:57:02Z</time>
      </trkpt>
      <trkpt lat="44.3325" lon="5.61041">
        <ele>1203.23</ele>
        <time>2015-05-07T10:57:31Z</time>
      </trkpt>
      <trkpt lat="44.33249" lon="5.61042">
        <ele>1203.23</ele>
        <time>2015-05-07T10:58:08Z</time>
      </trkpt>
      <trkpt lat="44.33251" lon="5.6104">
        <ele>1203.23</ele>
        <time>2015-05-07T10:58:37Z</time>
      </trkpt>
      <trkpt lat="44.33249" lon="5.6104">
        <ele>1203.23</ele>
        <time>2015-05-07T10:59:14Z</time>
      </trkpt>
      <trkpt lat="44.33249" lon="5.61042">
        <ele>1203.23</ele>
        <time>2015-05-07T10:59:52Z</time>
      </trkpt>
      <trkpt lat="44.33248" lon="5.61041">
        <ele>1203.71</ele>
        <time>2015-05-07T11:00:29Z</time>
      </trkpt>
      <trkpt lat="44.33249" lon="5.61038">
        <ele>1203.23</ele>
        <time>2015-05-07T11:00:53Z</time>
      </trkpt>
      <trkpt lat="44.33249" lon="5.6104">
        <ele>1203.23</ele>
        <time>2015-05-07T11:01:15Z</time>
      </trkpt>
      <trkpt lat="44.33249" lon="5.61042">
        <ele>1203.23</ele>
        <time>2015-05-07T11:01:38Z</time>
      </trkpt>
      <trkpt lat="44.33249" lon="5.61037">
        <ele>1202.75</ele>
        <time>2015-05-07T11:02:02Z</time>
      </trkpt>
      <trkpt lat="44.3325" lon="5.61042">
        <ele>1203.71</ele>
        <time>2015-05-07T11:02:35Z</time>
      </trkpt>
      <trkpt lat="44.33248" lon="5.61047">
        <ele>1203.71</ele>
        <time>2015-05-07T11:02:48Z</time>
      </trkpt>
      <trkpt lat="44.33247" lon="5.61048">
        <ele>1203.71</ele>
        <time>2015-05-07T11:03:27Z</time>
      </trkpt>
      <trkpt lat="44.33246" lon="5.61051">
        <ele>1204.19</ele>
        <time>2015-05-07T11:03:51Z</time>
      </trkpt>
      <trkpt lat="44.33243" lon="5.61051">
        <ele>1204.19</ele>
        <time>2015-05-07T11:04:15Z</time>
      </trkpt>
      <trkpt lat="44.33243" lon="5.6105">
        <ele>1204.19</ele>
        <time>2015-05-07T11:04:45Z</time>
      </trkpt>
      <trkpt lat="44.3324" lon="5.61051">
        <ele>1204.19</ele>
        <time>2015-05-07T11:05:11Z</time>
      </trkpt>
      <trkpt lat="44.33241" lon="5.61051">
        <ele>1204.19</ele>
        <time>2015-05-07T11:05:39Z</time>
      </trkpt>
      <trkpt lat="44.33244" lon="5.61049">
        <ele>1204.19</ele>
        <time>2015-05-07T11:06:01Z</time>
      </trkpt>
      <trkpt lat="44.33242" lon="5.61048">
        <ele>1204.19</ele>
        <time>2015-05-07T11:06:32Z</time>
      </trkpt>
      <trkpt lat="44.33242" lon="5.61048">
        <ele>1203.71</ele>
        <time>2015-05-07T11:06:54Z</time>
      </trkpt>
      <trkpt lat="44.33245" lon="5.61046">
        <ele>1204.19</ele>
        <time>2015-05-07T11:07:13Z</time>
      </trkpt>
      <trkpt lat="44.33244" lon="5.61049">
        <ele>1204.19</ele>
        <time>2015-05-07T11:07:51Z</time>
      </trkpt>
      <trkpt lat="44.33244" lon="5.61047">
        <ele>1203.71</ele>
        <time>2015-05-07T11:08:19Z</time>
      </trkpt>
      <trkpt lat="44.33246" lon="5.61045">
        <ele>1203.71</ele>
        <time>2015-05-07T11:08:43Z</time>
      </trkpt>
      <trkpt lat="44.3325" lon="5.61046">
        <ele>1203.71</ele>
        <time>2015-05-07T11:09:24Z</time>
      </trkpt>
      <trkpt lat="44.33247" lon="5.61049">
        <ele>1203.23</ele>
        <time>2015-05-07T11:10:05Z</time>
      </trkpt>
      <trkpt lat="44.33245" lon="5.61046">
        <ele>1203.23</ele>
        <time>2015-05-07T11:10:39Z</time>
      </trkpt>
      <trkpt lat="44.33246" lon="5.61045">
        <ele>1203.23</ele>
        <time>2015-05-07T11:11:09Z</time>
      </trkpt>
      <trkpt lat="44.33245" lon="5.61045">
        <ele>1203.23</ele>
        <time>2015-05-07T11:11:36Z</time>
      </trkpt>
      <trkpt lat="44.33245" lon="5.61044">
        <ele>1202.75</ele>
        <time>2015-05-07T11:12:04Z</time>
      </trkpt>
      <trkpt lat="44.33246" lon="5.61042">
        <ele>1203.23</ele>
        <time>2015-05-07T11:12:36Z</time>
      </trkpt>
      <trkpt lat="44.33242" lon="5.61043">
        <ele>1202.75</ele>
        <time>2015-05-07T11:13:11Z</time>
      </trkpt>
      <trkpt lat="44.33244" lon="5.61041">
        <ele>1203.23</ele>
        <time>2015-05-07T11:13:45Z</time>
      </trkpt>
      <trkpt lat="44.33246" lon="5.6104">
        <ele>1203.23</ele>
        <time>2015-05-07T11:14:22Z</time>
      </trkpt>
      <trkpt lat="44.33249" lon="5.61039">
        <ele>1203.23</ele>
        <time>2015-05-07T11:14:59Z</time>
      </trkpt>
      <trkpt lat="44.33249" lon="5.61041">
        <ele>1203.23</ele>
        <time>2015-05-07T11:15:37Z</time>
      </trkpt>
      <trkpt lat="44.33248" lon="5.61043">
        <ele>1203.23</ele>
        <time>2015-05-07T11:16:09Z</time>
      </trkpt>
      <trkpt lat="44.33247" lon="5.61043">
        <ele>1203.23</ele>
        <time>2015-05-07T11:16:47Z</time>
      </trkpt>
      <trkpt lat="44.33244" lon="5.61045">
        <ele>1203.23</ele>
        <time>2015-05-07T11:17:30Z</time>
      </trkpt>
      <trkpt lat="44.33242" lon="5.61046">
        <ele>1203.71</ele>
        <time>2015-05-07T11:18:06Z</time>
      </trkpt>
      <trkpt lat="44.33244" lon="5.61044">
        <ele>1203.71</ele>
        <time>2015-05-07T11:18:41Z</time>
      </trkpt>
      <trkpt lat="44.33245" lon="5.61043">
        <ele>1203.71</ele>
        <time>2015-05-07T11:19:14Z</time>
      </trkpt>
      <trkpt lat="44.3324" lon="5.61045">
        <ele>1203.71</ele>
        <time>2015-05-07T11:19:48Z</time>
      </trkpt>
      <trkpt lat="44.3324" lon="5.61043">
        <ele>1204.19</ele>
        <time>2015-05-07T11:20:18Z</time>
      </trkpt>
      <trkpt lat="44.33239" lon="5.61044">
        <ele>1203.71</ele>
        <time>2015-05-07T11:20:50Z</time>
      </trkpt>
      <trkpt lat="44.33239" lon="5.61044">
        <ele>1203.71</ele>
        <time>2015-05-07T11:21:19Z</time>
      </trkpt>
      <trkpt lat="44.33247" lon="5.61045">
        <ele>1203.71</ele>
        <time>2015-05-07T11:21:56Z</time>
      </trkpt>
      <trkpt lat="44.33248" lon="5.61042">
        <ele>1203.71</ele>
        <time>2015-05-07T11:22:28Z</time>
      </trkpt>
      <trkpt lat="44.33248" lon="5.61041">
        <ele>1203.71</ele>
        <time>2015-05-07T11:22:56Z</time>
      </trkpt>
      <trkpt lat="44.33242" lon="5.61042">
        <ele>1203.71</ele>
        <time>2015-05-07T11:23:25Z</time>
      </trkpt>
      <trkpt lat="44.33239" lon="5.61045">
        <ele>1204.19</ele>
        <time>2015-05-07T11:23:56Z</time>
      </trkpt>
      <trkpt lat="44.33242" lon="5.61046">
        <ele>1204.19</ele>
        <time>2015-05-07T11:24:29Z</time>
      </trkpt>
      <trkpt lat="44.33242" lon="5.61046">
        <ele>1204.19</ele>
        <time>2015-05-07T11:25:00Z</time>
      </trkpt>
      <trkpt lat="44.33242" lon="5.61046">
        <ele>1204.19</ele>
        <time>2015-05-07T11:25:27Z</time>
      </trkpt>
      <trkpt lat="44.33242" lon="5.61044">
        <ele>1204.67</ele>
        <time>2015-05-07T11:26:04Z</time>
      </trkpt>
      <trkpt lat="44.33241" lon="5.61047">
        <ele>1204.67</ele>
        <time>2015-05-07T11:26:33Z</time>
      </trkpt>
      <trkpt lat="44.33244" lon="5.61041">
        <ele>1204.67</ele>
        <time>2015-05-07T11:26:52Z</time>
      </trkpt>
      <trkpt lat="44.33246" lon="5.6104">
        <ele>1205.15</ele>
        <time>2015-05-07T11:27:07Z</time>
      </trkpt>
      <trkpt lat="44.33249" lon="5.6104">
        <ele>1205.15</ele>
        <time>2015-05-07T11:27:42Z</time>
      </trkpt>
      <trkpt lat="44.33249" lon="5.61041">
        <ele>1204.19</ele>
        <time>2015-05-07T11:28:01Z</time>
      </trkpt>
      <trkpt lat="44.3325" lon="5.6104">
        <ele>1200.34</ele>
        <time>2015-05-07T11:28:26Z</time>
      </trkpt>
      <trkpt lat="44.3325" lon="5.6104">
        <ele>1200.34</ele>
        <time>2015-05-07T11:28:27Z</time>
      </trkpt>
      <trkpt lat="44.33249" lon="5.61041">
        <ele>1204.19</ele>
        <time>2015-05-07T11:28:31Z</time>
      </trkpt>
      <trkpt lat="44.33248" lon="5.61041">
        <ele>1204.19</ele>
        <time>2015-05-07T11:28:32Z</time>
      </trkpt>
      <trkpt lat="44.33247" lon="5.61039">
        <ele>1204.67</ele>
        <time>2015-05-07T11:28:47Z</time>
      </trkpt>
      <trkpt lat="44.33247" lon="5.61039">
        <ele>1205.15</ele>
        <time>2015-05-07T11:29:05Z</time>
      </trkpt>
      <trkpt lat="44.33248" lon="5.61041">
        <ele>1204.67</ele>
        <time>2015-05-07T11:29:18Z</time>
      </trkpt>
      <trkpt lat="44.33247" lon="5.6104">
        <ele>1205.15</ele>
        <time>2015-05-07T11:29:36Z</time>
      </trkpt>
      <trkpt lat="44.33248" lon="5.6104">
        <ele>1204.67</ele>
        <time>2015-05-07T11:29:55Z</time>
      </trkpt>
      <trkpt lat="44.33246" lon="5.61042">
        <ele>1204.67</ele>
        <time>2015-05-07T11:30:28Z</time>
      </trkpt>
      <trkpt lat="44.33247" lon="5.61041">
        <ele>1204.67</ele>
        <time>2015-05-07T11:30:49Z</time>
      </trkpt>
      <trkpt lat="44.33248" lon="5.61041">
        <ele>1205.15</ele>
        <time>2015-05-07T11:31:19Z</time>
      </trkpt>
      <trkpt lat="44.3325" lon="5.6104">
        <ele>1204.67</ele>
        <time>2015-05-07T11:31:56Z</time>
      </trkpt>
      <trkpt lat="44.33248" lon="5.61039">
        <ele>1204.67</ele>
        <time>2015-05-07T11:32:26Z</time>
      </trkpt>
      <trkpt lat="44.33248" lon="5.61039">
        <ele>1205.15</ele>
        <time>2015-05-07T11:32:58Z</time>
      </trkpt>
      <trkpt lat="44.33248" lon="5.61042">
        <ele>1204.67</ele>
        <time>2015-05-07T11:33:32Z</time>
      </trkpt>
      <trkpt lat="44.33249" lon="5.61039">
        <ele>1204.67</ele>
        <time>2015-05-07T11:33:55Z</time>
      </trkpt>
      <trkpt lat="44.33249" lon="5.61041">
        <ele>1204.67</ele>
        <time>2015-05-07T11:34:10Z</time>
      </trkpt>
      <trkpt lat="44.33247" lon="5.61034">
        <ele>1204.67</ele>
        <time>2015-05-07T11:34:25Z</time>
      </trkpt>
      <trkpt lat="44.33247" lon="5.61032">
        <ele>1204.19</ele>
        <time>2015-05-07T11:34:44Z</time>
      </trkpt>
      <trkpt lat="44.33246" lon="5.61032">
        <ele>1204.19</ele>
        <time>2015-05-07T11:35:12Z</time>
      </trkpt>
      <trkpt lat="44.33247" lon="5.6103">
        <ele>1204.67</ele>
        <time>2015-05-07T11:35:38Z</time>
      </trkpt>
      <trkpt lat="44.33248" lon="5.61022">
        <ele>1204.67</ele>
        <time>2015-05-07T11:35:51Z</time>
      </trkpt>
      <trkpt lat="44.33251" lon="5.61012">
        <ele>1204.67</ele>
        <time>2015-05-07T11:36:05Z</time>
      </trkpt>
      <trkpt lat="44.33254" lon="5.61">
        <ele>1205.15</ele>
        <time>2015-05-07T11:36:18Z</time>
      </trkpt>
      <trkpt lat="44.33256" lon="5.60986">
        <ele>1206.59</ele>
        <time>2015-05-07T11:36:31Z</time>
      </trkpt>
      <trkpt lat="44.33261" lon="5.60971">
        <ele>1208.51</ele>
        <time>2015-05-07T11:36:45Z</time>
      </trkpt>
      <trkpt lat="44.33261" lon="5.60962">
        <ele>1208.51</ele>
        <time>2015-05-07T11:36:52Z</time>
      </trkpt>
      <trkpt lat="44.33263" lon="5.60944">
        <ele>1206.59</ele>
        <time>2015-05-07T11:37:06Z</time>
      </trkpt>
      <trkpt lat="44.33262" lon="5.60934">
        <ele>1205.15</ele>
        <time>2015-05-07T11:37:19Z</time>
      </trkpt>
      <trkpt lat="44.33263" lon="5.60928">
        <ele>1204.19</ele>
        <time>2015-05-07T11:37:35Z</time>
      </trkpt>
      <trkpt lat="44.33264" lon="5.60918">
        <ele>1201.3</ele>
        <time>2015-05-07T11:37:46Z</time>
      </trkpt>
      <trkpt lat="44.33266" lon="5.60901">
        <ele>1198.42</ele>
        <time>2015-05-07T11:37:59Z</time>
      </trkpt>
      <trkpt lat="44.33264" lon="5.60885">
        <ele>1195.54</ele>
        <time>2015-05-07T11:38:13Z</time>
      </trkpt>
      <trkpt lat="44.33269" lon="5.60869">
        <ele>1193.13</ele>
        <time>2015-05-07T11:38:26Z</time>
      </trkpt>
      <trkpt lat="44.33272" lon="5.60859">
        <ele>1191.21</ele>
        <time>2015-05-07T11:38:36Z</time>
      </trkpt>
      <trkpt lat="44.33276" lon="5.60843">
        <ele>1188.81</ele>
        <time>2015-05-07T11:38:51Z</time>
      </trkpt>
      <trkpt lat="44.33274" lon="5.60833">
        <ele>1186.88</ele>
        <time>2015-05-07T11:39:01Z</time>
      </trkpt>
      <trkpt lat="44.33271" lon="5.60819">
        <ele>1184.96</ele>
        <time>2015-05-07T11:39:14Z</time>
      </trkpt>
      <trkpt lat="44.33267" lon="5.60804">
        <ele>1183.52</ele>
        <time>2015-05-07T11:39:27Z</time>
      </trkpt>
      <trkpt lat="44.33263" lon="5.60787">
        <ele>1182.56</ele>
        <time>2015-05-07T11:39:41Z</time>
      </trkpt>
      <trkpt lat="44.33261" lon="5.60774">
        <ele>1181.12</ele>
        <time>2015-05-07T11:39:57Z</time>
      </trkpt>
      <trkpt lat="44.33263" lon="5.60761">
        <ele>1181.12</ele>
        <time>2015-05-07T11:40:15Z</time>
      </trkpt>
      <trkpt lat="44.33266" lon="5.60743">
        <ele>1180.16</ele>
        <time>2015-05-07T11:40:32Z</time>
      </trkpt>
      <trkpt lat="44.3326" lon="5.60723">
        <ele>1178.23</ele>
        <time>2015-05-07T11:40:50Z</time>
      </trkpt>
      <trkpt lat="44.33256" lon="5.60713">
        <ele>1177.27</ele>
        <time>2015-05-07T11:40:58Z</time>
      </trkpt>
      <trkpt lat="44.33252" lon="5.60695">
        <ele>1176.31</ele>
        <time>2015-05-07T11:41:14Z</time>
      </trkpt>
      <trkpt lat="44.33254" lon="5.60673">
        <ele>1175.35</ele>
        <time>2015-05-07T11:41:30Z</time>
      </trkpt>
      <trkpt lat="44.33259" lon="5.60655">
        <ele>1176.31</ele>
        <time>2015-05-07T11:41:48Z</time>
      </trkpt>
      <trkpt lat="44.33267" lon="5.60645">
        <ele>1176.79</ele>
        <time>2015-05-07T11:42:04Z</time>
      </trkpt>
      <trkpt lat="44.33267" lon="5.60639">
        <ele>1177.27</ele>
        <time>2015-05-07T11:42:20Z</time>
      </trkpt>
      <trkpt lat="44.33267" lon="5.60638">
        <ele>1177.27</ele>
        <time>2015-05-07T11:42:36Z</time>
      </trkpt>
      <trkpt lat="44.33267" lon="5.60639">
        <ele>1177.27</ele>
        <time>2015-05-07T11:42:56Z</time>
      </trkpt>
      <trkpt lat="44.33268" lon="5.60638">
        <ele>1176.31</ele>
        <time>2015-05-07T11:43:24Z</time>
      </trkpt>
      <trkpt lat="44.33268" lon="5.60636">
        <ele>1176.79</ele>
        <time>2015-05-07T11:43:50Z</time>
      </trkpt>
      <trkpt lat="44.33268" lon="5.60638">
        <ele>1176.79</ele>
        <time>2015-05-07T11:44:12Z</time>
      </trkpt>
      <trkpt lat="44.33267" lon="5.60637">
        <ele>1176.79</ele>
        <time>2015-05-07T11:44:32Z</time>
      </trkpt>
      <trkpt lat="44.3327" lon="5.60639">
        <ele>1176.79</ele>
        <time>2015-05-07T11:44:51Z</time>
      </trkpt>
      <trkpt lat="44.33268" lon="5.60638">
        <ele>1177.27</ele>
        <time>2015-05-07T11:45:08Z</time>
      </trkpt>
      <trkpt lat="44.3327" lon="5.60639">
        <ele>1176.79</ele>
        <time>2015-05-07T11:45:37Z</time>
      </trkpt>
      <trkpt lat="44.3328" lon="5.60642">
        <ele>1176.79</ele>
        <time>2015-05-07T11:45:52Z</time>
      </trkpt>
      <trkpt lat="44.33295" lon="5.6064">
        <ele>1177.27</ele>
        <time>2015-05-07T11:46:08Z</time>
      </trkpt>
      <trkpt lat="44.33308" lon="5.60636">
        <ele>1175.83</ele>
        <time>2015-05-07T11:46:23Z</time>
      </trkpt>
      <trkpt lat="44.33322" lon="5.60626">
        <ele>1174.39</ele>
        <time>2015-05-07T11:46:41Z</time>
      </trkpt>
      <trkpt lat="44.33333" lon="5.60615">
        <ele>1172.95</ele>
        <time>2015-05-07T11:46:55Z</time>
      </trkpt>
      <trkpt lat="44.33342" lon="5.60604">
        <ele>1171.5</ele>
        <time>2015-05-07T11:47:09Z</time>
      </trkpt>
      <trkpt lat="44.33351" lon="5.60589">
        <ele>1171.5</ele>
        <time>2015-05-07T11:47:25Z</time>
      </trkpt>
      <trkpt lat="44.33359" lon="5.6058">
        <ele>1171.02</ele>
        <time>2015-05-07T11:47:37Z</time>
      </trkpt>
      <trkpt lat="44.33367" lon="5.60571">
        <ele>1170.54</ele>
        <time>2015-05-07T11:47:51Z</time>
      </trkpt>
      <trkpt lat="44.3338" lon="5.60564">
        <ele>1171.02</ele>
        <time>2015-05-07T11:48:06Z</time>
      </trkpt>
      <trkpt lat="44.33397" lon="5.60558">
        <ele>1169.1</ele>
        <time>2015-05-07T11:48:22Z</time>
      </trkpt>
      <trkpt lat="44.3341" lon="5.6055">
        <ele>1168.14</ele>
        <time>2015-05-07T11:48:36Z</time>
      </trkpt>
      <trkpt lat="44.33419" lon="5.60544">
        <ele>1166.7</ele>
        <time>2015-05-07T11:48:50Z</time>
      </trkpt>
      <trkpt lat="44.33433" lon="5.60537">
        <ele>1164.77</ele>
        <time>2015-05-07T11:49:05Z</time>
      </trkpt>
      <trkpt lat="44.3344" lon="5.60532">
        <ele>1164.77</ele>
        <time>2015-05-07T11:49:21Z</time>
      </trkpt>
      <trkpt lat="44.33443" lon="5.60534">
        <ele>1164.77</ele>
        <time>2015-05-07T11:49:47Z</time>
      </trkpt>
      <trkpt lat="44.33447" lon="5.60537">
        <ele>1164.77</ele>
        <time>2015-05-07T11:50:09Z</time>
      </trkpt>
      <trkpt lat="44.3345" lon="5.60529">
        <ele>1163.33</ele>
        <time>2015-05-07T11:50:21Z</time>
      </trkpt>
      <trkpt lat="44.33451" lon="5.60526">
        <ele>1163.33</ele>
        <time>2015-05-07T11:50:39Z</time>
      </trkpt>
      <trkpt lat="44.33462" lon="5.60523">
        <ele>1163.33</ele>
        <time>2015-05-07T11:50:54Z</time>
      </trkpt>
      <trkpt lat="44.33468" lon="5.60521">
        <ele>1162.85</ele>
        <time>2015-05-07T11:51:07Z</time>
      </trkpt>
      <trkpt lat="44.33475" lon="5.60521">
        <ele>1162.37</ele>
        <time>2015-05-07T11:51:21Z</time>
      </trkpt>
      <trkpt lat="44.33486" lon="5.60521">
        <ele>1161.41</ele>
        <time>2015-05-07T11:51:36Z</time>
      </trkpt>
      <trkpt lat="44.335" lon="5.60523">
        <ele>1159.97</ele>
        <time>2015-05-07T11:51:50Z</time>
      </trkpt>
      <trkpt lat="44.33515" lon="5.60524">
        <ele>1157.56</ele>
        <time>2015-05-07T11:52:06Z</time>
      </trkpt>
      <trkpt lat="44.33528" lon="5.6052">
        <ele>1155.64</ele>
        <time>2015-05-07T11:52:22Z</time>
      </trkpt>
      <trkpt lat="44.33537" lon="5.60516">
        <ele>1153.72</ele>
        <time>2015-05-07T11:52:34Z</time>
      </trkpt>
      <trkpt lat="44.3354" lon="5.60515">
        <ele>1153.72</ele>
        <time>2015-05-07T11:52:36Z</time>
      </trkpt>
      <trkpt lat="44.33556" lon="5.60507">
        <ele>1152.28</ele>
        <time>2015-05-07T11:52:52Z</time>
      </trkpt>
      <trkpt lat="44.33565" lon="5.60504">
        <ele>1150.84</ele>
        <time>2015-05-07T11:53:07Z</time>
      </trkpt>
      <trkpt lat="44.33574" lon="5.60502">
        <ele>1148.91</ele>
        <time>2015-05-07T11:53:21Z</time>
      </trkpt>
      <trkpt lat="44.33579" lon="5.60498">
        <ele>1147.47</ele>
        <time>2015-05-07T11:53:35Z</time>
      </trkpt>
      <trkpt lat="44.33588" lon="5.60494">
        <ele>1145.07</ele>
        <time>2015-05-07T11:53:50Z</time>
      </trkpt>
      <trkpt lat="44.33593" lon="5.6049">
        <ele>1143.63</ele>
        <time>2015-05-07T11:54:03Z</time>
      </trkpt>
      <trkpt lat="44.336" lon="5.60484">
        <ele>1141.7</ele>
        <time>2015-05-07T11:54:16Z</time>
      </trkpt>
      <trkpt lat="44.33608" lon="5.60476">
        <ele>1138.82</ele>
        <time>2015-05-07T11:54:29Z</time>
      </trkpt>
      <trkpt lat="44.33619" lon="5.60469">
        <ele>1136.42</ele>
        <time>2015-05-07T11:54:45Z</time>
      </trkpt>
      <trkpt lat="44.33623" lon="5.60464">
        <ele>1134.97</ele>
        <time>2015-05-07T11:54:58Z</time>
      </trkpt>
      <trkpt lat="44.33628" lon="5.60461">
        <ele>1134.01</ele>
        <time>2015-05-07T11:55:11Z</time>
      </trkpt>
      <trkpt lat="44.33641" lon="5.60457">
        <ele>1131.61</ele>
        <time>2015-05-07T11:55:29Z</time>
      </trkpt>
      <trkpt lat="44.3365" lon="5.60455">
        <ele>1130.17</ele>
        <time>2015-05-07T11:55:40Z</time>
      </trkpt>
      <trkpt lat="44.33662" lon="5.60453">
        <ele>1128.24</ele>
        <time>2015-05-07T11:55:54Z</time>
      </trkpt>
      <trkpt lat="44.33675" lon="5.60449">
        <ele>1124.88</ele>
        <time>2015-05-07T11:56:09Z</time>
      </trkpt>
      <trkpt lat="44.33682" lon="5.60448">
        <ele>1123.92</ele>
        <time>2015-05-07T11:56:22Z</time>
      </trkpt>
      <trkpt lat="44.33694" lon="5.60448">
        <ele>1121.52</ele>
        <time>2015-05-07T11:56:39Z</time>
      </trkpt>
      <trkpt lat="44.33698" lon="5.60448">
        <ele>1121.03</ele>
        <time>2015-05-07T11:56:45Z</time>
      </trkpt>
      <trkpt lat="44.33711" lon="5.60452">
        <ele>1119.59</ele>
        <time>2015-05-07T11:57:02Z</time>
      </trkpt>
      <trkpt lat="44.33716" lon="5.60451">
        <ele>1118.15</ele>
        <time>2015-05-07T11:57:16Z</time>
      </trkpt>
      <trkpt lat="44.33724" lon="5.60448">
        <ele>1117.19</ele>
        <time>2015-05-07T11:57:32Z</time>
      </trkpt>
      <trkpt lat="44.33736" lon="5.6045">
        <ele>1114.79</ele>
        <time>2015-05-07T11:57:46Z</time>
      </trkpt>
      <trkpt lat="44.33739" lon="5.60452">
        <ele>1114.79</ele>
        <time>2015-05-07T11:57:50Z</time>
      </trkpt>
      <trkpt lat="44.33751" lon="5.60455">
        <ele>1113.82</ele>
        <time>2015-05-07T11:58:05Z</time>
      </trkpt>
      <trkpt lat="44.33759" lon="5.60455">
        <ele>1111.9</ele>
        <time>2015-05-07T11:58:18Z</time>
      </trkpt>
      <trkpt lat="44.33769" lon="5.60458">
        <ele>1109.98</ele>
        <time>2015-05-07T11:58:32Z</time>
      </trkpt>
      <trkpt lat="44.33779" lon="5.60459">
        <ele>1107.58</ele>
        <time>2015-05-07T11:58:45Z</time>
      </trkpt>
      <trkpt lat="44.33787" lon="5.60464">
        <ele>1105.65</ele>
        <time>2015-05-07T11:58:59Z</time>
      </trkpt>
      <trkpt lat="44.33794" lon="5.60475">
        <ele>1102.77</ele>
        <time>2015-05-07T11:59:16Z</time>
      </trkpt>
      <trkpt lat="44.33803" lon="5.60476">
        <ele>1100.37</ele>
        <time>2015-05-07T11:59:30Z</time>
      </trkpt>
      <trkpt lat="44.33813" lon="5.60491">
        <ele>1097.48</ele>
        <time>2015-05-07T11:59:47Z</time>
      </trkpt>
      <trkpt lat="44.33819" lon="5.60492">
        <ele>1095.56</ele>
        <time>2015-05-07T12:00:04Z</time>
      </trkpt>
      <trkpt lat="44.33823" lon="5.6049">
        <ele>1093.64</ele>
        <time>2015-05-07T12:00:21Z</time>
      </trkpt>
      <trkpt lat="44.33827" lon="5.60492">
        <ele>1091.71</ele>
        <time>2015-05-07T12:00:37Z</time>
      </trkpt>
      <trkpt lat="44.33831" lon="5.60492">
        <ele>1090.27</ele>
        <time>2015-05-07T12:00:50Z</time>
      </trkpt>
      <trkpt lat="44.33833" lon="5.60495">
        <ele>1088.83</ele>
        <time>2015-05-07T12:01:04Z</time>
      </trkpt>
      <trkpt lat="44.33837" lon="5.60498">
        <ele>1085.95</ele>
        <time>2015-05-07T12:01:17Z</time>
      </trkpt>
      <trkpt lat="44.33844" lon="5.60495">
        <ele>1083.06</ele>
        <time>2015-05-07T12:01:30Z</time>
      </trkpt>
      <trkpt lat="44.33846" lon="5.60481">
        <ele>1080.18</ele>
        <time>2015-05-07T12:01:45Z</time>
      </trkpt>
      <trkpt lat="44.3385" lon="5.60473">
        <ele>1076.81</ele>
        <time>2015-05-07T12:01:57Z</time>
      </trkpt>
      <trkpt lat="44.33859" lon="5.60471">
        <ele>1074.41</ele>
        <time>2015-05-07T12:02:12Z</time>
      </trkpt>
      <trkpt lat="44.33863" lon="5.60476">
        <ele>1072.97</ele>
        <time>2015-05-07T12:02:26Z</time>
      </trkpt>
      <trkpt lat="44.33868" lon="5.60482">
        <ele>1070.57</ele>
        <time>2015-05-07T12:02:37Z</time>
      </trkpt>
      <trkpt lat="44.33874" lon="5.60486">
        <ele>1069.12</ele>
        <time>2015-05-07T12:02:46Z</time>
      </trkpt>
      <trkpt lat="44.33881" lon="5.60486">
        <ele>1067.2</ele>
        <time>2015-05-07T12:02:58Z</time>
      </trkpt>
      <trkpt lat="44.3389" lon="5.60487">
        <ele>1066.24</ele>
        <time>2015-05-07T12:03:13Z</time>
      </trkpt>
      <trkpt lat="44.33899" lon="5.60489">
        <ele>1064.32</ele>
        <time>2015-05-07T12:03:24Z</time>
      </trkpt>
      <trkpt lat="44.3391" lon="5.60489">
        <ele>1063.84</ele>
        <time>2015-05-07T12:03:39Z</time>
      </trkpt>
      <trkpt lat="44.33921" lon="5.60489">
        <ele>1063.84</ele>
        <time>2015-05-07T12:03:54Z</time>
      </trkpt>
      <trkpt lat="44.33931" lon="5.60495">
        <ele>1063.84</ele>
        <time>2015-05-07T12:04:08Z</time>
      </trkpt>
      <trkpt lat="44.33933" lon="5.60497">
        <ele>1063.36</ele>
        <time>2015-05-07T12:04:11Z</time>
      </trkpt>
      <trkpt lat="44.33941" lon="5.60504">
        <ele>1062.39</ele>
        <time>2015-05-07T12:04:25Z</time>
      </trkpt>
      <trkpt lat="44.33952" lon="5.60514">
        <ele>1061.43</ele>
        <time>2015-05-07T12:04:41Z</time>
      </trkpt>
      <trkpt lat="44.33956" lon="5.60519">
        <ele>1060.95</ele>
        <time>2015-05-07T12:04:52Z</time>
      </trkpt>
      <trkpt lat="44.33957" lon="5.6052">
        <ele>1060.95</ele>
        <time>2015-05-07T12:04:55Z</time>
      </trkpt>
      <trkpt lat="44.33965" lon="5.60529">
        <ele>1058.07</ele>
        <time>2015-05-07T12:05:09Z</time>
      </trkpt>
      <trkpt lat="44.33975" lon="5.60534">
        <ele>1055.67</ele>
        <time>2015-05-07T12:05:22Z</time>
      </trkpt>
      <trkpt lat="44.3399" lon="5.60537">
        <ele>1053.74</ele>
        <time>2015-05-07T12:05:36Z</time>
      </trkpt>
      <trkpt lat="44.34006" lon="5.60535">
        <ele>1053.74</ele>
        <time>2015-05-07T12:05:53Z</time>
      </trkpt>
      <trkpt lat="44.34012" lon="5.60534">
        <ele>1052.3</ele>
        <time>2015-05-07T12:06:06Z</time>
      </trkpt>
      <trkpt lat="44.34023" lon="5.60528">
        <ele>1051.34</ele>
        <time>2015-05-07T12:06:18Z</time>
      </trkpt>
      <trkpt lat="44.34025" lon="5.60527">
        <ele>1051.34</ele>
        <time>2015-05-07T12:06:20Z</time>
      </trkpt>
      <trkpt lat="44.34039" lon="5.60517">
        <ele>1050.86</ele>
        <time>2015-05-07T12:06:35Z</time>
      </trkpt>
      <trkpt lat="44.34053" lon="5.60506">
        <ele>1051.82</ele>
        <time>2015-05-07T12:06:50Z</time>
      </trkpt>
      <trkpt lat="44.3406" lon="5.60502">
        <ele>1052.3</ele>
        <time>2015-05-07T12:07:04Z</time>
      </trkpt>
      <trkpt lat="44.34066" lon="5.60496">
        <ele>1052.78</ele>
        <time>2015-05-07T12:07:19Z</time>
      </trkpt>
      <trkpt lat="44.34081" lon="5.60492">
        <ele>1050.38</ele>
        <time>2015-05-07T12:07:34Z</time>
      </trkpt>
      <trkpt lat="44.34092" lon="5.6049">
        <ele>1049.42</ele>
        <time>2015-05-07T12:07:46Z</time>
      </trkpt>
      <trkpt lat="44.34104" lon="5.60489">
        <ele>1048.45</ele>
        <time>2015-05-07T12:07:59Z</time>
      </trkpt>
      <trkpt lat="44.34119" lon="5.60489">
        <ele>1047.97</ele>
        <time>2015-05-07T12:08:14Z</time>
      </trkpt>
      <trkpt lat="44.34132" lon="5.60485">
        <ele>1046.53</ele>
        <time>2015-05-07T12:08:27Z</time>
      </trkpt>
      <trkpt lat="44.34148" lon="5.60481">
        <ele>1045.57</ele>
        <time>2015-05-07T12:08:42Z</time>
      </trkpt>
      <trkpt lat="44.3416" lon="5.60477">
        <ele>1042.69</ele>
        <time>2015-05-07T12:08:57Z</time>
      </trkpt>
      <trkpt lat="44.34172" lon="5.60477">
        <ele>1040.76</ele>
        <time>2015-05-07T12:09:10Z</time>
      </trkpt>
      <trkpt lat="44.34186" lon="5.60478">
        <ele>1039.32</ele>
        <time>2015-05-07T12:09:25Z</time>
      </trkpt>
      <trkpt lat="44.34196" lon="5.60482">
        <ele>1037.88</ele>
        <time>2015-05-07T12:09:38Z</time>
      </trkpt>
      <trkpt lat="44.34202" lon="5.60482">
        <ele>1036.44</ele>
        <time>2015-05-07T12:09:52Z</time>
      </trkpt>
      <trkpt lat="44.34207" lon="5.60482">
        <ele>1035.96</ele>
        <time>2015-05-07T12:10:07Z</time>
      </trkpt>
      <trkpt lat="44.34209" lon="5.60484">
        <ele>1035.96</ele>
        <time>2015-05-07T12:10:25Z</time>
      </trkpt>
      <trkpt lat="44.34209" lon="5.60484">
        <ele>1035.48</ele>
        <time>2015-05-07T12:10:55Z</time>
      </trkpt>
      <trkpt lat="44.34209" lon="5.60486">
        <ele>1035.96</ele>
        <time>2015-05-07T12:11:14Z</time>
      </trkpt>
      <trkpt lat="44.3421" lon="5.60484">
        <ele>1035.48</ele>
        <time>2015-05-07T12:11:35Z</time>
      </trkpt>
      <trkpt lat="44.34213" lon="5.60482">
        <ele>1035.48</ele>
        <time>2015-05-07T12:11:56Z</time>
      </trkpt>
      <trkpt lat="44.34222" lon="5.60483">
        <ele>1033.55</ele>
        <time>2015-05-07T12:12:13Z</time>
      </trkpt>
      <trkpt lat="44.34226" lon="5.60485">
        <ele>1032.59</ele>
        <time>2015-05-07T12:12:28Z</time>
      </trkpt>
      <trkpt lat="44.34231" lon="5.60483">
        <ele>1031.63</ele>
        <time>2015-05-07T12:12:39Z</time>
      </trkpt>
      <trkpt lat="44.34233" lon="5.60485">
        <ele>1031.63</ele>
        <time>2015-05-07T12:12:58Z</time>
      </trkpt>
      <trkpt lat="44.34236" lon="5.60485">
        <ele>1031.15</ele>
        <time>2015-05-07T12:13:13Z</time>
      </trkpt>
      <trkpt lat="44.34243" lon="5.60481">
        <ele>1030.19</ele>
        <time>2015-05-07T12:13:24Z</time>
      </trkpt>
      <trkpt lat="44.34256" lon="5.60482">
        <ele>1028.75</ele>
        <time>2015-05-07T12:13:37Z</time>
      </trkpt>
      <trkpt lat="44.34267" lon="5.60483">
        <ele>1027.31</ele>
        <time>2015-05-07T12:13:50Z</time>
      </trkpt>
      <trkpt lat="44.34275" lon="5.60484">
        <ele>1026.83</ele>
        <time>2015-05-07T12:13:59Z</time>
      </trkpt>
      <trkpt lat="44.34283" lon="5.60483">
        <ele>1025.38</ele>
        <time>2015-05-07T12:14:08Z</time>
      </trkpt>
      <trkpt lat="44.34296" lon="5.60483">
        <ele>1023.46</ele>
        <time>2015-05-07T12:14:24Z</time>
      </trkpt>
      <trkpt lat="44.34308" lon="5.60481">
        <ele>1021.54</ele>
        <time>2015-05-07T12:14:37Z</time>
      </trkpt>
      <trkpt lat="44.34321" lon="5.60478">
        <ele>1020.1</ele>
        <time>2015-05-07T12:14:52Z</time>
      </trkpt>
      <trkpt lat="44.34334" lon="5.60473">
        <ele>1017.69</ele>
        <time>2015-05-07T12:15:07Z</time>
      </trkpt>
      <trkpt lat="44.34345" lon="5.60467">
        <ele>1016.25</ele>
        <time>2015-05-07T12:15:21Z</time>
      </trkpt>
      <trkpt lat="44.34346" lon="5.60467">
        <ele>1016.25</ele>
        <time>2015-05-07T12:15:22Z</time>
      </trkpt>
      <trkpt lat="44.34351" lon="5.60467">
        <ele>1015.77</ele>
        <time>2015-05-07T12:15:28Z</time>
      </trkpt>
      <trkpt lat="44.34363" lon="5.60462">
        <ele>1014.33</ele>
        <time>2015-05-07T12:15:42Z</time>
      </trkpt>
      <trkpt lat="44.34366" lon="5.6046">
        <ele>1013.85</ele>
        <time>2015-05-07T12:15:45Z</time>
      </trkpt>
      <trkpt lat="44.34368" lon="5.60461">
        <ele>1013.37</ele>
        <time>2015-05-07T12:15:47Z</time>
      </trkpt>
      <trkpt lat="44.34382" lon="5.60453">
        <ele>1011.44</ele>
        <time>2015-05-07T12:16:03Z</time>
      </trkpt>
      <trkpt lat="44.34402" lon="5.6045">
        <ele>1008.56</ele>
        <time>2015-05-07T12:16:22Z</time>
      </trkpt>
      <trkpt lat="44.34417" lon="5.60449">
        <ele>1007.6</ele>
        <time>2015-05-07T12:16:37Z</time>
      </trkpt>
      <trkpt lat="44.34432" lon="5.60446">
        <ele>1005.68</ele>
        <time>2015-05-07T12:16:53Z</time>
      </trkpt>
      <trkpt lat="44.34445" lon="5.60441">
        <ele>1003.75</ele>
        <time>2015-05-07T12:17:06Z</time>
      </trkpt>
      <trkpt lat="44.34463" lon="5.6044">
        <ele>1001.35</ele>
        <time>2015-05-07T12:17:25Z</time>
      </trkpt>
      <trkpt lat="44.34481" lon="5.60437">
        <ele>998.95</ele>
        <time>2015-05-07T12:17:42Z</time>
      </trkpt>
      <trkpt lat="44.34499" lon="5.60427">
        <ele>997.99</ele>
        <time>2015-05-07T12:18:00Z</time>
      </trkpt>
      <trkpt lat="44.345" lon="5.60427">
        <ele>996.54</ele>
        <time>2015-05-07T12:18:01Z</time>
      </trkpt>
      <trkpt lat="44.34513" lon="5.60418">
        <ele>994.62</ele>
        <time>2015-05-07T12:18:16Z</time>
      </trkpt>
      <trkpt lat="44.34526" lon="5.60408">
        <ele>992.7</ele>
        <time>2015-05-07T12:18:30Z</time>
      </trkpt>
      <trkpt lat="44.3453" lon="5.60407">
        <ele>992.22</ele>
        <time>2015-05-07T12:18:34Z</time>
      </trkpt>
      <trkpt lat="44.34534" lon="5.60405">
        <ele>991.74</ele>
        <time>2015-05-07T12:18:39Z</time>
      </trkpt>
      <trkpt lat="44.34539" lon="5.60404">
        <ele>990.78</ele>
        <time>2015-05-07T12:18:44Z</time>
      </trkpt>
      <trkpt lat="44.34556" lon="5.60402">
        <ele>988.85</ele>
        <time>2015-05-07T12:18:59Z</time>
      </trkpt>
      <trkpt lat="44.34563" lon="5.60402">
        <ele>987.89</ele>
        <time>2015-05-07T12:19:05Z</time>
      </trkpt>
      <trkpt lat="44.34579" lon="5.60401">
        <ele>986.45</ele>
        <time>2015-05-07T12:19:22Z</time>
      </trkpt>
      <trkpt lat="44.34586" lon="5.60398">
        <ele>985.49</ele>
        <time>2015-05-07T12:19:30Z</time>
      </trkpt>
      <trkpt lat="44.34592" lon="5.60395">
        <ele>985.01</ele>
        <time>2015-05-07T12:19:36Z</time>
      </trkpt>
      <trkpt lat="44.34611" lon="5.60397">
        <ele>982.12</ele>
        <time>2015-05-07T12:19:55Z</time>
      </trkpt>
      <trkpt lat="44.34624" lon="5.60396">
        <ele>981.16</ele>
        <time>2015-05-07T12:20:08Z</time>
      </trkpt>
      <trkpt lat="44.34642" lon="5.60397">
        <ele>979.24</ele>
        <time>2015-05-07T12:20:26Z</time>
      </trkpt>
      <trkpt lat="44.34657" lon="5.60398">
        <ele>978.28</ele>
        <time>2015-05-07T12:20:44Z</time>
      </trkpt>
      <trkpt lat="44.34658" lon="5.60398">
        <ele>977.8</ele>
        <time>2015-05-07T12:20:45Z</time>
      </trkpt>
      <trkpt lat="44.34668" lon="5.60402">
        <ele>976.84</ele>
        <time>2015-05-07T12:21:00Z</time>
      </trkpt>
      <trkpt lat="44.34684" lon="5.60404">
        <ele>975.39</ele>
        <time>2015-05-07T12:21:17Z</time>
      </trkpt>
      <trkpt lat="44.34692" lon="5.60405">
        <ele>974.43</ele>
        <time>2015-05-07T12:21:32Z</time>
      </trkpt>
      <trkpt lat="44.34704" lon="5.60404">
        <ele>973.47</ele>
        <time>2015-05-07T12:21:46Z</time>
      </trkpt>
      <trkpt lat="44.34715" lon="5.604">
        <ele>971.55</ele>
        <time>2015-05-07T12:21:58Z</time>
      </trkpt>
      <trkpt lat="44.34725" lon="5.60392">
        <ele>969.63</ele>
        <time>2015-05-07T12:22:12Z</time>
      </trkpt>
      <trkpt lat="44.34726" lon="5.60391">
        <ele>969.63</ele>
        <time>2015-05-07T12:22:13Z</time>
      </trkpt>
      <trkpt lat="44.3474" lon="5.60376">
        <ele>966.74</ele>
        <time>2015-05-07T12:22:31Z</time>
      </trkpt>
      <trkpt lat="44.34751" lon="5.60364">
        <ele>963.86</ele>
        <time>2015-05-07T12:22:46Z</time>
      </trkpt>
      <trkpt lat="44.34761" lon="5.60352">
        <ele>960.98</ele>
        <time>2015-05-07T12:23:01Z</time>
      </trkpt>
      <trkpt lat="44.34771" lon="5.60345">
        <ele>959.05</ele>
        <time>2015-05-07T12:23:13Z</time>
      </trkpt>
      <trkpt lat="44.34776" lon="5.60341">
        <ele>957.61</ele>
        <time>2015-05-07T12:23:19Z</time>
      </trkpt>
      <trkpt lat="44.34783" lon="5.60331">
        <ele>954.73</ele>
        <time>2015-05-07T12:23:31Z</time>
      </trkpt>
      <trkpt lat="44.34792" lon="5.60317">
        <ele>951.36</ele>
        <time>2015-05-07T12:23:45Z</time>
      </trkpt>
      <trkpt lat="44.348" lon="5.60301">
        <ele>948.48</ele>
        <time>2015-05-07T12:23:59Z</time>
      </trkpt>
      <trkpt lat="44.34811" lon="5.60288">
        <ele>945.59</ele>
        <time>2015-05-07T12:24:15Z</time>
      </trkpt>
      <trkpt lat="44.34814" lon="5.60284">
        <ele>945.59</ele>
        <time>2015-05-07T12:24:19Z</time>
      </trkpt>
      <trkpt lat="44.34818" lon="5.60271">
        <ele>942.71</ele>
        <time>2015-05-07T12:24:31Z</time>
      </trkpt>
      <trkpt lat="44.34826" lon="5.60257">
        <ele>940.31</ele>
        <time>2015-05-07T12:24:45Z</time>
      </trkpt>
      <trkpt lat="44.34834" lon="5.60242">
        <ele>937.9</ele>
        <time>2015-05-07T12:24:59Z</time>
      </trkpt>
      <trkpt lat="44.34847" lon="5.60229">
        <ele>935.5</ele>
        <time>2015-05-07T12:25:17Z</time>
      </trkpt>
      <trkpt lat="44.34862" lon="5.60223">
        <ele>933.58</ele>
        <time>2015-05-07T12:25:32Z</time>
      </trkpt>
      <trkpt lat="44.34863" lon="5.60223">
        <ele>933.1</ele>
        <time>2015-05-07T12:25:47Z</time>
      </trkpt>
      <trkpt lat="44.34864" lon="5.60223">
        <ele>933.1</ele>
        <time>2015-05-07T12:26:02Z</time>
      </trkpt>
      <trkpt lat="44.34865" lon="5.60224">
        <ele>933.1</ele>
        <time>2015-05-07T12:26:15Z</time>
      </trkpt>
      <trkpt lat="44.34866" lon="5.60223">
        <ele>933.1</ele>
        <time>2015-05-07T12:26:29Z</time>
      </trkpt>
      <trkpt lat="44.34868" lon="5.60221">
        <ele>931.17</ele>
        <time>2015-05-07T12:26:41Z</time>
      </trkpt>
      <trkpt lat="44.34869" lon="5.60215">
        <ele>931.17</ele>
        <time>2015-05-07T12:27:12Z</time>
      </trkpt>
      <trkpt lat="44.34868" lon="5.60223">
        <ele>932.14</ele>
        <time>2015-05-07T12:27:28Z</time>
      </trkpt>
      <trkpt lat="44.34868" lon="5.60222">
        <ele>932.14</ele>
        <time>2015-05-07T12:27:44Z</time>
      </trkpt>
      <trkpt lat="44.34866" lon="5.60226">
        <ele>932.14</ele>
        <time>2015-05-07T12:28:20Z</time>
      </trkpt>
      <trkpt lat="44.34868" lon="5.60222">
        <ele>932.14</ele>
        <time>2015-05-07T12:28:46Z</time>
      </trkpt>
      <trkpt lat="44.34867" lon="5.60223">
        <ele>932.62</ele>
        <time>2015-05-07T12:29:05Z</time>
      </trkpt>
      <trkpt lat="44.34862" lon="5.60225">
        <ele>932.62</ele>
        <time>2015-05-07T12:29:42Z</time>
      </trkpt>
      <trkpt lat="44.34874" lon="5.6022">
        <ele>932.14</ele>
        <time>2015-05-07T12:30:06Z</time>
      </trkpt>
      <trkpt lat="44.34886" lon="5.60215">
        <ele>930.69</ele>
        <time>2015-05-07T12:30:19Z</time>
      </trkpt>
      <trkpt lat="44.34893" lon="5.60213">
        <ele>929.73</ele>
        <time>2015-05-07T12:30:33Z</time>
      </trkpt>
      <trkpt lat="44.34893" lon="5.60214">
        <ele>929.25</ele>
        <time>2015-05-07T12:30:52Z</time>
      </trkpt>
      <trkpt lat="44.34892" lon="5.6021">
        <ele>929.25</ele>
        <time>2015-05-07T12:31:25Z</time>
      </trkpt>
      <trkpt lat="44.34893" lon="5.60208">
        <ele>929.25</ele>
        <time>2015-05-07T12:31:53Z</time>
      </trkpt>
      <trkpt lat="44.34901" lon="5.6021">
        <ele>928.77</ele>
        <time>2015-05-07T12:32:10Z</time>
      </trkpt>
      <trkpt lat="44.34913" lon="5.60201">
        <ele>926.85</ele>
        <time>2015-05-07T12:32:25Z</time>
      </trkpt>
      <trkpt lat="44.34923" lon="5.60194">
        <ele>924.45</ele>
        <time>2015-05-07T12:32:38Z</time>
      </trkpt>
      <trkpt lat="44.34925" lon="5.60185">
        <ele>922.52</ele>
        <time>2015-05-07T12:32:52Z</time>
      </trkpt>
      <trkpt lat="44.34923" lon="5.60183">
        <ele>922.04</ele>
        <time>2015-05-07T12:33:09Z</time>
      </trkpt>
      <trkpt lat="44.34923" lon="5.60184">
        <ele>922.52</ele>
        <time>2015-05-07T12:33:30Z</time>
      </trkpt>
      <trkpt lat="44.34923" lon="5.60185">
        <ele>922.52</ele>
        <time>2015-05-07T12:33:51Z</time>
      </trkpt>
      <trkpt lat="44.34923" lon="5.60183">
        <ele>922.04</ele>
        <time>2015-05-07T12:34:11Z</time>
      </trkpt>
      <trkpt lat="44.34922" lon="5.60183">
        <ele>922.04</ele>
        <time>2015-05-07T12:34:30Z</time>
      </trkpt>
      <trkpt lat="44.34916" lon="5.60177">
        <ele>920.6</ele>
        <time>2015-05-07T12:34:44Z</time>
      </trkpt>
      <trkpt lat="44.34911" lon="5.60169">
        <ele>919.16</ele>
        <time>2015-05-07T12:35:00Z</time>
      </trkpt>
      <trkpt lat="44.34911" lon="5.60167">
        <ele>918.68</ele>
        <time>2015-05-07T12:35:14Z</time>
      </trkpt>
      <trkpt lat="44.34909" lon="5.60166">
        <ele>918.68</ele>
        <time>2015-05-07T12:35:41Z</time>
      </trkpt>
      <trkpt lat="44.34907" lon="5.60165">
        <ele>918.68</ele>
        <time>2015-05-07T12:36:10Z</time>
      </trkpt>
      <trkpt lat="44.34898" lon="5.60156">
        <ele>916.27</ele>
        <time>2015-05-07T12:36:27Z</time>
      </trkpt>
      <trkpt lat="44.34889" lon="5.60148">
        <ele>913.87</ele>
        <time>2015-05-07T12:36:41Z</time>
      </trkpt>
      <trkpt lat="44.34886" lon="5.60145">
        <ele>912.91</ele>
        <time>2015-05-07T12:36:46Z</time>
      </trkpt>
      <trkpt lat="44.34874" lon="5.60138">
        <ele>911.47</ele>
        <time>2015-05-07T12:37:00Z</time>
      </trkpt>
      <trkpt lat="44.34864" lon="5.60129">
        <ele>909.06</ele>
        <time>2015-05-07T12:37:16Z</time>
      </trkpt>
      <trkpt lat="44.34851" lon="5.60123">
        <ele>906.66</ele>
        <time>2015-05-07T12:37:32Z</time>
      </trkpt>
      <trkpt lat="44.34837" lon="5.60118">
        <ele>904.26</ele>
        <time>2015-05-07T12:37:48Z</time>
      </trkpt>
      <trkpt lat="44.34821" lon="5.60114">
        <ele>901.85</ele>
        <time>2015-05-07T12:38:06Z</time>
      </trkpt>
      <trkpt lat="44.34818" lon="5.60107">
        <ele>900.89</ele>
        <time>2015-05-07T12:38:14Z</time>
      </trkpt>
      <trkpt lat="44.34811" lon="5.6009">
        <ele>897.53</ele>
        <time>2015-05-07T12:38:30Z</time>
      </trkpt>
      <trkpt lat="44.3481" lon="5.60088">
        <ele>897.53</ele>
        <time>2015-05-07T12:38:32Z</time>
      </trkpt>
      <trkpt lat="44.34796" lon="5.60073">
        <ele>894.64</ele>
        <time>2015-05-07T12:38:50Z</time>
      </trkpt>
      <trkpt lat="44.34784" lon="5.60062">
        <ele>891.76</ele>
        <time>2015-05-07T12:39:06Z</time>
      </trkpt>
      <trkpt lat="44.34778" lon="5.60055">
        <ele>890.32</ele>
        <time>2015-05-07T12:39:21Z</time>
      </trkpt>
      <trkpt lat="44.34776" lon="5.60053">
        <ele>890.32</ele>
        <time>2015-05-07T12:39:57Z</time>
      </trkpt>
      <trkpt lat="44.34776" lon="5.60049">
        <ele>889.36</ele>
        <time>2015-05-07T12:40:30Z</time>
      </trkpt>
      <trkpt lat="44.34765" lon="5.6004">
        <ele>887.43</ele>
        <time>2015-05-07T12:40:45Z</time>
      </trkpt>
      <trkpt lat="44.34758" lon="5.6003">
        <ele>885.03</ele>
        <time>2015-05-07T12:40:59Z</time>
      </trkpt>
      <trkpt lat="44.34748" lon="5.60019">
        <ele>882.63</ele>
        <time>2015-05-07T12:41:13Z</time>
      </trkpt>
      <trkpt lat="44.34742" lon="5.60014">
        <ele>881.19</ele>
        <time>2015-05-07T12:41:20Z</time>
      </trkpt>
      <trkpt lat="44.34735" lon="5.60006">
        <ele>879.26</ele>
        <time>2015-05-07T12:41:31Z</time>
      </trkpt>
      <trkpt lat="44.34732" lon="5.60003">
        <ele>878.78</ele>
        <time>2015-05-07T12:41:35Z</time>
      </trkpt>
      <trkpt lat="44.34726" lon="5.59998">
        <ele>877.34</ele>
        <time>2015-05-07T12:41:43Z</time>
      </trkpt>
      <trkpt lat="44.34715" lon="5.59982">
        <ele>873.98</ele>
        <time>2015-05-07T12:42:00Z</time>
      </trkpt>
      <trkpt lat="44.34704" lon="5.59972">
        <ele>872.53</ele>
        <time>2015-05-07T12:42:14Z</time>
      </trkpt>
      <trkpt lat="44.34697" lon="5.59974">
        <ele>870.13</ele>
        <time>2015-05-07T12:42:21Z</time>
      </trkpt>
      <trkpt lat="44.34692" lon="5.59968">
        <ele>868.69</ele>
        <time>2015-05-07T12:42:29Z</time>
      </trkpt>
      <trkpt lat="44.34695" lon="5.59962">
        <ele>868.21</ele>
        <time>2015-05-07T12:42:33Z</time>
      </trkpt>
      <trkpt lat="44.34703" lon="5.59963">
        <ele>867.73</ele>
        <time>2015-05-07T12:42:37Z</time>
      </trkpt>
      <trkpt lat="44.34721" lon="5.59966">
        <ele>867.73</ele>
        <time>2015-05-07T12:42:52Z</time>
      </trkpt>
      <trkpt lat="44.34734" lon="5.59972">
        <ele>866.77</ele>
        <time>2015-05-07T12:43:05Z</time>
      </trkpt>
      <trkpt lat="44.34746" lon="5.59976">
        <ele>866.77</ele>
        <time>2015-05-07T12:43:18Z</time>
      </trkpt>
      <trkpt lat="44.34759" lon="5.59976">
        <ele>865.32</ele>
        <time>2015-05-07T12:43:32Z</time>
      </trkpt>
      <trkpt lat="44.34765" lon="5.59971">
        <ele>864.36</ele>
        <time>2015-05-07T12:43:49Z</time>
      </trkpt>
      <trkpt lat="44.34764" lon="5.5997">
        <ele>865.32</ele>
        <time>2015-05-07T12:44:15Z</time>
      </trkpt>
      <trkpt lat="44.34762" lon="5.59971">
        <ele>864.36</ele>
        <time>2015-05-07T12:44:43Z</time>
      </trkpt>
      <trkpt lat="44.34765" lon="5.59969">
        <ele>864.36</ele>
        <time>2015-05-07T12:45:13Z</time>
      </trkpt>
      <trkpt lat="44.3477" lon="5.59964">
        <ele>864.36</ele>
        <time>2015-05-07T12:45:21Z</time>
      </trkpt>
      <trkpt lat="44.34781" lon="5.59953">
        <ele>865.32</ele>
        <time>2015-05-07T12:45:37Z</time>
      </trkpt>
      <trkpt lat="44.34792" lon="5.59952">
        <ele>866.77</ele>
        <time>2015-05-07T12:45:52Z</time>
      </trkpt>
      <trkpt lat="44.34803" lon="5.59952">
        <ele>867.73</ele>
        <time>2015-05-07T12:46:07Z</time>
      </trkpt>
      <trkpt lat="44.34815" lon="5.59951">
        <ele>868.69</ele>
        <time>2015-05-07T12:46:21Z</time>
      </trkpt>
      <trkpt lat="44.34825" lon="5.59952">
        <ele>869.65</ele>
        <time>2015-05-07T12:46:32Z</time>
      </trkpt>
      <trkpt lat="44.3484" lon="5.59953">
        <ele>870.13</ele>
        <time>2015-05-07T12:46:48Z</time>
      </trkpt>
      <trkpt lat="44.34844" lon="5.59953">
        <ele>870.61</ele>
        <time>2015-05-07T12:47:03Z</time>
      </trkpt>
      <trkpt lat="44.34845" lon="5.59952">
        <ele>870.61</ele>
        <time>2015-05-07T12:47:35Z</time>
      </trkpt>
      <trkpt lat="44.34844" lon="5.59953">
        <ele>871.09</ele>
        <time>2015-05-07T12:47:59Z</time>
      </trkpt>
      <trkpt lat="44.34844" lon="5.5995">
        <ele>870.61</ele>
        <time>2015-05-07T12:48:30Z</time>
      </trkpt>
      <trkpt lat="44.34851" lon="5.59951">
        <ele>871.09</ele>
        <time>2015-05-07T12:48:53Z</time>
      </trkpt>
      <trkpt lat="44.34866" lon="5.59949">
        <ele>871.09</ele>
        <time>2015-05-07T12:49:09Z</time>
      </trkpt>
      <trkpt lat="44.34874" lon="5.59948">
        <ele>871.09</ele>
        <time>2015-05-07T12:49:17Z</time>
      </trkpt>
      <trkpt lat="44.34876" lon="5.59947">
        <ele>871.09</ele>
        <time>2015-05-07T12:49:19Z</time>
      </trkpt>
      <trkpt lat="44.34892" lon="5.59943">
        <ele>873.01</ele>
        <time>2015-05-07T12:49:35Z</time>
      </trkpt>
      <trkpt lat="44.34905" lon="5.5994">
        <ele>874.46</ele>
        <time>2015-05-07T12:49:51Z</time>
      </trkpt>
      <trkpt lat="44.34916" lon="5.59936">
        <ele>875.9</ele>
        <time>2015-05-07T12:50:04Z</time>
      </trkpt>
      <trkpt lat="44.34925" lon="5.59933">
        <ele>876.86</ele>
        <time>2015-05-07T12:50:18Z</time>
      </trkpt>
      <trkpt lat="44.34939" lon="5.59932">
        <ele>878.3</ele>
        <time>2015-05-07T12:50:35Z</time>
      </trkpt>
      <trkpt lat="44.3495" lon="5.59932">
        <ele>879.26</ele>
        <time>2015-05-07T12:50:51Z</time>
      </trkpt>
      <trkpt lat="44.34959" lon="5.59932">
        <ele>880.22</ele>
        <time>2015-05-07T12:51:03Z</time>
      </trkpt>
      <trkpt lat="44.34973" lon="5.59925">
        <ele>880.22</ele>
        <time>2015-05-07T12:51:20Z</time>
      </trkpt>
      <trkpt lat="44.34986" lon="5.59922">
        <ele>879.74</ele>
        <time>2015-05-07T12:51:36Z</time>
      </trkpt>
      <trkpt lat="44.35002" lon="5.5992">
        <ele>879.74</ele>
        <time>2015-05-07T12:51:53Z</time>
      </trkpt>
      <trkpt lat="44.35009" lon="5.5992">
        <ele>879.74</ele>
        <time>2015-05-07T12:52:00Z</time>
      </trkpt>
      <trkpt lat="44.35018" lon="5.59917">
        <ele>879.26</ele>
        <time>2015-05-07T12:52:15Z</time>
      </trkpt>
      <trkpt lat="44.3502" lon="5.59917">
        <ele>879.26</ele>
        <time>2015-05-07T12:52:44Z</time>
      </trkpt>
      <trkpt lat="44.35037" lon="5.5991">
        <ele>879.26</ele>
        <time>2015-05-07T12:53:01Z</time>
      </trkpt>
      <trkpt lat="44.3504" lon="5.59909">
        <ele>879.26</ele>
        <time>2015-05-07T12:53:04Z</time>
      </trkpt>
      <trkpt lat="44.35052" lon="5.59904">
        <ele>880.22</ele>
        <time>2015-05-07T12:53:19Z</time>
      </trkpt>
      <trkpt lat="44.35059" lon="5.59904">
        <ele>880.71</ele>
        <time>2015-05-07T12:53:32Z</time>
      </trkpt>
      <trkpt lat="44.35058" lon="5.59905">
        <ele>880.71</ele>
        <time>2015-05-07T12:53:59Z</time>
      </trkpt>
      <trkpt lat="44.3506" lon="5.59902">
        <ele>881.19</ele>
        <time>2015-05-07T12:54:26Z</time>
      </trkpt>
      <trkpt lat="44.35066" lon="5.59898">
        <ele>882.15</ele>
        <time>2015-05-07T12:54:39Z</time>
      </trkpt>
      <trkpt lat="44.35079" lon="5.59893">
        <ele>884.07</ele>
        <time>2015-05-07T12:54:54Z</time>
      </trkpt>
      <trkpt lat="44.3509" lon="5.59889">
        <ele>885.51</ele>
        <time>2015-05-07T12:55:08Z</time>
      </trkpt>
      <trkpt lat="44.35094" lon="5.59886">
        <ele>886.95</ele>
        <time>2015-05-07T12:55:21Z</time>
      </trkpt>
      <trkpt lat="44.35097" lon="5.59885">
        <ele>886.95</ele>
        <time>2015-05-07T12:55:50Z</time>
      </trkpt>
      <trkpt lat="44.35111" lon="5.59886">
        <ele>887.91</ele>
        <time>2015-05-07T12:56:05Z</time>
      </trkpt>
      <trkpt lat="44.35124" lon="5.59885">
        <ele>887.43</ele>
        <time>2015-05-07T12:56:17Z</time>
      </trkpt>
      <trkpt lat="44.35134" lon="5.59887">
        <ele>886.95</ele>
        <time>2015-05-07T12:56:30Z</time>
      </trkpt>
      <trkpt lat="44.35148" lon="5.59888">
        <ele>886.95</ele>
        <time>2015-05-07T12:56:43Z</time>
      </trkpt>
      <trkpt lat="44.35158" lon="5.59888">
        <ele>886.95</ele>
        <time>2015-05-07T12:56:57Z</time>
      </trkpt>
      <trkpt lat="44.35158" lon="5.59889">
        <ele>886.95</ele>
        <time>2015-05-07T12:57:15Z</time>
      </trkpt>
      <trkpt lat="44.3516" lon="5.59889">
        <ele>886.47</ele>
        <time>2015-05-07T12:57:17Z</time>
      </trkpt>
      <trkpt lat="44.35163" lon="5.5989">
        <ele>886.47</ele>
        <time>2015-05-07T12:57:20Z</time>
      </trkpt>
      <trkpt lat="44.35167" lon="5.5989">
        <ele>886.47</ele>
        <time>2015-05-07T12:57:24Z</time>
      </trkpt>
      <trkpt lat="44.3518" lon="5.59896">
        <ele>886.95</ele>
        <time>2015-05-07T12:57:39Z</time>
      </trkpt>
      <trkpt lat="44.35185" lon="5.59899">
        <ele>886.95</ele>
        <time>2015-05-07T12:57:43Z</time>
      </trkpt>
      <trkpt lat="44.35192" lon="5.59904">
        <ele>887.43</ele>
        <time>2015-05-07T12:57:50Z</time>
      </trkpt>
      <trkpt lat="44.35196" lon="5.59908">
        <ele>887.91</ele>
        <time>2015-05-07T12:57:55Z</time>
      </trkpt>
      <trkpt lat="44.35207" lon="5.59917">
        <ele>889.36</ele>
        <time>2015-05-07T12:58:09Z</time>
      </trkpt>
      <trkpt lat="44.35218" lon="5.59925">
        <ele>890.32</ele>
        <time>2015-05-07T12:58:21Z</time>
      </trkpt>
      <trkpt lat="44.35224" lon="5.59928">
        <ele>890.32</ele>
        <time>2015-05-07T12:58:34Z</time>
      </trkpt>
      <trkpt lat="44.35234" lon="5.59936">
        <ele>890.8</ele>
        <time>2015-05-07T12:58:48Z</time>
      </trkpt>
      <trkpt lat="44.35246" lon="5.59947">
        <ele>891.76</ele>
        <time>2015-05-07T12:59:04Z</time>
      </trkpt>
      <trkpt lat="44.35248" lon="5.59947">
        <ele>892.24</ele>
        <time>2015-05-07T12:59:23Z</time>
      </trkpt>
      <trkpt lat="44.35246" lon="5.59951">
        <ele>892.24</ele>
        <time>2015-05-07T12:59:45Z</time>
      </trkpt>
      <trkpt lat="44.35246" lon="5.5995">
        <ele>892.24</ele>
        <time>2015-05-07T13:00:07Z</time>
      </trkpt>
      <trkpt lat="44.35245" lon="5.59951">
        <ele>892.24</ele>
        <time>2015-05-07T13:00:29Z</time>
      </trkpt>
      <trkpt lat="44.35248" lon="5.59946">
        <ele>892.24</ele>
        <time>2015-05-07T13:01:04Z</time>
      </trkpt>
      <trkpt lat="44.35246" lon="5.59947">
        <ele>892.24</ele>
        <time>2015-05-07T13:01:23Z</time>
      </trkpt>
      <trkpt lat="44.35245" lon="5.59951">
        <ele>892.24</ele>
        <time>2015-05-07T13:01:43Z</time>
      </trkpt>
      <trkpt lat="44.35253" lon="5.59957">
        <ele>892.24</ele>
        <time>2015-05-07T13:01:55Z</time>
      </trkpt>
      <trkpt lat="44.35261" lon="5.59968">
        <ele>890.32</ele>
        <time>2015-05-07T13:02:10Z</time>
      </trkpt>
      <trkpt lat="44.35266" lon="5.59982">
        <ele>889.36</ele>
        <time>2015-05-07T13:02:24Z</time>
      </trkpt>
      <trkpt lat="44.35272" lon="5.59991">
        <ele>888.4</ele>
        <time>2015-05-07T13:02:34Z</time>
      </trkpt>
      <trkpt lat="44.35274" lon="5.59997">
        <ele>887.91</ele>
        <time>2015-05-07T13:02:38Z</time>
      </trkpt>
      <trkpt lat="44.35276" lon="5.59999">
        <ele>887.91</ele>
        <time>2015-05-07T13:02:41Z</time>
      </trkpt>
      <trkpt lat="44.35282" lon="5.60011">
        <ele>886.95</ele>
        <time>2015-05-07T13:02:50Z</time>
      </trkpt>
      <trkpt lat="44.35283" lon="5.60014">
        <ele>886.47</ele>
        <time>2015-05-07T13:02:53Z</time>
      </trkpt>
      <trkpt lat="44.35293" lon="5.60029">
        <ele>885.51</ele>
        <time>2015-05-07T13:03:07Z</time>
      </trkpt>
      <trkpt lat="44.35293" lon="5.6003">
        <ele>885.03</ele>
        <time>2015-05-07T13:03:08Z</time>
      </trkpt>
      <trkpt lat="44.35296" lon="5.60036">
        <ele>885.03</ele>
        <time>2015-05-07T13:03:12Z</time>
      </trkpt>
      <trkpt lat="44.35301" lon="5.60048">
        <ele>883.59</ele>
        <time>2015-05-07T13:03:21Z</time>
      </trkpt>
      <trkpt lat="44.35303" lon="5.60054">
        <ele>882.63</ele>
        <time>2015-05-07T13:03:25Z</time>
      </trkpt>
      <trkpt lat="44.35306" lon="5.60059">
        <ele>882.15</ele>
        <time>2015-05-07T13:03:30Z</time>
      </trkpt>
      <trkpt lat="44.35308" lon="5.60062">
        <ele>881.67</ele>
        <time>2015-05-07T13:03:33Z</time>
      </trkpt>
      <trkpt lat="44.35314" lon="5.60075">
        <ele>879.74</ele>
        <time>2015-05-07T13:03:47Z</time>
      </trkpt>
      <trkpt lat="44.35315" lon="5.60073">
        <ele>879.74</ele>
        <time>2015-05-07T13:04:02Z</time>
      </trkpt>
      <trkpt lat="44.35316" lon="5.60073">
        <ele>879.26</ele>
        <time>2015-05-07T13:04:22Z</time>
      </trkpt>
      <trkpt lat="44.35314" lon="5.60073">
        <ele>879.26</ele>
        <time>2015-05-07T13:04:35Z</time>
      </trkpt>
      <trkpt lat="44.35315" lon="5.60073">
        <ele>879.26</ele>
        <time>2015-05-07T13:04:56Z</time>
      </trkpt>
      <trkpt lat="44.35317" lon="5.60074">
        <ele>879.26</ele>
        <time>2015-05-07T13:05:20Z</time>
      </trkpt>
      <trkpt lat="44.35322" lon="5.60083">
        <ele>878.3</ele>
        <time>2015-05-07T13:05:36Z</time>
      </trkpt>
      <trkpt lat="44.35323" lon="5.60088">
        <ele>877.34</ele>
        <time>2015-05-07T13:05:40Z</time>
      </trkpt>
      <trkpt lat="44.35333" lon="5.60098">
        <ele>875.42</ele>
        <time>2015-05-07T13:05:50Z</time>
      </trkpt>
      <trkpt lat="44.35346" lon="5.60113">
        <ele>873.5</ele>
        <time>2015-05-07T13:06:06Z</time>
      </trkpt>
      <trkpt lat="44.35353" lon="5.60119">
        <ele>872.05</ele>
        <time>2015-05-07T13:06:13Z</time>
      </trkpt>
      <trkpt lat="44.35358" lon="5.60124">
        <ele>871.09</ele>
        <time>2015-05-07T13:06:28Z</time>
      </trkpt>
      <trkpt lat="44.35358" lon="5.60123">
        <ele>870.61</ele>
        <time>2015-05-07T13:06:50Z</time>
      </trkpt>
      <trkpt lat="44.35357" lon="5.60121">
        <ele>870.61</ele>
        <time>2015-05-07T13:07:13Z</time>
      </trkpt>
      <trkpt lat="44.35362" lon="5.60125">
        <ele>870.61</ele>
        <time>2015-05-07T13:07:33Z</time>
      </trkpt>
      <trkpt lat="44.35378" lon="5.6014">
        <ele>867.25</ele>
        <time>2015-05-07T13:07:50Z</time>
      </trkpt>
      <trkpt lat="44.35381" lon="5.60143">
        <ele>866.77</ele>
        <time>2015-05-07T13:07:53Z</time>
      </trkpt>
      <trkpt lat="44.35393" lon="5.60157">
        <ele>864.84</ele>
        <time>2015-05-07T13:08:06Z</time>
      </trkpt>
      <trkpt lat="44.35398" lon="5.60162">
        <ele>863.88</ele>
        <time>2015-05-07T13:08:11Z</time>
      </trkpt>
      <trkpt lat="44.35401" lon="5.60166">
        <ele>863.4</ele>
        <time>2015-05-07T13:08:14Z</time>
      </trkpt>
      <trkpt lat="44.35402" lon="5.60169">
        <ele>862.92</ele>
        <time>2015-05-07T13:08:16Z</time>
      </trkpt>
      <trkpt lat="44.35405" lon="5.60175">
        <ele>861.48</ele>
        <time>2015-05-07T13:08:20Z</time>
      </trkpt>
      <trkpt lat="44.35422" lon="5.60187">
        <ele>859.08</ele>
        <time>2015-05-07T13:08:35Z</time>
      </trkpt>
      <trkpt lat="44.35441" lon="5.60196">
        <ele>856.19</ele>
        <time>2015-05-07T13:08:50Z</time>
      </trkpt>
      <trkpt lat="44.35447" lon="5.60201">
        <ele>854.75</ele>
        <time>2015-05-07T13:08:56Z</time>
      </trkpt>
      <trkpt lat="44.35453" lon="5.60206">
        <ele>853.31</ele>
        <time>2015-05-07T13:09:03Z</time>
      </trkpt>
      <trkpt lat="44.35467" lon="5.60219">
        <ele>850.9</ele>
        <time>2015-05-07T13:09:18Z</time>
      </trkpt>
      <trkpt lat="44.35473" lon="5.60225">
        <ele>849.94</ele>
        <time>2015-05-07T13:09:25Z</time>
      </trkpt>
      <trkpt lat="44.35477" lon="5.60229">
        <ele>849.46</ele>
        <time>2015-05-07T13:09:29Z</time>
      </trkpt>
      <trkpt lat="44.35483" lon="5.60236">
        <ele>848.5</ele>
        <time>2015-05-07T13:09:36Z</time>
      </trkpt>
      <trkpt lat="44.35486" lon="5.60239">
        <ele>848.02</ele>
        <time>2015-05-07T13:09:39Z</time>
      </trkpt>
      <trkpt lat="44.35489" lon="5.60243">
        <ele>847.06</ele>
        <time>2015-05-07T13:09:43Z</time>
      </trkpt>
      <trkpt lat="44.35498" lon="5.60255">
        <ele>844.66</ele>
        <time>2015-05-07T13:09:54Z</time>
      </trkpt>
      <trkpt lat="44.35501" lon="5.60259">
        <ele>844.18</ele>
        <time>2015-05-07T13:09:58Z</time>
      </trkpt>
      <trkpt lat="44.35503" lon="5.60262">
        <ele>843.69</ele>
        <time>2015-05-07T13:10:01Z</time>
      </trkpt>
      <trkpt lat="44.35506" lon="5.60267">
        <ele>842.73</ele>
        <time>2015-05-07T13:10:05Z</time>
      </trkpt>
      <trkpt lat="44.35509" lon="5.60272">
        <ele>842.25</ele>
        <time>2015-05-07T13:10:09Z</time>
      </trkpt>
      <trkpt lat="44.35513" lon="5.60277">
        <ele>841.29</ele>
        <time>2015-05-07T13:10:13Z</time>
      </trkpt>
      <trkpt lat="44.35514" lon="5.6028">
        <ele>840.81</ele>
        <time>2015-05-07T13:10:15Z</time>
      </trkpt>
      <trkpt lat="44.35517" lon="5.60285">
        <ele>840.33</ele>
        <time>2015-05-07T13:10:19Z</time>
      </trkpt>
      <trkpt lat="44.35519" lon="5.60288">
        <ele>839.37</ele>
        <time>2015-05-07T13:10:21Z</time>
      </trkpt>
      <trkpt lat="44.3552" lon="5.6029">
        <ele>839.37</ele>
        <time>2015-05-07T13:10:23Z</time>
      </trkpt>
      <trkpt lat="44.35524" lon="5.60294">
        <ele>838.41</ele>
        <time>2015-05-07T13:10:27Z</time>
      </trkpt>
      <trkpt lat="44.35545" lon="5.60301">
        <ele>836.48</ele>
        <time>2015-05-07T13:10:42Z</time>
      </trkpt>
      <trkpt lat="44.35559" lon="5.60305">
        <ele>833.12</ele>
        <time>2015-05-07T13:10:55Z</time>
      </trkpt>
      <trkpt lat="44.3558" lon="5.60312">
        <ele>830.24</ele>
        <time>2015-05-07T13:11:13Z</time>
      </trkpt>
      <trkpt lat="44.35588" lon="5.60313">
        <ele>829.27</ele>
        <time>2015-05-07T13:11:20Z</time>
      </trkpt>
      <trkpt lat="44.35592" lon="5.60315">
        <ele>828.31</ele>
        <time>2015-05-07T13:11:23Z</time>
      </trkpt>
      <trkpt lat="44.35597" lon="5.60316">
        <ele>827.35</ele>
        <time>2015-05-07T13:11:27Z</time>
      </trkpt>
      <trkpt lat="44.35617" lon="5.60326">
        <ele>824.47</ele>
        <time>2015-05-07T13:11:44Z</time>
      </trkpt>
      <trkpt lat="44.35633" lon="5.60333">
        <ele>822.55</ele>
        <time>2015-05-07T13:11:58Z</time>
      </trkpt>
      <trkpt lat="44.35651" lon="5.60343">
        <ele>820.14</ele>
        <time>2015-05-07T13:12:13Z</time>
      </trkpt>
      <trkpt lat="44.35666" lon="5.6035">
        <ele>818.7</ele>
        <time>2015-05-07T13:12:25Z</time>
      </trkpt>
      <trkpt lat="44.35676" lon="5.60357">
        <ele>818.22</ele>
        <time>2015-05-07T13:12:38Z</time>
      </trkpt>
      <trkpt lat="44.35693" lon="5.60367">
        <ele>815.82</ele>
        <time>2015-05-07T13:12:53Z</time>
      </trkpt>
      <trkpt lat="44.35694" lon="5.60367">
        <ele>815.34</ele>
        <time>2015-05-07T13:12:54Z</time>
      </trkpt>
      <trkpt lat="44.357" lon="5.6037">
        <ele>814.37</ele>
        <time>2015-05-07T13:12:59Z</time>
      </trkpt>
      <trkpt lat="44.3572" lon="5.60375">
        <ele>812.45</ele>
        <time>2015-05-07T13:13:16Z</time>
      </trkpt>
      <trkpt lat="44.3574" lon="5.60377">
        <ele>810.05</ele>
        <time>2015-05-07T13:13:31Z</time>
      </trkpt>
      <trkpt lat="44.35742" lon="5.60378">
        <ele>809.57</ele>
        <time>2015-05-07T13:13:33Z</time>
      </trkpt>
      <trkpt lat="44.3576" lon="5.60388">
        <ele>808.13</ele>
        <time>2015-05-07T13:13:51Z</time>
      </trkpt>
      <trkpt lat="44.35767" lon="5.6039">
        <ele>807.64</ele>
        <time>2015-05-07T13:13:56Z</time>
      </trkpt>
      <trkpt lat="44.35783" lon="5.60404">
        <ele>805.72</ele>
        <time>2015-05-07T13:14:10Z</time>
      </trkpt>
      <trkpt lat="44.35787" lon="5.60407">
        <ele>805.72</ele>
        <time>2015-05-07T13:14:14Z</time>
      </trkpt>
      <trkpt lat="44.35799" lon="5.60423">
        <ele>804.28</ele>
        <time>2015-05-07T13:14:28Z</time>
      </trkpt>
      <trkpt lat="44.35818" lon="5.60433">
        <ele>802.84</ele>
        <time>2015-05-07T13:14:44Z</time>
      </trkpt>
      <trkpt lat="44.35829" lon="5.60436">
        <ele>801.88</ele>
        <time>2015-05-07T13:14:54Z</time>
      </trkpt>
      <trkpt lat="44.35839" lon="5.60439">
        <ele>801.4</ele>
        <time>2015-05-07T13:15:02Z</time>
      </trkpt>
      <trkpt lat="44.35848" lon="5.6044">
        <ele>801.4</ele>
        <time>2015-05-07T13:15:09Z</time>
      </trkpt>
      <trkpt lat="44.35866" lon="5.60453">
        <ele>800.44</ele>
        <time>2015-05-07T13:15:26Z</time>
      </trkpt>
      <trkpt lat="44.35873" lon="5.6046">
        <ele>799.95</ele>
        <time>2015-05-07T13:15:34Z</time>
      </trkpt>
      <trkpt lat="44.35876" lon="5.60462">
        <ele>799.95</ele>
        <time>2015-05-07T13:15:36Z</time>
      </trkpt>
      <trkpt lat="44.35885" lon="5.60466">
        <ele>799.47</ele>
        <time>2015-05-07T13:15:43Z</time>
      </trkpt>
      <trkpt lat="44.35904" lon="5.60477">
        <ele>799.47</ele>
        <time>2015-05-07T13:16:00Z</time>
      </trkpt>
      <trkpt lat="44.35922" lon="5.60481">
        <ele>798.51</ele>
        <time>2015-05-07T13:16:14Z</time>
      </trkpt>
      <trkpt lat="44.35936" lon="5.60492">
        <ele>797.55</ele>
        <time>2015-05-07T13:16:27Z</time>
      </trkpt>
      <trkpt lat="44.3595" lon="5.60501">
        <ele>797.55</ele>
        <time>2015-05-07T13:16:40Z</time>
      </trkpt>
      <trkpt lat="44.35957" lon="5.60507">
        <ele>797.07</ele>
        <time>2015-05-07T13:16:48Z</time>
      </trkpt>
      <trkpt lat="44.3597" lon="5.60515">
        <ele>797.07</ele>
        <time>2015-05-07T13:17:00Z</time>
      </trkpt>
      <trkpt lat="44.35971" lon="5.60515">
        <ele>797.07</ele>
        <time>2015-05-07T13:17:01Z</time>
      </trkpt>
      <trkpt lat="44.35983" lon="5.60521">
        <ele>797.55</ele>
        <time>2015-05-07T13:17:14Z</time>
      </trkpt>
      <trkpt lat="44.35989" lon="5.60522">
        <ele>797.55</ele>
        <time>2015-05-07T13:17:27Z</time>
      </trkpt>
      <trkpt lat="44.3599" lon="5.6052">
        <ele>797.07</ele>
        <time>2015-05-07T13:17:47Z</time>
      </trkpt>
      <trkpt lat="44.3599" lon="5.6052">
        <ele>796.59</ele>
        <time>2015-05-07T13:18:03Z</time>
      </trkpt>
      <trkpt lat="44.35988" lon="5.60519">
        <ele>796.59</ele>
        <time>2015-05-07T13:18:24Z</time>
      </trkpt>
      <trkpt lat="44.3599" lon="5.60518">
        <ele>796.59</ele>
        <time>2015-05-07T13:18:39Z</time>
      </trkpt>
      <trkpt lat="44.35993" lon="5.60519">
        <ele>797.55</ele>
        <time>2015-05-07T13:18:50Z</time>
      </trkpt>
      <trkpt lat="44.35992" lon="5.60527">
        <ele>798.03</ele>
        <time>2015-05-07T13:19:06Z</time>
      </trkpt>
      <trkpt lat="44.35993" lon="5.60528">
        <ele>798.03</ele>
        <time>2015-05-07T13:19:21Z</time>
      </trkpt>
      <trkpt lat="44.35991" lon="5.60527">
        <ele>798.03</ele>
        <time>2015-05-07T13:19:34Z</time>
      </trkpt>
      <trkpt lat="44.35993" lon="5.60529">
        <ele>798.03</ele>
        <time>2015-05-07T13:19:52Z</time>
      </trkpt>
      <trkpt lat="44.35994" lon="5.60529">
        <ele>798.03</ele>
        <time>2015-05-07T13:20:10Z</time>
      </trkpt>
      <trkpt lat="44.35997" lon="5.60537">
        <ele>797.55</ele>
        <time>2015-05-07T13:20:30Z</time>
      </trkpt>
      <trkpt lat="44.35996" lon="5.6055">
        <ele>797.07</ele>
        <time>2015-05-07T13:20:43Z</time>
      </trkpt>
      <trkpt lat="44.35995" lon="5.6056">
        <ele>797.07</ele>
        <time>2015-05-07T13:20:54Z</time>
      </trkpt>
      <trkpt lat="44.35991" lon="5.60565">
        <ele>797.55</ele>
        <time>2015-05-07T13:20:59Z</time>
      </trkpt>
      <trkpt lat="44.35983" lon="5.60585">
        <ele>797.07</ele>
        <time>2015-05-07T13:21:15Z</time>
      </trkpt>
      <trkpt lat="44.35976" lon="5.60608">
        <ele>797.07</ele>
        <time>2015-05-07T13:21:33Z</time>
      </trkpt>
      <trkpt lat="44.35976" lon="5.60614">
        <ele>797.07</ele>
        <time>2015-05-07T13:21:38Z</time>
      </trkpt>
      <trkpt lat="44.3597" lon="5.6063">
        <ele>797.07</ele>
        <time>2015-05-07T13:21:52Z</time>
      </trkpt>
      <trkpt lat="44.35956" lon="5.60648">
        <ele>798.03</ele>
        <time>2015-05-07T13:22:06Z</time>
      </trkpt>
      <trkpt lat="44.35951" lon="5.60674">
        <ele>797.07</ele>
        <time>2015-05-07T13:22:25Z</time>
      </trkpt>
      <trkpt lat="44.35943" lon="5.60693">
        <ele>797.07</ele>
        <time>2015-05-07T13:22:41Z</time>
      </trkpt>
      <trkpt lat="44.3593" lon="5.60711">
        <ele>797.07</ele>
        <time>2015-05-07T13:22:57Z</time>
      </trkpt>
      <trkpt lat="44.35917" lon="5.60728">
        <ele>797.07</ele>
        <time>2015-05-07T13:23:13Z</time>
      </trkpt>
      <trkpt lat="44.35903" lon="5.60744">
        <ele>797.07</ele>
        <time>2015-05-07T13:23:30Z</time>
      </trkpt>
      <trkpt lat="44.35895" lon="5.60763">
        <ele>797.07</ele>
        <time>2015-05-07T13:23:45Z</time>
      </trkpt>
      <trkpt lat="44.35889" lon="5.60786">
        <ele>797.07</ele>
        <time>2015-05-07T13:24:00Z</time>
      </trkpt>
      <trkpt lat="44.35888" lon="5.60812">
        <ele>797.07</ele>
        <time>2015-05-07T13:24:17Z</time>
      </trkpt>
      <trkpt lat="44.35887" lon="5.60825">
        <ele>797.07</ele>
        <time>2015-05-07T13:24:24Z</time>
      </trkpt>
      <trkpt lat="44.35885" lon="5.60856">
        <ele>797.55</ele>
        <time>2015-05-07T13:24:41Z</time>
      </trkpt>
      <trkpt lat="44.35885" lon="5.60883">
        <ele>797.55</ele>
        <time>2015-05-07T13:24:57Z</time>
      </trkpt>
      <trkpt lat="44.35885" lon="5.6091">
        <ele>797.55</ele>
        <time>2015-05-07T13:25:13Z</time>
      </trkpt>
      <trkpt lat="44.35885" lon="5.60938">
        <ele>798.03</ele>
        <time>2015-05-07T13:25:30Z</time>
      </trkpt>
      <trkpt lat="44.35879" lon="5.60963">
        <ele>797.55</ele>
        <time>2015-05-07T13:25:46Z</time>
      </trkpt>
      <trkpt lat="44.3588" lon="5.60984">
        <ele>797.55</ele>
        <time>2015-05-07T13:25:59Z</time>
      </trkpt>
      <trkpt lat="44.35883" lon="5.6101">
        <ele>797.55</ele>
        <time>2015-05-07T13:26:16Z</time>
      </trkpt>
      <trkpt lat="44.35886" lon="5.61031">
        <ele>798.03</ele>
        <time>2015-05-07T13:26:30Z</time>
      </trkpt>
      <trkpt lat="44.35886" lon="5.61055">
        <ele>797.55</ele>
        <time>2015-05-07T13:26:44Z</time>
      </trkpt>
      <trkpt lat="44.35886" lon="5.6108">
        <ele>797.55</ele>
        <time>2015-05-07T13:26:59Z</time>
      </trkpt>
      <trkpt lat="44.35888" lon="5.61092">
        <ele>797.55</ele>
        <time>2015-05-07T13:27:08Z</time>
      </trkpt>
      <trkpt lat="44.35894" lon="5.61114">
        <ele>797.55</ele>
        <time>2015-05-07T13:27:22Z</time>
      </trkpt>
      <trkpt lat="44.35898" lon="5.61127">
        <ele>797.07</ele>
        <time>2015-05-07T13:27:31Z</time>
      </trkpt>
      <trkpt lat="44.35899" lon="5.61137">
        <ele>797.07</ele>
        <time>2015-05-07T13:27:38Z</time>
      </trkpt>
      <trkpt lat="44.35902" lon="5.61149">
        <ele>796.59</ele>
        <time>2015-05-07T13:27:46Z</time>
      </trkpt>
      <trkpt lat="44.35908" lon="5.61169">
        <ele>795.63</ele>
        <time>2015-05-07T13:28:01Z</time>
      </trkpt>
      <trkpt lat="44.35909" lon="5.61189">
        <ele>795.15</ele>
        <time>2015-05-07T13:28:14Z</time>
      </trkpt>
      <trkpt lat="44.35914" lon="5.61205">
        <ele>794.67</ele>
        <time>2015-05-07T13:28:24Z</time>
      </trkpt>
      <trkpt lat="44.35917" lon="5.61231">
        <ele>794.67</ele>
        <time>2015-05-07T13:28:40Z</time>
      </trkpt>
      <trkpt lat="44.35917" lon="5.61243">
        <ele>794.67</ele>
        <time>2015-05-07T13:28:48Z</time>
      </trkpt>
      <trkpt lat="44.35915" lon="5.61258">
        <ele>794.19</ele>
        <time>2015-05-07T13:29:00Z</time>
      </trkpt>
      <trkpt lat="44.35915" lon="5.61271">
        <ele>793.71</ele>
        <time>2015-05-07T13:29:08Z</time>
      </trkpt>
      <trkpt lat="44.35914" lon="5.61274">
        <ele>793.71</ele>
        <time>2015-05-07T13:29:10Z</time>
      </trkpt>
      <trkpt lat="44.35913" lon="5.61277">
        <ele>793.71</ele>
        <time>2015-05-07T13:29:12Z</time>
      </trkpt>
      <trkpt lat="44.3591" lon="5.61293">
        <ele>793.22</ele>
        <time>2015-05-07T13:29:23Z</time>
      </trkpt>
      <trkpt lat="44.35909" lon="5.61307">
        <ele>792.74</ele>
        <time>2015-05-07T13:29:32Z</time>
      </trkpt>
      <trkpt lat="44.3591" lon="5.6131">
        <ele>792.74</ele>
        <time>2015-05-07T13:29:35Z</time>
      </trkpt>
      <trkpt lat="44.35914" lon="5.61324">
        <ele>791.78</ele>
        <time>2015-05-07T13:29:45Z</time>
      </trkpt>
      <trkpt lat="44.35918" lon="5.61333">
        <ele>791.78</ele>
        <time>2015-05-07T13:29:52Z</time>
      </trkpt>
      <trkpt lat="44.35919" lon="5.61334">
        <ele>791.78</ele>
        <time>2015-05-07T13:29:53Z</time>
      </trkpt>
      <trkpt lat="44.35921" lon="5.61341">
        <ele>791.3</ele>
        <time>2015-05-07T13:29:59Z</time>
      </trkpt>
      <trkpt lat="44.35921" lon="5.61343">
        <ele>791.3</ele>
        <time>2015-05-07T13:30:00Z</time>
      </trkpt>
      <trkpt lat="44.35916" lon="5.61339">
        <ele>790.34</ele>
        <time>2015-05-07T13:30:06Z</time>
      </trkpt>
      <trkpt lat="44.35915" lon="5.61337">
        <ele>790.34</ele>
        <time>2015-05-07T13:30:07Z</time>
      </trkpt>
      <trkpt lat="44.35907" lon="5.61327">
        <ele>788.9</ele>
        <time>2015-05-07T13:30:17Z</time>
      </trkpt>
      <trkpt lat="44.35907" lon="5.61326">
        <ele>788.42</ele>
        <time>2015-05-07T13:30:18Z</time>
      </trkpt>
      <trkpt lat="44.35899" lon="5.61323">
        <ele>787.46</ele>
        <time>2015-05-07T13:30:25Z</time>
      </trkpt>
      <trkpt lat="44.35897" lon="5.61324">
        <ele>787.94</ele>
        <time>2015-05-07T13:30:26Z</time>
      </trkpt>
      <trkpt lat="44.35889" lon="5.61327">
        <ele>786.5</ele>
        <time>2015-05-07T13:30:36Z</time>
      </trkpt>
      <trkpt lat="44.35886" lon="5.61331">
        <ele>786.02</ele>
        <time>2015-05-07T13:30:42Z</time>
      </trkpt>
      <trkpt lat="44.35884" lon="5.61332">
        <ele>786.02</ele>
        <time>2015-05-07T13:30:43Z</time>
      </trkpt>
      <trkpt lat="44.35875" lon="5.61341">
        <ele>785.05</ele>
        <time>2015-05-07T13:30:53Z</time>
      </trkpt>
      <trkpt lat="44.35871" lon="5.61348">
        <ele>785.05</ele>
        <time>2015-05-07T13:30:59Z</time>
      </trkpt>
      <trkpt lat="44.35864" lon="5.61364">
        <ele>785.05</ele>
        <time>2015-05-07T13:31:11Z</time>
      </trkpt>
      <trkpt lat="44.3586" lon="5.6137">
        <ele>784.57</ele>
        <time>2015-05-07T13:31:16Z</time>
      </trkpt>
      <trkpt lat="44.35848" lon="5.61387">
        <ele>784.57</ele>
        <time>2015-05-07T13:31:29Z</time>
      </trkpt>
      <trkpt lat="44.35834" lon="5.61397">
        <ele>784.57</ele>
        <time>2015-05-07T13:31:43Z</time>
      </trkpt>
      <trkpt lat="44.3583" lon="5.614">
        <ele>784.57</ele>
        <time>2015-05-07T13:31:48Z</time>
      </trkpt>
      <trkpt lat="44.35828" lon="5.61401">
        <ele>784.09</ele>
        <time>2015-05-07T13:31:49Z</time>
      </trkpt>
      <trkpt lat="44.35827" lon="5.61402">
        <ele>784.09</ele>
        <time>2015-05-07T13:31:50Z</time>
      </trkpt>
      <trkpt lat="44.35817" lon="5.61418">
        <ele>784.57</ele>
        <time>2015-05-07T13:32:05Z</time>
      </trkpt>
      <trkpt lat="44.35817" lon="5.61421">
        <ele>784.57</ele>
        <time>2015-05-07T13:32:09Z</time>
      </trkpt>
    </trkseg>
  </trk>
</gpx>